Provisional Data: South Branch Tunkhannock Creek near La Plume, PA


Please select a monitoring station.
Please select start date.
Please select start date.

Toggle Unit: C/F Toggle Unit: C/F
Sample Time Temperature (C) Temperature (F) Specific Conductivity (mS/cm) pH   Turbidity (NTU+) DO (mg/L)
1/12/2021 12:00:00 AM 1.07 33.926 0.167 7.34 11.58 13.78
1/12/2021 12:15:00 AM 1.07 33.926 0.169 7.36 11.56 13.79
1/12/2021 12:30:00 AM 1.07 33.926 0.167 7.34 11.59 13.78
1/12/2021 12:45:00 AM 1.07 33.926 0.167 7.33 11.07 13.78
1/12/2021 1:00:00 AM 1.07 33.926 0.17 7.34 11.17 13.79
1/12/2021 1:15:00 AM 1.05 33.89 0.168 7.34 11.34 13.79
1/12/2021 1:30:00 AM 1.05 33.89 0.169 7.34 11.56 13.78
1/12/2021 1:45:00 AM 1.05 33.89 0.17 7.34 11.67 13.79
1/12/2021 2:00:00 AM 1.05 33.89 0.167 7.32 11.63 13.79
1/12/2021 2:15:00 AM 1.05 33.89 0.169 7.32 11.64 13.79
1/12/2021 2:30:00 AM 1.04 33.872 0.169 7.32 11.63 13.79
1/12/2021 2:45:00 AM 1.04 33.872 0.162 7.3 11.72 13.79
1/12/2021 3:00:00 AM 1.04 33.872 0.161 7.31 11.33 13.79
1/12/2021 3:15:00 AM 1.03 33.854 0.158 7.33 11.41 13.79
1/12/2021 3:30:00 AM 1.03 33.854 0.154 7.32 11.4 13.78
1/12/2021 3:45:00 AM 1.03 33.854 0.154 7.33 11.47 13.78
1/12/2021 4:00:00 AM 1.04 33.872 0.154 7.31 12.44 13.79
1/12/2021 4:15:00 AM 1.04 33.872 0.156 7.33 12.46 13.78
1/12/2021 4:30:00 AM 1.05 33.89 0.155 7.3 12.34 13.78
1/12/2021 4:45:00 AM 1.05 33.89 0.158 7.34 12.97 13.78
1/12/2021 5:00:00 AM 1.05 33.89 0.157 7.33 12.88 13.77
1/12/2021 5:15:00 AM 1.05 33.89 0.157 7.34 12.96 13.77
1/12/2021 5:30:00 AM 1.05 33.89 0.156 7.34 13.15 13.76
1/12/2021 5:45:00 AM 1.05 33.89 0.159 7.32 12.99 13.78
1/12/2021 6:00:00 AM 1.03 33.854 0.16 7.33 12.95 13.77
1/12/2021 6:15:00 AM 1.03 33.854 0.163 7.39 12.67 13.77
1/12/2021 6:30:00 AM 1.01 33.818 0.158 7.29 12.79 13.78
1/12/2021 6:45:00 AM 0.99 33.782 0.155 7.32 12.71 13.79
1/12/2021 7:00:00 AM 0.97 33.746 0.155 7.29 12.73 13.79
1/12/2021 7:15:00 AM 0.95 33.71 0.156 7.34 10.91 13.79
1/12/2021 7:30:00 AM 0.93 33.674 0.155 7.31 13.69 13.8
1/12/2021 7:45:00 AM 0.91 33.638 0.153 7.32 12.99 13.82
1/12/2021 8:00:00 AM 0.92 33.656 0.153 7.28 12.24 13.87
1/12/2021 8:15:00 AM 0.95 33.71 0.154 7.36 12.63 13.92
1/12/2021 8:30:00 AM 0.97 33.746 0.153 7.31 11.73 13.96
1/12/2021 8:45:00 AM 1 33.8 0.154 7.38 11.18 14.01
1/12/2021 9:00:00 AM 1.04 33.872 0.15 7.34 11.11 14.06
1/12/2021 9:15:00 AM 1.05 33.89 0.152 7.36 11.25 14.09
1/12/2021 9:30:00 AM 1.07 33.926 0.153 7.37 11.31 14.13
1/12/2021 9:45:00 AM 1.13 34.034 0.153 7.4 11.42 14.16
1/12/2021 10:00:00 AM 1.2 34.16 0.153 7.33 12.09 14.18
1/12/2021 10:15:00 AM 1.23 34.214 0.155 7.42 11.7 14.2
1/12/2021 10:30:00 AM 1.32 34.376 0.157 7.41 11.59 14.22
1/12/2021 10:45:00 AM 1.38 34.484 0.158 7.43 11.5 14.22
1/12/2021 11:00:00 AM 1.49 34.682 0.156 7.43 11.22 14.22
1/12/2021 11:15:00 AM 1.59 34.862 0.156 7.45 11.27 14.21
1/12/2021 11:30:00 AM 1.68 35.024 0.156 7.4 11.74 14.2
1/12/2021 11:45:00 AM 1.76 35.168 0.156 7.46 11.55 14.18
1/12/2021 12:00:00 PM 1.84 35.312 0.153 7.46 11.45 14.17
1/12/2021 12:15:00 PM 1.91 35.438 0.149 7.48 11.19 14.17
1/12/2021 12:30:00 PM 1.98 35.564 0.149 7.46 11.29 14.13
1/12/2021 12:45:00 PM 2.04 35.672 0.15 7.46 11.3 14.12
1/12/2021 1:00:00 PM 2.11 35.798 0.153 7.49 11.19 14.09
1/12/2021 1:15:00 PM 2.17 35.906 0.152 7.47 11.13 14.06
1/12/2021 1:30:00 PM 2.25 36.05 0.153 7.5 11.13 14.05
1/12/2021 1:45:00 PM 2.34 36.212 0.156 7.54 11.19 14.02
1/12/2021 2:00:00 PM 2.4 36.32 0.153 7.51 11.07 13.99
1/12/2021 2:15:00 PM 2.46 36.428 0.155 7.52 11.08 13.96
1/12/2021 2:30:00 PM 2.54 36.572 0.156 7.52 10.49 13.94
1/12/2021 2:45:00 PM 2.59 36.662 0.159 7.55 11.21 13.91
1/12/2021 3:00:00 PM 2.64 36.752 0.154 7.5 11.12 13.88
1/12/2021 3:15:00 PM 2.66 36.788 0.157 7.55 11.39 13.84
1/12/2021 3:30:00 PM 2.66 36.788 0.158 7.52 10.75 13.8
1/12/2021 3:45:00 PM 2.68 36.824 0.161 7.54 10.77 13.76
1/12/2021 4:00:00 PM 2.68 36.824 0.162 7.52 10.71 13.71
1/12/2021 4:15:00 PM 2.68 36.824 0.161 7.51 11.04 13.65
1/12/2021 4:30:00 PM 2.65 36.77 0.161 7.49 11.14 13.59
1/12/2021 4:45:00 PM 2.62 36.716 0.161 7.47 12.15 13.53
1/12/2021 5:00:00 PM 2.6 36.68 0.161 7.41 15.91 13.47
1/12/2021 5:15:00 PM 2.59 36.662 0.164 7.44 11.25 13.41
1/12/2021 5:30:00 PM 2.57 36.626 0.162 7.41 11.07 13.35
1/12/2021 5:45:00 PM 2.56 36.608 0.163 7.42 11.09 13.31
1/12/2021 6:00:00 PM 2.55 36.59 0.163 7.39 11.76 13.29
1/12/2021 6:15:00 PM 2.53 36.554 0.16 7.41 12.4 13.23
1/12/2021 6:30:00 PM 2.52 36.536 0.156 7.38 13.77 13.23
1/12/2021 6:45:00 PM 2.5 36.5 0.156 7.39 11.75 13.25
1/12/2021 7:00:00 PM 2.48 36.464 0.157 7.36 11.82 13.24
1/12/2021 7:15:00 PM 2.46 36.428 0.153 7.38 12.44 13.24
1/12/2021 7:30:00 PM 2.44 36.392 0.152 7.36 12.11 13.24
1/12/2021 7:45:00 PM 2.42 36.356 0.151 7.37 12.08 13.24
1/12/2021 8:00:00 PM 2.4 36.32 0.149 7.34 12.32 13.25
1/12/2021 8:15:00 PM 2.38 36.284 0.15 7.34 12.51 13.25
1/12/2021 8:30:00 PM 2.35 36.23 0.15 7.36 13.13 13.26
1/12/2021 8:45:00 PM 2.33 36.194 0.148 7.34 13.19 13.26
1/12/2021 9:00:00 PM 2.31 36.158 0.147 7.36 13.19 13.28
1/12/2021 9:15:00 PM 2.29 36.122 0.145 7.34 12.97 13.29
1/12/2021 9:30:00 PM 2.26 36.068 0.145 7.34 12.99 13.29
1/12/2021 9:45:00 PM 2.24 36.032 0.145 7.34 12.34 13.31
1/12/2021 10:00:00 PM 2.22 35.996 0.144 7.35 12.41 13.32
1/12/2021 10:15:00 PM 2.19 35.942 0.143 7.33 12 13.32
1/12/2021 10:30:00 PM 2.17 35.906 0.143 7.32 12.06 13.31
1/12/2021 10:45:00 PM 2.15 35.87 0.143 7.33 11.49 13.33
1/12/2021 11:00:00 PM 2.14 35.852 0.142 7.34 11.23 13.35
1/12/2021 11:15:00 PM 2.12 35.816 0.141 7.32 11.24 13.36
1/12/2021 11:30:00 PM 2.1 35.78 0.143 7.33 11.31 13.35
1/12/2021 11:45:00 PM 2.09 35.762 0.143 7.32 11.35 13.36
1/13/2021 12:00:00 AM 2.07 35.726 0.142 7.33 11.27 13.36
1/13/2021 12:15:00 AM 2.06 35.708 0.143 7.34 12.91 13.37
1/13/2021 12:30:00 AM 2.05 35.69 0.142 7.32 12.43 13.36
1/13/2021 12:45:00 AM 2.04 35.672 0.144 7.32 11.22 13.37
1/13/2021 1:00:00 AM 2.03 35.654 0.143 7.32 11.36 13.36
1/13/2021 1:15:00 AM 2.02 35.636 0.144 7.32 11.01 13.37
1/13/2021 1:30:00 AM 2.01 35.618 0.141 7.31 10.81 13.38
1/13/2021 1:45:00 AM 2 35.6 0.141 7.33 10.55 13.38
1/13/2021 2:00:00 AM 2 35.6 0.139 7.3 10.47 13.39
1/13/2021 2:15:00 AM 1.99 35.582 0.14 7.31 10.96 13.38
1/13/2021 2:30:00 AM 1.98 35.564 0.142 7.33 10.56 13.39
1/13/2021 2:45:00 AM 1.98 35.564 0.14 7.29 10.63 13.39
1/13/2021 3:00:00 AM 1.97 35.546 0.143 7.32 10.32 13.4
1/13/2021 3:15:00 AM 1.97 35.546 0.145 7.3 11.21 13.4
1/13/2021 3:30:00 AM 1.96 35.528 0.145 7.33 11.27 13.39
1/13/2021 3:45:00 AM 1.95 35.51 0.143 7.3 11.64 13.4
1/13/2021 4:00:00 AM 1.95 35.51 0.146 7.32 11.5 13.37
1/13/2021 4:15:00 AM 1.95 35.51 0.147 7.33 11.61 13.37
1/13/2021 4:30:00 AM 1.94 35.492 0.144 7.31 11.71 13.4
1/13/2021 4:45:00 AM 1.94 35.492 0.145 7.33 11.46 13.4
1/13/2021 5:00:00 AM 1.93 35.474 0.144 7.29 11.27 13.38
1/13/2021 5:15:00 AM 1.93 35.474 0.147 7.33 10.79 13.41
1/13/2021 5:30:00 AM 1.92 35.456 0.145 7.32 11 13.4
1/13/2021 5:45:00 AM 1.92 35.456 0.144 7.32 11.92 13.4
1/13/2021 6:00:00 AM 1.92 35.456 0.143 7.31 11.83 13.4
1/13/2021 6:15:00 AM 1.92 35.456 0.145 7.32 11.89 13.4
1/13/2021 6:30:00 AM 1.91 35.438 0.141 7.31 11.76 13.4
1/13/2021 6:45:00 AM 1.91 35.438 0.139 7.32 12.14 13.39
1/13/2021 7:00:00 AM 1.91 35.438 0.143 7.31 11.65 13.4
1/13/2021 7:15:00 AM 1.91 35.438 0.144 7.32 11.23 13.41
1/13/2021 7:30:00 AM 1.9 35.42 0.141 7.32 11.08 13.41
1/13/2021 7:45:00 AM 1.9 35.42 0.141 7.3 10.31 13.41
1/13/2021 8:00:00 AM 1.9 35.42 0.139 7.28 10.33 13.41
1/13/2021 8:15:00 AM 1.91 35.438 0.146 7.31 10.62 13.43
1/13/2021 8:30:00 AM 1.92 35.456 0.146 7.32 10.84 13.47
1/13/2021 8:45:00 AM 1.94 35.492 0.147 7.35 10.79 13.51
1/13/2021 9:00:00 AM 1.96 35.528 0.149 7.35 10.86 13.57
1/13/2021 9:15:00 AM 1.99 35.582 0.149 7.38 11.25 13.64
1/13/2021 9:30:00 AM 2.04 35.672 0.149 7.36 10.93 13.68
1/13/2021 9:45:00 AM 2.08 35.744 0.151 7.39 10.77 13.75
1/13/2021 10:00:00 AM 2.11 35.798 0.153 7.4 11.77 13.77
1/13/2021 10:15:00 AM 2.17 35.906 0.152 7.41 11.76 13.81
1/13/2021 10:30:00 AM 2.21 35.978 0.151 7.42 11.17 13.84
1/13/2021 10:45:00 AM 2.24 36.032 0.154 7.44 11.27 13.86
1/13/2021 11:00:00 AM 2.29 36.122 0.151 7.44 11.21 13.87
1/13/2021 11:15:00 AM 2.32 36.176 0.155 7.46 11.25 13.87
1/13/2021 11:30:00 AM 2.34 36.212 0.155 7.45 11.5 13.87
1/13/2021 11:45:00 AM 2.36 36.248 0.155 7.49 11.42 13.85
1/13/2021 12:00:00 PM 2.38 36.284 0.152 7.46 11.44 13.85
1/13/2021 12:15:00 PM 2.4 36.32 0.155 7.49 11.91 13.83
1/13/2021 12:30:00 PM 2.43 36.374 0.156 7.48 11.85 13.82
1/13/2021 12:45:00 PM 2.45 36.41 0.155 7.5 11.78 13.82
1/13/2021 1:00:00 PM 2.47 36.446 0.152 7.44 11.64 13.81
1/13/2021 1:15:00 PM 2.49 36.482 0.157 7.52 11.62 13.79
1/13/2021 1:30:00 PM 2.53 36.554 0.155 7.5 11.53 13.8
1/13/2021 1:45:00 PM 2.55 36.59 0.154 7.56 11.63 13.79
1/13/2021 2:00:00 PM 2.57 36.626 0.157 7.52 11.65 13.77
1/13/2021 2:15:00 PM 2.61 36.698 0.156 7.52 11.47 13.77
1/13/2021 2:30:00 PM 2.65 36.77 0.155 7.52 10.38 13.75
1/13/2021 2:45:00 PM 2.69 36.842 0.155 7.49 11.38 13.76
1/13/2021 3:00:00 PM 2.7 36.86 0.16 7.51 11.68 13.73
1/13/2021 3:15:00 PM 2.7 36.86 0.16 7.53 10.85 13.71
1/13/2021 3:30:00 PM 2.71 36.878 0.157 7.53 14.7 13.71
1/13/2021 3:45:00 PM 2.68 36.824 0.157 7.52 11.74 13.66
1/13/2021 4:00:00 PM 2.66 36.788 0.159 7.48 11.4 13.63
1/13/2021 4:15:00 PM 2.66 36.788 0.163 7.51 11.78 13.61
1/13/2021 4:30:00 PM 2.64 36.752 0.159 7.49 14.95 13.55
1/13/2021 4:45:00 PM 2.62 36.716 0.158 7.47 13.52 13.49
1/13/2021 5:00:00 PM 2.58 36.644 0.16 7.45 12.68 13.42
1/13/2021 5:15:00 PM 2.56 36.608 0.159 7.45 12.64 13.38
1/13/2021 5:30:00 PM 2.54 36.572 0.156 7.37 12.55 13.3
1/13/2021 5:45:00 PM 2.5 36.5 0.16 7.41 12.6 13.27
1/13/2021 6:00:00 PM 2.47 36.446 0.159 7.42 12.56 13.23
1/13/2021 6:15:00 PM 2.43 36.374 0.159 7.4 12.76 13.22
1/13/2021 6:30:00 PM 2.39 36.302 0.154 7.38 12.22 13.18
1/13/2021 6:45:00 PM 2.36 36.248 0.155 7.4 12.26 13.22
1/13/2021 7:00:00 PM 2.33 36.194 0.157 7.38 13.63 13.19
1/13/2021 7:15:00 PM 2.31 36.158 0.157 7.38 11.84 13.19
1/13/2021 7:30:00 PM 2.29 36.122 0.155 7.35 11.96 13.17
1/13/2021 7:45:00 PM 2.27 36.086 0.157 7.39 11.75 13.19
1/13/2021 8:00:00 PM 2.24 36.032 0.155 7.34 11.32 13.2
1/13/2021 8:15:00 PM 2.23 36.014 0.156 7.33 12 13.23
1/13/2021 8:30:00 PM 2.21 35.978 0.159 7.36 11.21 13.22
1/13/2021 8:45:00 PM 2.19 35.942 0.159 7.35 11.19 13.23
1/13/2021 9:00:00 PM 2.16 35.888 0.161 7.34 11.26 13.24
1/13/2021 9:15:00 PM 2.15 35.87 0.161 7.37 11.22 13.24
1/13/2021 9:30:00 PM 2.13 35.834 0.161 7.32 11.23 13.24
1/13/2021 9:45:00 PM 2.1 35.78 0.165 7.37 11.15 13.26
1/13/2021 10:00:00 PM 2.08 35.744 0.158 7.34 11.48 13.25
1/13/2021 10:15:00 PM 2.06 35.708 0.16 7.35 11.36 13.26
1/13/2021 10:30:00 PM 2.04 35.672 0.161 7.32 11.39 13.28
1/13/2021 10:45:00 PM 2.02 35.636 0.161 7.34 11.25 13.28
1/13/2021 11:00:00 PM 2 35.6 0.16 7.35 11.22 13.29
1/13/2021 11:15:00 PM 1.98 35.564 0.157 7.36 11.1 13.29
1/13/2021 11:30:00 PM 1.96 35.528 0.155 7.28 11.16 13.29
1/13/2021 11:45:00 PM 1.94 35.492 0.161 7.38 11.18 13.31
1/14/2021 12:00:00 AM 1.93 35.474 0.155 7.26 11.07 13.31
1/14/2021 12:15:00 AM 1.9 35.42 0.156 7.33 11.28 13.32
1/14/2021 12:30:00 AM 1.89 35.402 0.154 7.3 11.15 13.33
1/14/2021 12:45:00 AM 1.88 35.384 0.157 7.34 10.95 13.33
1/14/2021 1:00:00 AM 1.88 35.384 0.151 7.32 10.95 13.33
1/14/2021 1:15:00 AM 1.88 35.384 0.154 7.32 10.99 13.32
1/14/2021 1:30:00 AM 1.88 35.384 0.155 7.33 10.94 13.33
1/14/2021 1:45:00 AM 1.88 35.384 0.157 7.32 10.95 13.31
1/14/2021 2:00:00 AM 1.89 35.402 0.157 7.31 11.8 13.33
1/14/2021 2:15:00 AM 1.9 35.42 0.156 7.34 11.08 13.33
1/14/2021 2:30:00 AM 1.9 35.42 0.154 7.34 12.4 13.33
1/14/2021 2:45:00 AM 1.91 35.438 0.144 7.33 10.55 13.29
1/14/2021 3:00:00 AM 1.91 35.438 0.146 7.31 12.74 13.31
1/14/2021 3:15:00 AM 1.92 35.456 0.149 7.33 12.44 13.33
1/14/2021 3:30:00 AM 1.92 35.456 0.144 7.32 12.53 13.3
1/14/2021 3:45:00 AM 1.93 35.474 0.143 7.33 12.58 13.31
1/14/2021 4:00:00 AM 1.93 35.474 0.145 7.3 12.25 13.3
1/14/2021 4:15:00 AM 1.94 35.492 0.149 7.33 12.05 13.31
1/14/2021 4:30:00 AM 1.95 35.51 0.15 7.34 12.13 13.28
1/14/2021 4:45:00 AM 1.95 35.51 0.147 7.27 12.13 13.28
1/14/2021 5:00:00 AM 1.95 35.51 0.151 7.33 12.77 13.25
1/14/2021 5:15:00 AM 1.96 35.528 0.151 7.32 12.93 13.3
1/14/2021 5:30:00 AM 1.96 35.528 0.15 7.33 11.97 13.28
1/14/2021 5:45:00 AM 1.97 35.546 0.151 7.33 10.64 13.29
1/14/2021 6:00:00 AM 1.98 35.564 0.151 7.31 10.63 13.29
1/14/2021 6:15:00 AM 1.99 35.582 0.154 7.34 11.07 13.25
1/14/2021 6:30:00 AM 1.98 35.564 0.153 7.33 12.21 13.26
1/14/2021 6:45:00 AM 1.98 35.564 0.151 7.33 11.69 13.26
1/14/2021 7:00:00 AM 1.96 35.528 0.151 7.33 11.82 13.26
1/14/2021 7:15:00 AM 1.95 35.51 0.15 7.33 11.62 13.27
1/14/2021 7:30:00 AM 1.92 35.456 0.149 7.33 11.79 13.28
1/14/2021 7:45:00 AM 1.91 35.438 0.152 7.33 11.9 13.26
1/14/2021 8:00:00 AM 1.9 35.42 0.148 7.33 11.78 13.29
1/14/2021 8:15:00 AM 1.9 35.42 0.148 7.3 11.59 13.33
1/14/2021 8:30:00 AM 1.89 35.402 0.152 7.35 11.67 13.36
1/14/2021 8:45:00 AM 1.91 35.438 0.149 7.33 11.61 13.42
1/14/2021 9:00:00 AM 1.93 35.474 0.151 7.37 11.46 13.47
1/14/2021 9:15:00 AM 1.94 35.492 0.149 7.35 11.59 13.51
1/14/2021 9:30:00 AM 1.97 35.546 0.151 7.38 11.52 13.56
1/14/2021 9:45:00 AM 2.02 35.636 0.149 7.4 11.68 13.63
1/14/2021 10:00:00 AM 2.08 35.744 0.147 7.42 11.72 13.67
1/14/2021 10:15:00 AM 2.13 35.834 0.146 7.42 11.08 13.73
1/14/2021 10:30:00 AM 2.19 35.942 0.145 7.43 11.22 13.75
1/14/2021 10:45:00 AM 2.25 36.05 0.143 7.45 11.26 13.79
1/14/2021 11:00:00 AM 2.32 36.176 0.146 7.46 11.19 13.83
1/14/2021 11:15:00 AM 2.39 36.302 0.147 7.48 11.22 13.84
1/14/2021 11:30:00 AM 2.46 36.428 0.145 7.49 11.16 13.83
1/14/2021 11:45:00 AM 2.53 36.554 0.142 7.5 11.26 13.83
1/14/2021 12:00:00 PM 2.59 36.662 0.146 7.51 11.23 13.85
1/14/2021 12:15:00 PM 2.67 36.806 0.141 7.52 11.23 13.84
1/14/2021 12:30:00 PM 2.72 36.896 0.14 7.53 11.15 13.82
1/14/2021 12:45:00 PM 2.76 36.968 0.138 7.53 11.17 13.8
1/14/2021 1:00:00 PM 2.82 37.076 0.138 7.54 11.19 13.79
1/14/2021 1:15:00 PM 2.9 37.22 0.138 7.53 11.07 13.78
1/14/2021 1:30:00 PM 2.93 37.274 0.146 7.56 10.96 13.75
1/14/2021 1:45:00 PM 2.98 37.364 0.143 7.56 11.07 13.71
1/14/2021 2:00:00 PM 3.02 37.436 0.142 7.56 11.2 13.69
1/14/2021 2:15:00 PM 3.04 37.472 0.14 7.51 11.26 13.66
1/14/2021 2:30:00 PM 3.09 37.562 0.147 7.56 11.48 13.63
1/14/2021 2:45:00 PM 3.12 37.616 0.141 7.56 11.72 13.6
1/14/2021 3:00:00 PM 3.17 37.706 0.141 7.56 11.74 13.58
1/14/2021 3:15:00 PM 3.21 37.778 0.139 7.56 11.63 13.56
1/14/2021 3:30:00 PM 3.22 37.796 0.139 7.57 11.68 13.4
1/14/2021 3:45:00 PM 3.24 37.832 0.139 7.55 11.66 13.44
1/14/2021 4:00:00 PM 3.24 37.832 0.138 7.51 11.66 13.39
1/14/2021 4:15:00 PM 3.25 37.85 0.144 7.52 11.65 13.32
1/14/2021 4:30:00 PM 3.25 37.85 0.142 7.49 11.62 13.22
1/14/2021 4:45:00 PM 3.24 37.832 0.14 7.48 11.65 13.15
1/14/2021 5:00:00 PM 3.23 37.814 0.141 7.46 11.76 13.08
1/14/2021 5:15:00 PM 3.23 37.814 0.14 7.45 11.69 13.02
1/14/2021 5:30:00 PM 3.22 37.796 0.14 7.43 11.68 12.99
1/14/2021 5:45:00 PM 3.21 37.778 0.143 7.41 11.7 12.95
1/14/2021 6:00:00 PM 3.2 37.76 0.142 7.37 11.71 12.93
1/14/2021 6:15:00 PM 3.19 37.742 0.146 7.41 11.68 12.91
1/14/2021 6:30:00 PM 3.18 37.724 0.143 7.39 11.79 12.87
1/14/2021 6:45:00 PM 3.17 37.706 0.144 7.39 11.6 12.88
1/14/2021 7:00:00 PM 3.16 37.688 0.142 7.38 11.83 12.86
1/14/2021 7:15:00 PM 3.15 37.67 0.135 7.37 11.76 12.86
1/14/2021 7:30:00 PM 3.14 37.652 0.133 7.37 11.69 12.85
1/14/2021 7:45:00 PM 3.12 37.616 0.132 7.36 11.63 12.86
1/14/2021 8:00:00 PM 3.1 37.58 0.132 7.34 11.68 12.87
1/14/2021 8:15:00 PM 3.08 37.544 0.137 7.36 11.63 12.88
1/14/2021 8:30:00 PM 3.06 37.508 0.134 7.35 11.67 12.89
1/14/2021 8:45:00 PM 3.04 37.472 0.131 7.35 11.63 12.89
1/14/2021 9:00:00 PM 3.02 37.436 0.129 7.32 11.67 12.91
1/14/2021 9:15:00 PM 3 37.4 0.136 7.35 11.77 12.91
1/14/2021 9:30:00 PM 2.97 37.346 0.135 7.35 11.6 12.92
1/14/2021 9:45:00 PM 2.95 37.31 0.134 7.34 11.09 12.93
1/14/2021 10:00:00 PM 2.93 37.274 0.131 7.33 11.16 12.95
1/14/2021 10:15:00 PM 2.9 37.22 0.132 7.33 11.28 12.95
1/14/2021 10:30:00 PM 2.88 37.184 0.129 7.32 11.36 12.96
1/14/2021 10:45:00 PM 2.86 37.148 0.132 7.33 10.66 12.98
1/14/2021 11:00:00 PM 2.84 37.112 0.133 7.34 10.69 12.99
1/14/2021 11:15:00 PM 2.82 37.076 0.129 7.34 11.3 13
1/14/2021 11:30:00 PM 2.81 37.058 0.127 7.33 11.35 12.98
1/14/2021 11:45:00 PM 2.79 37.022 0.127 7.33 11.59 12.99
1/15/2021 12:00:00 AM 2.77 36.986 0.124 7.29 11.28 12.99
1/15/2021 12:15:00 AM 2.76 36.968 0.129 7.33 11.29 13.01
1/15/2021 12:30:00 AM 2.74 36.932 0.126 7.32 11.27 13
1/15/2021 12:45:00 AM 2.73 36.914 0.126 7.33 11.17 12.96
1/15/2021 1:00:00 AM 2.71 36.878 0.123 7.32 11.29 13.03
1/15/2021 1:15:00 AM 2.69 36.842 0.121 7.32 11.25 13.04
1/15/2021 1:30:00 AM 2.68 36.824 0.121 7.32 11.23 13.04
1/15/2021 1:45:00 AM 2.66 36.788 0.121 7.33 11.24 13.05
1/15/2021 2:00:00 AM 2.65 36.77 0.123 7.32 11.23 13.05
1/15/2021 2:15:00 AM 2.63 36.734 0.121 7.31 11.23 13.06
1/15/2021 2:30:00 AM 2.61 36.698 0.125 7.32 11.3 13.07
1/15/2021 2:45:00 AM 2.6 36.68 0.123 7.27 11.42 13.07
1/15/2021 3:00:00 AM 2.59 36.662 0.129 7.33 11.34 13.1
1/15/2021 3:15:00 AM 2.55 36.59 0.127 7.29 11.23 13.1
1/15/2021 3:30:00 AM 2.52 36.536 0.129 7.32 11.29 13.09
1/15/2021 3:45:00 AM 2.49 36.482 0.125 7.29 11.28 13.11
1/15/2021 4:00:00 AM 2.47 36.446 0.127 7.32 11.27 13.11
1/15/2021 4:15:00 AM 2.44 36.392 0.127 7.29 11.27 13.13
1/15/2021 4:30:00 AM 2.39 36.302 0.129 7.32 11.37 13.14
1/15/2021 4:45:00 AM 2.35 36.23 0.129 7.32 11.24 13.15
1/15/2021 5:00:00 AM 2.32 36.176 0.126 7.32 11.28 13.16
1/15/2021 5:15:00 AM 2.29 36.122 0.123 7.31 11.25 13.18
1/15/2021 5:30:00 AM 2.27 36.086 0.123 7.32 11.21 13.19
1/15/2021 5:45:00 AM 2.23 36.014 0.122 7.28 11.33 13.2
1/15/2021 6:00:00 AM 2.2 35.96 0.128 7.32 11.26 13.21
1/15/2021 6:15:00 AM 2.18 35.924 0.13 7.31 11.32 13.22
1/15/2021 6:30:00 AM 2.15 35.87 0.129 7.3 11.29 13.21
1/15/2021 6:45:00 AM 2.11 35.798 0.134 7.32 11.25 13.25
1/15/2021 7:00:00 AM 2.07 35.726 0.133 7.29 11.4 13.24
1/15/2021 7:15:00 AM 2.03 35.654 0.135 7.32 11.26 13.27
1/15/2021 7:30:00 AM 2 35.6 0.137 7.32 11.28 13.25
1/15/2021 7:45:00 AM 1.98 35.564 0.132 7.32 11.24 13.3
1/15/2021 8:00:00 AM 1.97 35.546 0.133 7.33 11.24 13.34
1/15/2021 8:15:00 AM 1.95 35.51 0.13 7.34 11.3 13.41
1/15/2021 8:30:00 AM 1.96 35.528 0.129 7.31 11.26 13.48
1/15/2021 8:45:00 AM 1.97 35.546 0.134 7.34 11.24 13.54
1/15/2021 9:00:00 AM 1.98 35.564 0.135 7.37 11.2 13.62
1/15/2021 9:15:00 AM 2 35.6 0.139 7.37 11.27 13.68
1/15/2021 9:30:00 AM 2.03 35.654 0.135 7.4 11.23 13.74
1/15/2021 9:45:00 AM 2.06 35.708 0.136 7.41 11.15 13.79
1/15/2021 10:00:00 AM 2.11 35.798 0.134 7.43 11.57 13.83
1/15/2021 10:15:00 AM 2.18 35.924 0.133 7.45 11.4 13.88
1/15/2021 10:30:00 AM 2.25 36.05 0.133 7.47 11.36 13.93
1/15/2021 10:45:00 AM 2.31 36.158 0.131 7.46 11.31 13.96
1/15/2021 11:00:00 AM 2.39 36.302 0.131 7.43 11.32 13.98
1/15/2021 11:15:00 AM 2.46 36.428 0.137 7.51 11.3 13.98
1/15/2021 11:30:00 AM 2.55 36.59 0.138 7.51 11.31 14
1/15/2021 11:45:00 AM 2.62 36.716 0.14 7.54 11.35 13.99
1/15/2021 12:00:00 PM 2.68 36.824 0.139 7.55 11.39 13.95
1/15/2021 12:15:00 PM 2.76 36.968 0.136 7.51 11.28 13.95
1/15/2021 12:30:00 PM 2.78 37.004 0.141 7.56 11.33 13.89
1/15/2021 12:45:00 PM 2.83 37.094 0.133 7.51 11.28 13.86
1/15/2021 1:00:00 PM 2.89 37.202 0.14 7.56 11.24 13.84
1/15/2021 1:15:00 PM 2.9 37.22 0.135 7.56 11.28 13.78
1/15/2021 1:30:00 PM 2.93 37.274 0.132 7.55 11.31 13.74
1/15/2021 1:45:00 PM 2.97 37.346 0.135 7.55 11.29 13.71
1/15/2021 2:00:00 PM 3.01 37.418 0.137 7.56 11.21 13.69
1/15/2021 2:15:00 PM 3.06 37.508 0.137 7.53 11.27 13.67
1/15/2021 2:30:00 PM 3.09 37.562 0.137 7.51 11.26 13.62
1/15/2021 2:45:00 PM 3.12 37.616 0.142 7.56 11.25 13.56
1/15/2021 3:00:00 PM 3.14 37.652 0.144 7.51 11.17 13.49
1/15/2021 3:15:00 PM 3.15 37.67 0.145 7.52 11.14 13.42
1/15/2021 3:30:00 PM 3.17 37.706 0.142 7.49 11.24 13.34
1/15/2021 3:45:00 PM 3.18 37.724 0.144 7.49 11.29 13.26
1/15/2021 4:00:00 PM 3.19 37.742 0.139 7.47 11.29 13.18
1/15/2021 4:15:00 PM 3.19 37.742 0.138 7.43 11.22 13.12
1/15/2021 4:30:00 PM 3.19 37.742 0.134 7.44 11.32 13.09
1/15/2021 4:45:00 PM 3.19 37.742 0.134 7.43 11.35 13.02
1/15/2021 5:00:00 PM 3.19 37.742 0.135 7.42 11.22 12.99
1/15/2021 5:15:00 PM 3.19 37.742 0.135 7.4 11.36 12.97
1/15/2021 5:30:00 PM 3.18 37.724 0.139 7.4 11.23 12.94
1/15/2021 5:45:00 PM 3.17 37.706 0.134 7.39 11.39 12.93
1/15/2021 6:00:00 PM 3.17 37.706 0.133 7.38 11.25 12.91
1/15/2021 6:15:00 PM 3.16 37.688 0.139 7.38 11.22 12.88
1/15/2021 6:30:00 PM 3.15 37.67 0.136 7.37 11.23 12.88
1/15/2021 6:45:00 PM 3.15 37.67 0.137 7.37 11.26 12.87
1/15/2021 7:00:00 PM 3.14 37.652 0.135 7.37 11.36 12.88
1/15/2021 7:15:00 PM 3.14 37.652 0.137 7.36 11.29 12.86
1/15/2021 7:30:00 PM 3.13 37.634 0.139 7.37 11.2 12.88
1/15/2021 7:45:00 PM 3.13 37.634 0.137 7.36 11.3 12.87
1/15/2021 8:00:00 PM 3.12 37.616 0.136 7.36 11.23 12.85
1/15/2021 8:15:00 PM 3.12 37.616 0.132 7.34 11.29 12.86
1/15/2021 8:30:00 PM 3.12 37.616 0.132 7.36 11.27 12.86
1/15/2021 8:45:00 PM 3.12 37.616 0.129 7.35 11.45 12.84
1/15/2021 9:00:00 PM 3.12 37.616 0.13 7.35 11.32 12.85
1/15/2021 9:15:00 PM 3.12 37.616 0.132 7.33 11.31 12.81
1/15/2021 9:30:00 PM 3.12 37.616 0.134 7.34 11.31 12.84
1/15/2021 9:45:00 PM 3.12 37.616 0.134 7.36 11.17 12.85
1/15/2021 10:00:00 PM 3.12 37.616 0.13 7.36 11.27 12.84
1/15/2021 10:15:00 PM 3.12 37.616 0.129 7.32 11.22 12.82
1/15/2021 10:30:00 PM 3.12 37.616 0.132 7.35 11.38 12.8
1/15/2021 10:45:00 PM 3.11 37.598 0.129 7.35 11.22 12.82
1/15/2021 11:00:00 PM 3.11 37.598 0.128 7.35 11.18 12.83
1/15/2021 11:15:00 PM 3.11 37.598 0.128 7.35 11.35 12.82
1/15/2021 11:30:00 PM 3.1 37.58 0.128 7.35 11.23 12.84
1/15/2021 11:45:00 PM 3.1 37.58 0.126 7.35 11.21 12.81
1/16/2021 12:00:00 AM 3.09 37.562 0.124 7.35 11.23 12.82
1/16/2021 12:15:00 AM 3.09 37.562 0.125 7.34 11.2 12.83
1/16/2021 12:30:00 AM 3.09 37.562 0.128 7.33 11.18 12.84
1/16/2021 12:45:00 AM 3.08 37.544 0.126 7.34 11.3 12.82
1/16/2021 1:00:00 AM 3.08 37.544 0.129 7.31 11.55 12.83
1/16/2021 1:15:00 AM 3.07 37.526 0.125 7.34 11.67 12.84
1/16/2021 1:30:00 AM 3.06 37.508 0.128 7.34 11.61 12.81
1/16/2021 1:45:00 AM 3.05 37.49 0.127 7.32 12.08 12.84
1/16/2021 2:00:00 AM 3.05 37.49 0.13 7.32 12.73 12.82
1/16/2021 2:15:00 AM 3.04 37.472 0.132 7.34 12.8 12.84
1/16/2021 2:30:00 AM 3.03 37.454 0.13 7.31 12.43 12.84
1/16/2021 2:45:00 AM 3.02 37.436 0.132 7.32 12.32 12.83
1/16/2021 3:00:00 AM 3.01 37.418 0.133 7.33 12.01 12.82
1/16/2021 3:15:00 AM 3 37.4 0.129 7.33 11.91 12.84
1/16/2021 3:30:00 AM 2.99 37.382 0.129 7.33 12.1 12.84
1/16/2021 3:45:00 AM 2.98 37.364 0.127 7.32 12.07 12.82
1/16/2021 4:00:00 AM 2.95 37.31 0.131 7.34 12.24 12.85
1/16/2021 4:15:00 AM 2.93 37.274 0.128 7.34 12.17 12.85
1/16/2021 4:30:00 AM 2.92 37.256 0.127 7.3 12.11 12.83
1/16/2021 4:45:00 AM 2.86 37.148 0.131 7.34 12.05 12.87
1/16/2021 5:00:00 AM 2.78 37.004 0.128 7.34 12.01 12.86
1/16/2021 5:15:00 AM 2.69 36.842 0.128 7.33 12.19 12.88
1/16/2021 5:30:00 AM 2.63 36.734 0.131 7.33 12.27 12.87
1/16/2021 5:45:00 AM 2.6 36.68 0.127 7.29 12.48 12.91
1/16/2021 6:00:00 AM 2.59 36.662 0.133 7.33 12.45 12.91
1/16/2021 6:15:00 AM 2.58 36.644 0.129 7.32 12.48 12.93
1/16/2021 6:30:00 AM 2.56 36.608 0.133 7.32 12.39 12.94
1/16/2021 6:45:00 AM 2.55 36.59 0.14 7.32 12.44 12.94
1/16/2021 7:00:00 AM 2.53 36.554 0.145 7.31 12.81 12.94
1/16/2021 7:15:00 AM 2.51 36.518 0.15 7.33 12.57 12.98
1/16/2021 7:30:00 AM 2.5 36.5 0.141 7.33 13.02 12.98
1/16/2021 7:45:00 AM 2.49 36.482 0.137 7.33 13.35 13
1/16/2021 8:00:00 AM 2.48 36.464 0.141 7.33 12.85 13.01
1/16/2021 8:15:00 AM 2.47 36.446 0.143 7.33 12.72 13.04
1/16/2021 8:30:00 AM 2.46 36.428 0.145 7.35 12.83 13.09
1/16/2021 8:45:00 AM 2.47 36.446 0.145 7.35 12.48 13.15
1/16/2021 9:00:00 AM 2.48 36.464 0.137 7.37 12.74 13.22
1/16/2021 9:15:00 AM 2.49 36.482 0.14 7.39 12.85 13.29
1/16/2021 9:30:00 AM 2.5 36.5 0.138 7.4 12.68 13.35
1/16/2021 9:45:00 AM 2.51 36.518 0.138 7.42 12.95 13.39
1/16/2021 10:00:00 AM 2.52 36.536 0.142 7.4 12.84 13.42
1/16/2021 10:15:00 AM 2.54 36.572 0.154 7.44 12.56 13.46
1/16/2021 10:30:00 AM 2.57 36.626 0.155 7.46 13.28 13.47
1/16/2021 10:45:00 AM 2.6 36.68 0.155 7.46 12.55 13.48
1/16/2021 11:00:00 AM 2.64 36.752 0.145 7.46 12.49 13.5
1/16/2021 11:15:00 AM 2.67 36.806 0.145 7.47 12.34 13.48
1/16/2021 11:30:00 AM 2.7 36.86 0.142 7.48 12.44 13.46
1/16/2021 11:45:00 AM 2.73 36.914 0.14 7.48 12.1 13.44
1/16/2021 12:00:00 PM 2.75 36.95 0.142 7.48 12 13.43
1/16/2021 12:15:00 PM 2.79 37.022 0.149 7.49 11.98 13.43
1/16/2021 12:30:00 PM 2.82 37.076 0.142 7.5 12.24 13.42
1/16/2021 12:45:00 PM 2.84 37.112 0.141 7.5 12.16 13.41
1/16/2021 1:00:00 PM 2.87 37.166 0.147 7.51 12 13.4
1/16/2021 1:15:00 PM 2.88 37.184 0.147 7.48 11.99 13.38
1/16/2021 1:30:00 PM 2.89 37.202 0.154 7.51 12.1 13.36
1/16/2021 1:45:00 PM 2.92 37.256 0.149 7.49 12.04 13.35
1/16/2021 2:00:00 PM 2.95 37.31 0.156 7.51 12.04 13.37
1/16/2021 2:15:00 PM 2.98 37.364 0.149 7.51 12.13 13.35
1/16/2021 2:30:00 PM 2.99 37.382 0.146 7.51 12.02 13.33
1/16/2021 2:45:00 PM 2.98 37.364 0.146 7.49 12 13.31
1/16/2021 3:00:00 PM 2.98 37.364 0.151 7.5 12.16 13.28
1/16/2021 3:15:00 PM 2.97 37.346 0.152 7.48 12.5 13.24
1/16/2021 3:30:00 PM 2.95 37.31 0.149 7.48 12.11 13.22
1/16/2021 3:45:00 PM 2.95 37.31 0.147 7.49 11.64 13.22
1/16/2021 4:00:00 PM 2.95 37.31 0.148 7.48 12.67 13.2
1/16/2021 4:15:00 PM 2.93 37.274 0.146 7.48 12.7 13.2
1/16/2021 4:30:00 PM 2.91 37.238 0.146 7.42 13.21 13.19
1/16/2021 4:45:00 PM 2.89 37.202 0.156 7.46 14 13.12
1/16/2021 5:00:00 PM 2.85 37.13 0.148 7.44 13.35 13.09
1/16/2021 5:15:00 PM 2.82 37.076 0.146 7.42 13.43 13.05
1/16/2021 5:30:00 PM 2.78 37.004 0.143 7.41 13.31 13
1/16/2021 5:45:00 PM 2.75 36.95 0.144 7.4 12.89 12.96
1/16/2021 6:00:00 PM 2.72 36.896 0.135 7.39 14.05 12.96
1/16/2021 6:15:00 PM 2.7 36.86 0.136 7.38 13.14 12.97
1/16/2021 6:30:00 PM 2.68 36.824 0.14 7.37 13.44 12.94
1/16/2021 6:45:00 PM 2.65 36.77 0.14 7.37 13.68 12.94
1/16/2021 7:00:00 PM 2.62 36.716 0.14 7.36 13.51 12.93
1/16/2021 7:15:00 PM 2.58 36.644 0.14 7.36 14.3 12.96
1/16/2021 7:30:00 PM 2.56 36.608 0.135 7.35 13.25 12.94
1/16/2021 7:45:00 PM 2.53 36.554 0.132 7.35 13.22 12.95
1/16/2021 8:00:00 PM 2.49 36.482 0.13 7.35 12.89 12.98
1/16/2021 8:15:00 PM 2.46 36.428 0.131 7.35 12.76 12.97
1/16/2021 8:30:00 PM 2.43 36.374 0.132 7.34 13.02 12.98
1/16/2021 8:45:00 PM 2.39 36.302 0.137 7.35 13.51 13
1/16/2021 9:00:00 PM 2.36 36.248 0.138 7.35 12.86 13
1/16/2021 9:15:00 PM 2.33 36.194 0.135 7.35 12.9 13.03
1/16/2021 9:30:00 PM 2.3 36.14 0.133 7.34 13.48 13.03
1/16/2021 9:45:00 PM 2.27 36.086 0.133 7.35 12.72 13.04
1/16/2021 10:00:00 PM 2.24 36.032 0.132 7.33 12.9 13.04
1/16/2021 10:15:00 PM 2.22 35.996 0.137 7.34 13.01 13.04
1/16/2021 10:30:00 PM 2.2 35.96 0.141 7.34 13.71 13.05
1/16/2021 10:45:00 PM 2.17 35.906 0.133 7.34 13.15 13.06
1/16/2021 11:00:00 PM 2.15 35.87 0.13 7.34 14.03 13.07
1/16/2021 11:15:00 PM 2.12 35.816 0.127 7.34 13.14 13.09
1/16/2021 11:30:00 PM 2.1 35.78 0.13 7.33 13.39 13.1
1/16/2021 11:45:00 PM 2.08 35.744 0.128 7.34 12.8 13.11
1/17/2021 12:00:00 AM 2.05 35.69 0.126 7.34 13.6 13.12
1/17/2021 12:15:00 AM 2.03 35.654 0.127 7.34 12.88 13.11
1/17/2021 12:30:00 AM 2.01 35.618 0.128 7.34 13.48 13.14
1/17/2021 12:45:00 AM 1.99 35.582 0.124 7.34 12.77 13.15
1/17/2021 1:00:00 AM 1.96 35.528 0.125 7.34 12.77 13.16
1/17/2021 1:15:00 AM 1.95 35.51 0.125 7.34 12.68 13.16
1/17/2021 1:30:00 AM 1.94 35.492 0.123 7.34 12.58 13.16
1/17/2021 1:45:00 AM 1.94 35.492 0.122 7.34 12.71 13.17
1/17/2021 2:00:00 AM 1.95 35.51 0.122 7.34 12.28 13.17
1/17/2021 2:15:00 AM 1.96 35.528 0.123 7.34 12.91 13.17
1/17/2021 2:30:00 AM 1.96 35.528 0.123 7.34 13.45 13.17
1/17/2021 2:45:00 AM 1.97 35.546 0.122 7.34 12.39 13.19
1/17/2021 3:00:00 AM 1.97 35.546 0.121 7.34 12.79 13.18
1/17/2021 3:15:00 AM 1.97 35.546 0.121 7.34 12.27 13.18
1/17/2021 3:30:00 AM 1.98 35.564 0.122 7.34 12.83 13.17
1/17/2021 3:45:00 AM 1.98 35.564 0.121 7.34 12.23 13.16
1/17/2021 4:00:00 AM 1.98 35.564 0.122 7.34 13.07 13.18
1/17/2021 4:15:00 AM 1.99 35.582 0.122 7.34 13.46 13.18
1/17/2021 4:30:00 AM 1.99 35.582 0.122 7.32 12.34 13.19
1/17/2021 4:45:00 AM 1.99 35.582 0.124 7.34 13.32 13.16
1/17/2021 5:00:00 AM 1.99 35.582 0.126 7.34 12.23 13.17
1/17/2021 5:15:00 AM 1.99 35.582 0.128 7.34 12.77 13.18
1/17/2021 5:30:00 AM 1.98 35.564 0.127 7.34 12.45 13.18
1/17/2021 5:45:00 AM 1.97 35.546 0.125 7.34 12.51 13.17
1/17/2021 6:00:00 AM 1.98 35.564 0.121 7.34 12.24 13.18
1/17/2021 6:15:00 AM 1.97 35.546 0.124 7.34 12.38 13.18
1/17/2021 6:30:00 AM 1.98 35.564 0.123 7.34 12.36 13.19
1/17/2021 6:45:00 AM 1.98 35.564 0.119 7.34 12.25 13.18
1/17/2021 7:00:00 AM 1.98 35.564 0.123 7.34 12.73 13.2
1/17/2021 7:15:00 AM 1.98 35.564 0.122 7.34 12.18 13.17
1/17/2021 7:30:00 AM 1.98 35.564 0.124 7.34 12.46 13.21
1/17/2021 7:45:00 AM 1.98 35.564 0.119 7.34 11.97 13.2
1/17/2021 8:00:00 AM 1.98 35.564 0.121 7.35 12.19 13.24
1/17/2021 8:15:00 AM 1.99 35.582 0.124 7.36 12.31 13.26
1/17/2021 8:30:00 AM 2 35.6 0.122 7.36 11.95 13.28
1/17/2021 8:45:00 AM 2.02 35.636 0.124 7.38 12.15 13.29
1/17/2021 9:00:00 AM 2.04 35.672 0.124 7.36 12.08 13.42
1/17/2021 9:15:00 AM 2.06 35.708 0.127 7.4 11.88 13.48
1/17/2021 9:30:00 AM 2.09 35.762 0.12 7.37 11.85 13.49
1/17/2021 9:45:00 AM 2.1 35.78 0.131 7.42 12.06 13.52
1/17/2021 10:00:00 AM 2.12 35.816 0.124 7.38 11.85 13.52
1/17/2021 10:15:00 AM 2.14 35.852 0.13 7.43 11.72 13.54
1/17/2021 10:30:00 AM 2.16 35.888 0.131 7.44 12.05 13.57
1/17/2021 10:45:00 AM 2.17 35.906 0.129 7.43 11.96 13.56
1/17/2021 11:00:00 AM 2.2 35.96 0.13 7.44 12.93 13.59
1/17/2021 11:15:00 AM 2.23 36.014 0.127 7.43 12.35 13.61
1/17/2021 11:30:00 AM 2.27 36.086 0.127 7.45 12.01 13.62
1/17/2021 11:45:00 AM 2.3 36.14 0.124 7.43 11.7 13.61
1/17/2021 12:00:00 PM 2.34 36.212 0.127 7.48 11.61 13.67
1/17/2021 12:15:00 PM 2.4 36.32 0.131 7.49 11.8 13.68
1/17/2021 12:30:00 PM 2.45 36.41 0.124 7.47 11.78 13.7
1/17/2021 12:45:00 PM 2.49 36.482 0.128 7.51 11.69 13.7
1/17/2021 1:00:00 PM 2.55 36.59 0.131 7.5 11.81 13.68
1/17/2021 1:15:00 PM 2.58 36.644 0.13 7.51 11.7 13.67
1/17/2021 1:30:00 PM 2.62 36.716 0.131 7.53 11.77 13.69
1/17/2021 1:45:00 PM 2.66 36.788 0.128 7.54 11.56 13.67
1/17/2021 2:00:00 PM 2.7 36.86 0.126 7.54 11.8 13.67
1/17/2021 2:15:00 PM 2.73 36.914 0.122 7.54 11.59 13.65
1/17/2021 2:30:00 PM 2.76 36.968 0.122 7.51 11.92 13.65
1/17/2021 2:45:00 PM 2.78 37.004 0.126 7.54 11.57 13.6
1/17/2021 3:00:00 PM 2.8 37.04 0.125 7.53 11.61 13.57
1/17/2021 3:15:00 PM 2.81 37.058 0.127 7.53 11.89 13.53
1/17/2021 3:30:00 PM 2.81 37.058 0.122 7.51 11.85 13.49
1/17/2021 3:45:00 PM 2.81 37.058 0.125 7.5 12.14 13.42
1/17/2021 4:00:00 PM 2.82 37.076 0.121 7.49 11.74 13.37
1/17/2021 4:15:00 PM 2.82 37.076 0.119 7.48 11.95 13.31
1/17/2021 4:30:00 PM 2.82 37.076 0.118 7.46 11.91 13.27
1/17/2021 4:45:00 PM 2.81 37.058 0.119 7.45 12.09 13.22
1/17/2021 5:00:00 PM 2.8 37.04 0.123 7.39 11.77 13.15
1/17/2021 5:15:00 PM 2.79 37.022 0.142 7.43 11.65 13.12
1/17/2021 5:30:00 PM 2.78 37.004 0.13 7.38 11.49 13.06
1/17/2021 5:45:00 PM 2.77 36.986 0.135 7.4 11.82 13.06
1/17/2021 6:00:00 PM 2.76 36.968 0.131 7.39 11.53 13.04
1/17/2021 6:15:00 PM 2.74 36.932 0.128 7.38 11.49 13.03
1/17/2021 6:30:00 PM 2.73 36.914 0.126 7.37 11.34 13.01
1/17/2021 6:45:00 PM 2.71 36.878 0.127 7.37 11.45 13.02
1/17/2021 7:00:00 PM 2.69 36.842 0.126 7.34 11.47 13
1/17/2021 7:15:00 PM 2.68 36.824 0.136 7.36 11.43 13.02
1/17/2021 7:30:00 PM 2.66 36.788 0.127 7.36 11.44 13
1/17/2021 7:45:00 PM 2.65 36.77 0.123 7.35 11.55 13.02
1/17/2021 8:00:00 PM 2.63 36.734 0.122 7.35 11.14 13.03
1/17/2021 8:15:00 PM 2.62 36.716 0.121 7.35 11.28 13.02
1/17/2021 8:30:00 PM 2.61 36.698 0.119 7.34 11.32 13.02
1/17/2021 8:45:00 PM 2.6 36.68 0.119 7.35 11.2 13.02
1/17/2021 9:00:00 PM 2.58 36.644 0.116 7.35 11.14 13.05
1/17/2021 9:15:00 PM 2.57 36.626 0.115 7.34 11.2 13.05
1/17/2021 9:30:00 PM 2.56 36.608 0.117 7.34 11.13 13.04
1/17/2021 9:45:00 PM 2.55 36.59 0.116 7.34 11.46 13.05
1/17/2021 10:00:00 PM 2.54 36.572 0.115 7.33 11.3 13.04
1/17/2021 10:15:00 PM 2.54 36.572 0.113 7.34 11.19 13.05
1/17/2021 10:30:00 PM 2.53 36.554 0.115 7.33 11.11 13.05
1/17/2021 10:45:00 PM 2.52 36.536 0.113 7.34 11.5 13.06
1/17/2021 11:00:00 PM 2.51 36.518 0.113 7.33 11.17 13.02
1/17/2021 11:15:00 PM 2.5 36.5 0.115 7.34 11.17 13.05
1/17/2021 11:30:00 PM 2.49 36.482 0.116 7.34 11.2 13.07
1/17/2021 11:45:00 PM 2.47 36.446 0.112 7.33 11.1 13.06
1/18/2021 12:00:00 AM 2.47 36.446 0.113 7.32 11.32 13.04
1/18/2021 12:15:00 AM 2.47 36.446 0.118 7.34 11.16 13.08
1/18/2021 12:30:00 AM 2.46 36.428 0.115 7.34 11.24 13.04
1/18/2021 12:45:00 AM 2.45 36.41 0.113 7.33 11.27 13.08
1/18/2021 1:00:00 AM 2.44 36.392 0.11 7.33 11.13 13.07
1/18/2021 1:15:00 AM 2.42 36.356 0.116 7.33 11.31 13.07
1/18/2021 1:30:00 AM 2.38 36.284 0.113 7.33 11.18 13.08
1/18/2021 1:45:00 AM 2.35 36.23 0.115 7.33 11.24 13.07
1/18/2021 2:00:00 AM 2.34 36.212 0.111 7.33 11.19 13.08
1/18/2021 2:15:00 AM 2.33 36.194 0.111 7.33 11.15 13.1
1/18/2021 2:30:00 AM 2.33 36.194 0.112 7.33 11.11 13.08
1/18/2021 2:45:00 AM 2.33 36.194 0.111 7.33 11.11 13.1
1/18/2021 3:00:00 AM 2.33 36.194 0.111 7.33 11.09 13.09
1/18/2021 3:15:00 AM 2.32 36.176 0.111 7.33 11.66 13.08
1/18/2021 3:30:00 AM 2.3 36.14 0.109 7.33 11.07 13.09
1/18/2021 3:45:00 AM 2.29 36.122 0.109 7.33 11.12 13.09
1/18/2021 4:00:00 AM 2.28 36.104 0.108 7.33 11.11 13.12
1/18/2021 4:15:00 AM 2.28 36.104 0.109 7.33 11.06 13.14
1/18/2021 4:30:00 AM 2.28 36.104 0.109 7.33 11.07 13.12
1/18/2021 4:45:00 AM 2.28 36.104 0.11 7.33 11.18 13.12
1/18/2021 5:00:00 AM 2.27 36.086 0.108 7.25 11.2 13.13
1/18/2021 5:15:00 AM 2.26 36.068 0.12 7.33 11.16 13.13
1/18/2021 5:30:00 AM 2.24 36.032 0.115 7.33 11.11 13.14
1/18/2021 5:45:00 AM 2.23 36.014 0.111 7.33 11.2 13.14
1/18/2021 6:00:00 AM 2.21 35.978 0.11 7.33 11.11 13.12
1/18/2021 6:15:00 AM 2.19 35.942 0.108 7.33 11.11 13.16
1/18/2021 6:30:00 AM 2.17 35.906 0.107 7.33 11.19 13.15
1/18/2021 6:45:00 AM 2.15 35.87 0.107 7.33 12.53 13.15
1/18/2021 7:00:00 AM 2.15 35.87 0.106 7.32 11.14 13.18
1/18/2021 7:15:00 AM 2.15 35.87 0.106 7.33 11.49 13.18
1/18/2021 7:30:00 AM 2.14 35.852 0.106 7.33 11.25 13.18
1/18/2021 7:45:00 AM 2.13 35.834 0.107 7.34 11.12 13.21
1/18/2021 8:00:00 AM 2.12 35.816 0.106 7.34 11.16 13.22
1/18/2021 8:15:00 AM 2.13 35.834 0.105 7.36 11.08 13.3
1/18/2021 8:30:00 AM 2.13 35.834 0.106 7.37 11.16 13.38
1/18/2021 8:45:00 AM 2.15 35.87 0.105 7.38 11.09 13.45
1/18/2021 9:00:00 AM 2.17 35.906 0.111 7.4 11.16 13.53
1/18/2021 9:15:00 AM 2.21 35.978 0.108 7.42 12.22 13.6
1/18/2021 9:30:00 AM 2.27 36.086 0.109 7.44 12.41 13.68
1/18/2021 9:45:00 AM 2.34 36.212 0.108 7.46 13.48 13.74
1/18/2021 10:00:00 AM 2.4 36.32 0.108 7.45 11.38 13.78
1/18/2021 10:15:00 AM 2.44 36.392 0.112 7.46 11.18 13.82
1/18/2021 10:30:00 AM 2.49 36.482 0.109 7.51 11.07 13.83
1/18/2021 10:45:00 AM 2.51 36.518 0.108 7.52 11.25 13.84
1/18/2021 11:00:00 AM 2.52 36.536 0.108 7.52 11.12 13.81
1/18/2021 11:15:00 AM 2.55 36.59 0.108 7.53 11.03 13.8
1/18/2021 11:30:00 AM 2.58 36.644 0.108 7.53 11.23 13.79
1/18/2021 11:45:00 AM 2.64 36.752 0.107 7.55 11.2 13.82
1/18/2021 12:00:00 PM 2.72 36.896 0.108 7.55 10.99 13.81
1/18/2021 12:15:00 PM 2.79 37.022 0.107 7.57 10.84 13.83
1/18/2021 12:30:00 PM 2.84 37.112 0.108 7.58 10.94 13.83
1/18/2021 12:45:00 PM 2.92 37.256 0.108 7.6 10.82 13.84
1/18/2021 1:00:00 PM 2.97 37.346 0.109 7.61 10.83 13.82
1/18/2021 1:15:00 PM 3.08 37.544 0.109 7.62 10.82 13.8
1/18/2021 1:30:00 PM 3.19 37.742 0.109 7.63 10.78 13.8
1/18/2021 1:45:00 PM 3.22 37.796 0.109 7.62 10.74 13.69
1/18/2021 2:00:00 PM 3.21 37.778 0.109 7.61 10.7 13.67
1/18/2021 2:15:00 PM 3.21 37.778 0.109 7.61 10.96 13.66
1/18/2021 2:30:00 PM 3.19 37.742 0.11 7.6 10.93 13.62
1/18/2021 2:45:00 PM 3.07 37.526 0.109 7.58 11.24 13.52
1/18/2021 3:00:00 PM 3.09 37.562 0.11 7.58 10.83 13.54
1/18/2021 3:15:00 PM 3.08 37.544 0.111 7.58 10.87 13.53
1/18/2021 3:30:00 PM 3.09 37.562 0.112 7.57 10.83 13.54
1/18/2021 3:45:00 PM 3.1 37.58 0.111 7.57 10.78 13.51
1/18/2021 4:00:00 PM 3.1 37.58 0.112 7.57 10.68 13.47
1/18/2021 4:15:00 PM 3.1 37.58 0.112 7.55 10.84 13.46
1/18/2021 4:30:00 PM 3.09 37.562 0.111 7.53 10.86 13.4
1/18/2021 4:45:00 PM 3.06 37.508 0.109 7.5 10.8 13.33
1/18/2021 5:00:00 PM 3.03 37.454 0.11 7.49 10.68 13.25
1/18/2021 5:15:00 PM 3.01 37.418 0.109 7.47 10.77 13.21
1/18/2021 5:30:00 PM 2.96 37.328 0.11 7.45 10.84 13.15
1/18/2021 5:45:00 PM 2.91 37.238 0.109 7.44 10.8 13.12
1/18/2021 6:00:00 PM 2.88 37.184 0.108 7.42 10.83 13.08
1/18/2021 6:15:00 PM 2.84 37.112 0.107 7.41 10.8 13.08
1/18/2021 6:30:00 PM 2.81 37.058 0.107 7.4 10.77 13.05
1/18/2021 6:45:00 PM 2.78 37.004 0.106 7.39 10.77 13.06
1/18/2021 7:00:00 PM 2.75 36.95 0.105 7.38 10.87 13.06
1/18/2021 7:15:00 PM 2.7 36.86 0.107 7.38 10.89 13.06
1/18/2021 7:30:00 PM 2.68 36.824 0.106 7.37 10.87 13.07
1/18/2021 7:45:00 PM 2.65 36.77 0.106 7.37 10.8 13.08
1/18/2021 8:00:00 PM 2.63 36.734 0.107 7.37 10.89 13.09
1/18/2021 8:15:00 PM 2.6 36.68 0.106 7.37 10.86 13.08
1/18/2021 8:30:00 PM 2.59 36.662 0.106 7.36 10.85 13.1
1/18/2021 8:45:00 PM 2.57 36.626 0.105 7.36 10.86 13.09
1/18/2021 9:00:00 PM 2.55 36.59 0.104 7.36 10.82 13.12
1/18/2021 9:15:00 PM 2.54 36.572 0.105 7.34 10.9 13.12
1/18/2021 9:30:00 PM 2.52 36.536 0.112 7.36 10.92 13.12
1/18/2021 9:45:00 PM 2.49 36.482 0.11 7.35 10.83 13.14
1/18/2021 10:00:00 PM 2.46 36.428 0.109 7.35 10.84 13.14
1/18/2021 10:15:00 PM 2.45 36.41 0.108 7.35 10.78 13.15
1/18/2021 10:30:00 PM 2.43 36.374 0.109 7.35 10.81 13.16
1/18/2021 10:45:00 PM 2.42 36.356 0.106 7.35 10.91 13.16
1/18/2021 11:00:00 PM 2.41 36.338 0.107 7.34 10.83 13.16
1/18/2021 11:15:00 PM 2.4 36.32 0.108 7.34 10.87 13.17
1/18/2021 11:30:00 PM 2.39 36.302 0.11 7.35 10.84 13.17
1/18/2021 11:45:00 PM 2.39 36.302 0.108 7.34 10.82 13.15
1/19/2021 12:00:00 AM 2.38 36.284 0.109 7.35 10.85 13.19
1/19/2021 12:15:00 AM 2.37 36.266 0.107 7.35 10.82 13.18
1/19/2021 12:30:00 AM 2.36 36.248 0.108 7.34 10.84 13.2
1/19/2021 12:45:00 AM 2.33 36.194 0.109 7.35 10.87 13.2
1/19/2021 1:00:00 AM 2.3 36.14 0.11 7.34 10.86 13.2
1/19/2021 1:15:00 AM 2.29 36.122 0.111 7.34 10.84 13.2
1/19/2021 1:30:00 AM 2.27 36.086 0.108 7.32 10.84 13.22
1/19/2021 1:45:00 AM 2.26 36.068 0.109 7.32 10.83 13.22
1/19/2021 2:00:00 AM 2.26 36.068 0.115 7.34 10.84 13.24
1/19/2021 2:15:00 AM 2.25 36.05 0.112 7.34 11.05 13.24
1/19/2021 2:30:00 AM 2.25 36.05 0.11 7.34 10.89 13.23
1/19/2021 2:45:00 AM 2.25 36.05 0.108 7.34 10.96 13.24
1/19/2021 3:00:00 AM 2.24 36.032 0.11 7.29 10.88 13.23
1/19/2021 3:15:00 AM 2.24 36.032 0.118 7.34 10.76 13.25
1/19/2021 3:30:00 AM 2.24 36.032 0.112 7.34 10.9 13.25
1/19/2021 3:45:00 AM 2.23 36.014 0.113 7.34 10.83 13.26
1/19/2021 4:00:00 AM 2.23 36.014 0.111 7.34 10.8 13.26
1/19/2021 4:15:00 AM 2.22 35.996 0.11 7.34 10.84 13.27
1/19/2021 4:30:00 AM 2.22 35.996 0.108 7.34 10.79 13.26
1/19/2021 4:45:00 AM 2.21 35.978 0.108 7.34 10.92 13.26
1/19/2021 5:00:00 AM 2.19 35.942 0.109 7.34 10.94 13.26
1/19/2021 5:15:00 AM 2.18 35.924 0.108 7.34 10.84 13.27
1/19/2021 5:30:00 AM 2.17 35.906 0.108 7.31 10.83 13.28
1/19/2021 5:45:00 AM 2.17 35.906 0.107 7.34 10.84 13.28
1/19/2021 6:00:00 AM 2.17 35.906 0.107 7.34 10.93 13.28
1/19/2021 6:15:00 AM 2.16 35.888 0.108 7.34 10.83 13.3
1/19/2021 6:30:00 AM 2.16 35.888 0.106 7.34 10.88 13.29
1/19/2021 6:45:00 AM 2.14 35.852 0.106 7.34 10.89 13.3
1/19/2021 7:00:00 AM 2.13 35.834 0.106 7.34 10.85 13.31
1/19/2021 7:15:00 AM 2.12 35.816 0.107 7.34 10.88 13.31
1/19/2021 7:30:00 AM 2.1 35.78 0.106 7.34 10.85 13.33
1/19/2021 7:45:00 AM 2.1 35.78 0.103 7.35 10.89 13.35
1/19/2021 8:00:00 AM 2.1 35.78 0.105 7.35 10.8 13.38
1/19/2021 8:15:00 AM 2.1 35.78 0.106 7.37 10.87 13.45
1/19/2021 8:30:00 AM 2.11 35.798 0.104 7.38 10.88 13.51
1/19/2021 8:45:00 AM 2.12 35.816 0.1 7.39 10.88 13.6
1/19/2021 9:00:00 AM 2.14 35.852 0.101 7.42 10.78 13.69
1/19/2021 9:15:00 AM 2.17 35.906 0.103 7.44 10.86 13.78
1/19/2021 9:30:00 AM 2.21 35.978 0.101 7.46 10.82 13.86
1/19/2021 9:45:00 AM 2.25 36.05 0.102 7.48 10.82 13.94
1/19/2021 10:00:00 AM 2.3 36.14 0.102 7.51 10.79 14
1/19/2021 10:15:00 AM 2.35 36.23 0.102 7.53 10.74 14.06
1/19/2021 10:30:00 AM 2.4 36.32 0.102 7.55 10.84 14.09
1/19/2021 10:45:00 AM 2.46 36.428 0.102 7.57 10.76 14.12
1/19/2021 11:00:00 AM 2.52 36.536 0.102 7.59 10.65 14.14
1/19/2021 11:15:00 AM 2.57 36.626 0.103 7.6 11.53 14.15
1/19/2021 11:30:00 AM 2.63 36.734 0.104 7.62 11.33 14.16
1/19/2021 11:45:00 AM 2.67 36.806 0.104 7.64 10.78 14.16
1/19/2021 12:00:00 PM 2.74 36.932 0.105 7.65 10.87 14.15
1/19/2021 12:15:00 PM 2.76 36.968 0.103 7.65 11.04 14.14
1/19/2021 12:30:00 PM 2.78 37.004 0.103 7.65 10.77 14.11
1/19/2021 12:45:00 PM 2.81 37.058 0.102 7.66 10.66 14.1
1/19/2021 1:00:00 PM 2.82 37.076 0.102 7.66 10.83 14.06
1/19/2021 1:15:00 PM 2.85 37.13 0.103 7.67 10.71 14.03
1/19/2021 1:30:00 PM 2.87 37.166 0.104 7.66 10.75 14.02
1/19/2021 1:45:00 PM 2.89 37.202 0.105 7.65 10.8 14
1/19/2021 2:00:00 PM 2.92 37.256 0.105 7.67 10.75 13.99
1/19/2021 2:15:00 PM 2.92 37.256 0.107 7.67 10.79 13.97
1/19/2021 2:30:00 PM 2.95 37.31 0.107 7.66 10.88 13.95
1/19/2021 2:45:00 PM 2.95 37.31 0.108 7.66 10.8 13.94
1/19/2021 3:00:00 PM 2.97 37.346 0.106 7.66 10.86 13.93
1/19/2021 3:15:00 PM 2.99 37.382 0.106 7.66 10.86 13.91
1/19/2021 3:30:00 PM 2.99 37.382 0.106 7.66 10.8 13.91
1/19/2021 3:45:00 PM 2.96 37.328 0.105 7.65 10.81 13.85
1/19/2021 4:00:00 PM 2.94 37.292 0.104 7.64 10.81 13.81
1/19/2021 4:15:00 PM 2.92 37.256 0.103 7.62 10.85 13.77
1/19/2021 4:30:00 PM 2.88 37.184 0.104 7.6 10.73 13.72
1/19/2021 4:45:00 PM 2.85 37.13 0.102 7.58 10.76 13.64
1/19/2021 5:00:00 PM 2.82 37.076 0.102 7.55 11.4 13.54
1/19/2021 5:15:00 PM 2.79 37.022 0.101 7.52 10.9 13.46
1/19/2021 5:30:00 PM 2.75 36.95 0.102 7.49 10.78 13.39
1/19/2021 5:45:00 PM 2.72 36.896 0.102 7.47 10.84 13.31
1/19/2021 6:00:00 PM 2.67 36.806 0.103 7.45 10.88 13.3
1/19/2021 6:15:00 PM 2.63 36.734 0.105 7.4 10.74 13.26
1/19/2021 6:30:00 PM 2.61 36.698 0.112 7.42 10.86 13.24
1/19/2021 6:45:00 PM 2.59 36.662 0.107 7.42 10.85 13.23
1/19/2021 7:00:00 PM 2.57 36.626 0.105 7.4 10.85 13.22
1/19/2021 7:15:00 PM 2.55 36.59 0.105 7.4 10.81 13.21
1/19/2021 7:30:00 PM 2.52 36.536 0.104 7.39 10.9 13.21
1/19/2021 7:45:00 PM 2.48 36.464 0.104 7.39 10.87 13.22
1/19/2021 8:00:00 PM 2.45 36.41 0.103 7.38 10.84 13.22
1/19/2021 8:15:00 PM 2.42 36.356 0.104 7.38 10.84 13.22
1/19/2021 8:30:00 PM 2.39 36.302 0.1 7.37 10.94 13.23
1/19/2021 8:45:00 PM 2.37 36.266 0.1 7.37 10.84 13.23
1/19/2021 9:00:00 PM 2.35 36.23 0.099 7.37 10.86 13.25
1/19/2021 9:15:00 PM 2.33 36.194 0.098 7.37 10.78 13.25
1/19/2021 9:30:00 PM 2.31 36.158 0.098 7.36 10.96 13.26
1/19/2021 9:45:00 PM 2.29 36.122 0.099 7.36 10.86 13.26
1/19/2021 10:00:00 PM 2.28 36.104 0.098 7.36 10.83 13.24
1/19/2021 10:15:00 PM 2.26 36.068 0.097 7.36 10.82 13.27
1/19/2021 10:30:00 PM 2.24 36.032 0.097 7.36 10.85 13.27
1/19/2021 10:45:00 PM 2.22 35.996 0.099 7.36 10.9 13.26
1/19/2021 11:00:00 PM 2.2 35.96 0.097 7.36 10.92 13.28
1/19/2021 11:15:00 PM 2.19 35.942 0.099 7.36 10.91 13.28
1/19/2021 11:30:00 PM 2.18 35.924 0.098 7.36 11.04 13.29
1/19/2021 11:45:00 PM 2.16 35.888 0.098 7.36 11.02 13.28
1/20/2021 12:00:00 AM 2.16 35.888 0.099 7.35 10.91 13.29
1/20/2021 12:15:00 AM 2.15 35.87 0.105 7.35 10.92 13.28
1/20/2021 12:30:00 AM 2.14 35.852 0.102 7.35 10.86 13.27
1/20/2021 12:45:00 AM 2.14 35.852 0.102 7.35 10.89 13.27
1/20/2021 1:00:00 AM 2.13 35.834 0.101 7.35 10.88 13.28
1/20/2021 1:15:00 AM 2.13 35.834 0.1 7.34 10.88 13.27
1/20/2021 1:30:00 AM 2.12 35.816 0.101 7.35 10.82 13.28
1/20/2021 1:45:00 AM 2.12 35.816 0.101 7.35 10.85 13.27
1/20/2021 2:00:00 AM 2.11 35.798 0.102 7.35 10.81 13.28
1/20/2021 2:15:00 AM 2.11 35.798 0.102 7.35 10.86 13.28
1/20/2021 2:30:00 AM 2.1 35.78 0.103 7.35 10.91 13.26
1/20/2021 2:45:00 AM 2.1 35.78 0.102 7.34 10.93 13.27
1/20/2021 3:00:00 AM 2.09 35.762 0.101 7.34 10.83 13.27
1/20/2021 3:15:00 AM 2.09 35.762 0.103 7.35 10.82 13.28
1/20/2021 3:30:00 AM 2.09 35.762 0.103 7.34 10.85 13.26
1/20/2021 3:45:00 AM 2.09 35.762 0.102 7.34 10.88 13.26
1/20/2021 4:00:00 AM 2.09 35.762 0.104 7.34 10.93 13.27
1/20/2021 4:15:00 AM 2.09 35.762 0.103 7.34 10.81 13.26
1/20/2021 4:30:00 AM 2.09 35.762 0.101 7.34 10.87 13.25
1/20/2021 4:45:00 AM 2.08 35.744 0.101 7.35 10.77 13.27
1/20/2021 5:00:00 AM 2.05 35.69 0.101 7.34 10.92 13.25
1/20/2021 5:15:00 AM 2.04 35.672 0.101 7.34 10.88 13.25
1/20/2021 5:30:00 AM 2.02 35.636 0.1 7.34 11.08 13.26
1/20/2021 5:45:00 AM 2.01 35.618 0.101 7.34 10.92 13.26
1/20/2021 6:00:00 AM 1.99 35.582 0.098 7.34 10.8 13.25
1/20/2021 6:15:00 AM 1.98 35.564 0.099 7.34 10.98 13.26
1/20/2021 6:30:00 AM 1.97 35.546 0.099 7.34 10.91 13.27
1/20/2021 6:45:00 AM 1.96 35.528 0.098 7.33 10.87 13.28
1/20/2021 7:00:00 AM 1.95 35.51 0.105 7.34 10.84 13.28
1/20/2021 7:15:00 AM 1.93 35.474 0.108 7.34 10.91 13.3
1/20/2021 7:30:00 AM 1.92 35.456 0.104 7.34 10.92 13.27
1/20/2021 7:45:00 AM 1.91 35.438 0.106 7.35 11.01 13.27
1/20/2021 8:00:00 AM 1.92 35.456 0.109 7.34 10.99 13.37
1/20/2021 8:15:00 AM 1.89 35.402 0.111 7.36 10.99 13.41
1/20/2021 8:30:00 AM 1.89 35.402 0.109 7.37 11.01 13.47
1/20/2021 8:45:00 AM 1.89 35.402 0.104 7.39 11.06 13.56
1/20/2021 9:00:00 AM 1.92 35.456 0.105 7.37 11.04 13.67
1/20/2021 9:15:00 AM 1.95 35.51 0.113 7.44 11.03 13.79
1/20/2021 9:30:00 AM 1.96 35.528 0.109 7.46 10.91 13.88
1/20/2021 9:45:00 AM 1.97 35.546 0.111 7.47 10.88 13.97
1/20/2021 10:00:00 AM 1.98 35.564 0.118 7.5 10.78 13.98
1/20/2021 10:15:00 AM 2 35.6 0.113 7.52 10.83 14.05
1/20/2021 10:30:00 AM 2.04 35.672 0.111 7.52 10.96 14.08
1/20/2021 10:45:00 AM 2.03 35.654 0.109 7.56 10.9 14.12
1/20/2021 11:00:00 AM 2.02 35.636 0.106 7.57 10.96 14.14
1/20/2021 11:15:00 AM 2.08 35.744 0.104 7.59 10.87 14.2
1/20/2021 11:30:00 AM 2.17 35.906 0.106 7.61 10.82 14.21
1/20/2021 11:45:00 AM 2.24 36.032 0.106 7.61 10.89 14.24
1/20/2021 12:00:00 PM 2.32 36.176 0.111 7.65 10.82 14.27
1/20/2021 12:15:00 PM 2.37 36.266 0.11 7.63 10.97 14.27
1/20/2021 12:30:00 PM 2.35 36.23 0.118 7.66 10.77 14.23
1/20/2021 12:45:00 PM 2.38 36.284 0.112 7.67 10.78 14.24
1/20/2021 1:00:00 PM 2.45 36.41 0.109 7.69 10.76 14.27
1/20/2021 1:15:00 PM 2.49 36.482 0.109 7.7 10.76 14.27
1/20/2021 1:30:00 PM 2.49 36.482 0.104 7.7 10.77 14.27
1/20/2021 1:45:00 PM 2.58 36.644 0.104 7.71 10.89 14.26
1/20/2021 2:00:00 PM 2.58 36.644 0.104 7.69 11.14 14.21
1/20/2021 2:15:00 PM 2.53 36.554 0.109 7.69 11.04 14.15
1/20/2021 2:30:00 PM 2.52 36.536 0.105 7.69 10.74 14.16
1/20/2021 2:45:00 PM 2.48 36.464 0.105 7.69 10.87 13.96
1/20/2021 3:00:00 PM 2.49 36.482 0.105 7.69 10.77 14.15
1/20/2021 3:15:00 PM 2.4 36.32 0.106 7.68 10.84 14.1
1/20/2021 3:30:00 PM 2.35 36.23 0.106 7.65 10.79 14.07
1/20/2021 3:45:00 PM 2.33 36.194 0.116 7.66 10.79 14.06
1/20/2021 4:00:00 PM 2.28 36.104 0.109 7.58 10.8 14.04
1/20/2021 4:15:00 PM 2.2 35.96 0.117 7.63 10.84 13.98
1/20/2021 4:30:00 PM 2.14 35.852 0.111 7.6 10.96 13.94
1/20/2021 4:45:00 PM 2.07 35.726 0.107 7.58 10.83 13.89
1/20/2021 5:00:00 PM 2.02 35.636 0.105 7.55 10.78 13.82
1/20/2021 5:15:00 PM 1.96 35.528 0.106 7.53 10.9 13.73
1/20/2021 5:30:00 PM 1.91 35.438 0.105 7.5 10.91 13.68
1/20/2021 5:45:00 PM 1.83 35.294 0.103 7.47 10.83 13.61
1/20/2021 6:00:00 PM 1.78 35.204 0.105 7.46 10.87 13.58
1/20/2021 6:15:00 PM 1.71 35.078 0.105 7.44 10.88 13.57
1/20/2021 6:30:00 PM 1.65 34.97 0.102 7.43 10.9 13.56
1/20/2021 6:45:00 PM 1.61 34.898 0.101 7.42 10.96 13.55
1/20/2021 7:00:00 PM 1.56 34.808 0.103 7.41 11.12 13.52
1/20/2021 7:15:00 PM 1.5 34.7 0.101 7.4 10.9 13.55
1/20/2021 7:30:00 PM 1.44 34.592 0.1 7.39 11.06 13.55
1/20/2021 7:45:00 PM 1.39 34.502 0.1 7.39 11.11 13.56
1/20/2021 8:00:00 PM 1.32 34.376 0.1 7.38 10.94 13.59
1/20/2021 8:15:00 PM 1.26 34.268 0.099 7.38 10.96 13.61
1/20/2021 8:30:00 PM 1.2 34.16 0.101 7.38 10.94 13.6
1/20/2021 8:45:00 PM 1.14 34.052 0.102 7.37 11.38 13.64
1/20/2021 9:00:00 PM 1.1 33.98 0.102 7.37 11.12 13.65
1/20/2021 9:15:00 PM 1.05 33.89 0.102 7.37 11.12 13.67
1/20/2021 9:30:00 PM 1.02 33.836 0.102 7.31 11.06 13.59
1/20/2021 9:45:00 PM 0.98 33.764 0.108 7.36 11.14 13.68
1/20/2021 10:00:00 PM 0.95 33.71 0.103 7.36 11.16 13.7
1/20/2021 10:15:00 PM 0.91 33.638 0.104 7.36 11.06 13.71
1/20/2021 10:30:00 PM 0.89 33.602 0.1 7.36 11.07 13.73
1/20/2021 10:45:00 PM 0.86 33.548 0.098 7.35 11.06 13.75
1/20/2021 11:00:00 PM 0.83 33.494 0.097 7.35 11.09 13.75
1/20/2021 11:15:00 PM 0.8 33.44 0.098 7.36 11.09 13.78
1/20/2021 11:30:00 PM 0.79 33.422 0.099 7.32 11.08 13.78
1/20/2021 11:45:00 PM 0.77 33.386 0.105 7.35 11 13.71
1/21/2021 12:00:00 AM 0.76 33.368 0.101 7.35 11.11 13.78
1/21/2021 12:15:00 AM 0.72 33.296 0.097 7.35 11.11 13.8
1/21/2021 12:30:00 AM 0.69 33.242 0.099 7.33 11.06 13.8
1/21/2021 12:45:00 AM 0.65 33.17 0.105 7.35 11.06 13.79
1/21/2021 1:00:00 AM 0.62 33.116 0.104 7.34 11.1 13.8
1/21/2021 1:15:00 AM 0.58 33.044 0.098 7.34 11.1 13.82
1/21/2021 1:30:00 AM 0.54 32.972 0.1 7.34 11.07 13.83
1/21/2021 1:45:00 AM 0.51 32.918 0.101 7.34 11 13.83
1/21/2021 2:00:00 AM 0.46 32.828 0.101 7.31 11.08 13.84
1/21/2021 2:15:00 AM 0.44 32.792 0.109 7.34 11.04 13.84
1/21/2021 2:30:00 AM 0.4 32.72 0.106 7.33 11.11 13.87
1/21/2021 2:45:00 AM 0.38 32.684 0.111 7.34 11 13.84
1/21/2021 3:00:00 AM 0.36 32.648 0.109 7.33 11.09 13.87
1/21/2021 3:15:00 AM 0.34 32.612 0.113 7.31 11.02 13.88
1/21/2021 3:30:00 AM 0.32 32.576 0.117 7.34 11.05 13.89
1/21/2021 3:45:00 AM 0.3 32.54 0.113 7.34 11.11 13.88
1/21/2021 4:00:00 AM 0.29 32.522 0.113 7.31 11.06 13.89
1/21/2021 4:15:00 AM 0.27 32.486 0.12 7.33 11.05 13.87
1/21/2021 4:30:00 AM 0.25 32.45 0.119 7.34 11.13 13.9
1/21/2021 4:45:00 AM 0.23 32.414 0.12 7.32 11.1 13.86
1/21/2021 5:00:00 AM 0.21 32.378 0.123 7.33 11.08 13.9
1/21/2021 5:15:00 AM 0.19 32.342 0.12 7.34 11.17 13.91
1/21/2021 5:30:00 AM 0.2 32.36 0.117 7.34 11.15 13.91
1/21/2021 5:45:00 AM 0.2 32.36 0.115 7.34 11.19 13.86
1/21/2021 6:00:00 AM 0.2 32.36 0.106 7.29 11.13 13.91
1/21/2021 6:15:00 AM 0.22 32.396 0.114 7.34 11.21 13.92
1/21/2021 6:30:00 AM 0.23 32.414 0.11 7.34 11.08 13.89
1/21/2021 6:45:00 AM 0.24 32.432 0.104 7.34 11.11 13.75
1/21/2021 7:00:00 AM 0.26 32.468 0.102 7.34 11.13 13.92
1/21/2021 7:15:00 AM 0.26 32.468 0.105 7.33 11.1 13.88
1/21/2021 7:30:00 AM 0.27 32.486 0.111 7.34 11.17 13.88
1/21/2021 7:45:00 AM 0.26 32.468 0.11 7.35 11.18 13.92
1/21/2021 8:00:00 AM 0.28 32.504 0.105 7.35 11.1 13.92
1/21/2021 8:15:00 AM 0.31 32.558 0.11 7.36 11.07 13.99
1/21/2021 8:30:00 AM 0.33 32.594 0.113 7.35 10.99 14.05
1/21/2021 8:45:00 AM 0.36 32.648 0.115 7.38 11.79 14.1
1/21/2021 9:00:00 AM 0.39 32.702 0.115 7.33 11.07 14.13
1/21/2021 9:15:00 AM 0.42 32.756 0.123 7.42 10.8 14.23
1/21/2021 9:30:00 AM 0.45 32.81 0.119 7.43 10.82 14.3
1/21/2021 9:45:00 AM 0.47 32.846 0.112 7.45 11.02 14.3
1/21/2021 10:00:00 AM 0.5 32.9 0.111 7.46 10.97 14.26
1/21/2021 10:15:00 AM 0.54 32.972 0.11 7.46 10.85 14.32
1/21/2021 10:30:00 AM 0.61 33.098 0.117 7.48 10.96 14.4
1/21/2021 10:45:00 AM 0.65 33.17 0.113 7.5 10.89 14.43
1/21/2021 11:00:00 AM 0.7 33.26 0.107 7.51 10.95 14.45
1/21/2021 11:15:00 AM 0.76 33.368 0.105 7.54 10.88 14.5
1/21/2021 11:30:00 AM 0.83 33.494 0.106 7.56 10.87 14.55
1/21/2021 11:45:00 AM 0.92 33.656 0.105 7.58 10.89 14.57
1/21/2021 12:00:00 PM 0.99 33.782 0.105 7.6 10.81 14.63
1/21/2021 12:15:00 PM 1.04 33.872 0.105 7.63 10.79 14.64
1/21/2021 12:30:00 PM 1.1 33.98 0.105 7.64 10.8 14.62
1/21/2021 12:45:00 PM 1.18 34.124 0.105 7.67 10.84 14.66
1/21/2021 1:00:00 PM 1.2 34.16 0.105 7.67 10.81 14.6
1/21/2021 1:15:00 PM 1.27 34.286 0.104 7.68 10.78 14.59
1/21/2021 1:30:00 PM 1.4 34.52 0.108 7.69 10.83 14.56
1/21/2021 1:45:00 PM 1.53 34.754 0.105 7.71 10.82 14.55
1/21/2021 2:00:00 PM 1.61 34.898 0.106 7.68 10.74 14.5
1/21/2021 2:15:00 PM 1.66 34.988 0.11 7.72 10.7 14.46
1/21/2021 2:30:00 PM 1.72 35.096 0.108 7.72 10.74 14.43
1/21/2021 2:45:00 PM 1.77 35.186 0.108 7.73 10.82 14.4
1/21/2021 3:00:00 PM 1.81 35.258 0.105 7.73 10.75 14.39
1/21/2021 3:15:00 PM 1.84 35.312 0.107 7.73 10.69 14.28
1/21/2021 3:30:00 PM 1.87 35.366 0.109 7.7 10.72 14.27
1/21/2021 3:45:00 PM 1.89 35.402 0.117 7.71 10.71 14.2
1/21/2021 4:00:00 PM 1.9 35.42 0.112 7.7 10.72 14.18
1/21/2021 4:15:00 PM 1.9 35.42 0.109 7.68 10.7 14.09
1/21/2021 4:30:00 PM 1.89 35.402 0.107 7.65 10.79 13.98
1/21/2021 4:45:00 PM 1.88 35.384 0.107 7.62 10.75 13.88
1/21/2021 5:00:00 PM 1.87 35.366 0.108 7.59 10.85 13.77
1/21/2021 5:15:00 PM 1.86 35.348 0.108 7.56 10.66 13.69
1/21/2021 5:30:00 PM 1.84 35.312 0.108 7.53 10.78 13.57
1/21/2021 5:45:00 PM 1.82 35.276 0.106 7.51 10.73 13.5
1/21/2021 6:00:00 PM 1.8 35.24 0.106 7.48 11.12 13.4
1/21/2021 6:15:00 PM 1.78 35.204 0.11 7.46 11.59 13.37
1/21/2021 6:30:00 PM 1.76 35.168 0.105 7.45 11.65 13.33
1/21/2021 6:45:00 PM 1.73 35.114 0.105 7.43 11.46 13.31
1/21/2021 7:00:00 PM 1.7 35.06 0.106 7.42 11.18 13.26
1/21/2021 7:15:00 PM 1.67 35.006 0.101 7.41 11.05 13.24
1/21/2021 7:30:00 PM 1.66 34.988 0.104 7.41 10.93 13.23
1/21/2021 7:45:00 PM 1.65 34.97 0.102 7.4 10.9 13.21
1/21/2021 8:00:00 PM 1.65 34.97 0.104 7.39 10.79 13.27
1/21/2021 8:15:00 PM 1.65 34.97 0.104 7.39 10.85 13.26
1/21/2021 8:30:00 PM 1.64 34.952 0.103 7.38 10.84 13.27
1/21/2021 8:45:00 PM 1.64 34.952 0.101 7.38 10.81 13.25
1/21/2021 9:00:00 PM 1.63 34.934 0.102 7.38 10.96 13.26
1/21/2021 9:15:00 PM 1.62 34.916 0.102 7.37 11.17 13.28
1/21/2021 9:30:00 PM 1.6 34.88 0.103 7.37 11.49 13.29
1/21/2021 9:45:00 PM 1.59 34.862 0.102 7.37 11.78 13.3
1/21/2021 10:00:00 PM 1.57 34.826 0.102 7.37 12.16 13.3
1/21/2021 10:15:00 PM 1.56 34.808 0.103 7.37 12.29 13.3
1/21/2021 10:30:00 PM 1.53 34.754 0.102 7.37 12.17 13.31
1/21/2021 10:45:00 PM 1.51 34.718 0.102 7.37 12.01 13.32
1/21/2021 11:00:00 PM 1.47 34.646 0.101 7.36 11.86 13.34
1/21/2021 11:15:00 PM 1.45 34.61 0.1 7.36 11.89 13.33
1/21/2021 11:30:00 PM 1.44 34.592 0.101 7.36 11.75 13.33
1/21/2021 11:45:00 PM 1.44 34.592 0.101 7.36 11.42 13.33
1/22/2021 12:00:00 AM 1.44 34.592 0.101 7.36 11.28 13.33
1/22/2021 12:15:00 AM 1.44 34.592 0.101 7.36 11.06 13.34
1/22/2021 12:30:00 AM 1.44 34.592 0.101 7.36 11.15 13.32
1/22/2021 12:45:00 AM 1.43 34.574 0.103 7.36 10.96 13.34
1/22/2021 1:00:00 AM 1.45 34.61 0.099 7.36 10.78 13.34
1/22/2021 1:15:00 AM 1.45 34.61 0.097 7.36 10.79 13.34
1/22/2021 1:30:00 AM 1.46 34.628 0.101 7.36 10.96 13.33
1/22/2021 1:45:00 AM 1.47 34.646 0.096 7.35 10.77 13.34
1/22/2021 2:00:00 AM 1.47 34.646 0.096 7.36 10.75 13.33
1/22/2021 2:15:00 AM 1.45 34.61 0.095 7.36 11.5 13.33
1/22/2021 2:30:00 AM 1.47 34.646 0.095 7.36 10.96 13.34
1/22/2021 2:45:00 AM 1.48 34.664 0.095 7.35 10.84 13.33
1/22/2021 3:00:00 AM 1.48 34.664 0.095 7.36 10.99 13.34
1/22/2021 3:15:00 AM 1.49 34.682 0.095 7.35 10.89 13.34
1/22/2021 3:30:00 AM 1.5 34.7 0.095 7.33 10.86 13.33
1/22/2021 3:45:00 AM 1.5 34.7 0.1 7.35 10.89 13.32
1/22/2021 4:00:00 AM 1.5 34.7 0.097 7.35 10.94 13.33
1/22/2021 4:15:00 AM 1.49 34.682 0.096 7.35 11.07 13.34
1/22/2021 4:30:00 AM 1.48 34.664 0.094 7.36 11.02 13.31
1/22/2021 4:45:00 AM 1.47 34.646 0.094 7.35 10.94 13.34
1/22/2021 5:00:00 AM 1.47 34.646 0.095 7.35 11.1 13.34
1/22/2021 5:15:00 AM 1.48 34.664 0.095 7.34 11.15 13.34
1/22/2021 5:30:00 AM 1.48 34.664 0.094 7.35 11.05 13.34
1/22/2021 5:45:00 AM 1.49 34.682 0.093 7.35 10.97 13.35
1/22/2021 6:00:00 AM 1.49 34.682 0.093 7.33 11.13 13.34
1/22/2021 6:15:00 AM 1.5 34.7 0.098 7.34 11 13.34
1/22/2021 6:30:00 AM 1.5 34.7 0.099 7.31 11.01 13.33
1/22/2021 6:45:00 AM 1.51 34.718 0.101 7.34 11.13 13.34
1/22/2021 7:00:00 AM 1.51 34.718 0.097 7.34 10.98 13.34
1/22/2021 7:15:00 AM 1.52 34.736 0.095 7.34 11.03 13.34
1/22/2021 7:30:00 AM 1.52 34.736 0.095 7.35 11.08 13.36
1/22/2021 7:45:00 AM 1.53 34.754 0.094 7.34 11.01 13.37
1/22/2021 8:00:00 AM 1.54 34.772 0.096 7.36 11.19 13.41
1/22/2021 8:15:00 AM 1.56 34.808 0.095 7.37 11.07 13.46
1/22/2021 8:30:00 AM 1.59 34.862 0.095 7.39 11 13.57
1/22/2021 8:45:00 AM 1.63 34.934 0.095 7.35 10.98 13.67
1/22/2021 9:00:00 AM 1.67 35.006 0.101 7.44 11.13 13.77
1/22/2021 9:15:00 AM 1.71 35.078 0.098 7.45 11 13.85
1/22/2021 9:30:00 AM 1.75 35.15 0.099 7.49 10.95 13.96
1/22/2021 9:45:00 AM 1.8 35.24 0.097 7.49 11.06 14.05
1/22/2021 10:00:00 AM 1.85 35.33 0.096 7.55 10.94 14.13
1/22/2021 10:15:00 AM 1.91 35.438 0.096 7.58 10.88 14.19
1/22/2021 10:30:00 AM 1.95 35.51 0.097 7.59 11.01 14.22
1/22/2021 10:45:00 AM 2.01 35.618 0.096 7.61 10.92 14.26
1/22/2021 11:00:00 AM 2.07 35.726 0.096 7.65 10.93 14.29
1/22/2021 11:15:00 AM 2.14 35.852 0.096 7.67 10.81 14.32
1/22/2021 11:30:00 AM 2.18 35.924 0.096 7.68 10.97 14.31
1/22/2021 11:45:00 AM 2.28 36.104 0.096 7.69 10.92 14.35
1/22/2021 12:00:00 PM 2.38 36.284 0.1 7.74 11.01 14.37
1/22/2021 12:15:00 PM 2.45 36.41 0.098 7.76 10.82 14.34
1/22/2021 12:30:00 PM 2.53 36.554 0.097 7.77 10.93 14.36
1/22/2021 12:45:00 PM 2.59 36.662 0.099 7.79 10.81 14.35
1/22/2021 1:00:00 PM 2.63 36.734 0.099 7.79 10.81 14.27
1/22/2021 1:15:00 PM 2.65 36.77 0.099 7.78 10.85 14.22
1/22/2021 1:30:00 PM 2.66 36.788 0.098 7.73 10.83 14.18
1/22/2021 1:45:00 PM 2.65 36.77 0.107 7.74 10.8 14.12
1/22/2021 2:00:00 PM 2.65 36.77 0.107 7.73 10.87 14.05
1/22/2021 2:15:00 PM 2.67 36.806 0.11 7.73 10.94 14.03
1/22/2021 2:30:00 PM 2.69 36.842 0.11 7.75 10.83 14.04
1/22/2021 2:45:00 PM 2.71 36.878 0.107 7.76 10.81 14.05
1/22/2021 3:00:00 PM 2.72 36.896 0.103 7.76 10.81 14.04
1/22/2021 3:15:00 PM 2.73 36.914 0.101 7.77 10.78 14.04
1/22/2021 3:30:00 PM 2.74 36.932 0.1 7.76 10.98 13.99
1/22/2021 3:45:00 PM 2.63 36.734 0.1 7.66 10.8 13.84
1/22/2021 4:00:00 PM 2.69 36.842 0.11 7.72 10.78 13.88
1/22/2021 4:15:00 PM 2.68 36.824 0.105 7.68 10.85 13.79
1/22/2021 4:30:00 PM 2.67 36.806 0.103 7.65 10.84 13.65
1/22/2021 4:45:00 PM 2.64 36.752 0.101 7.61 10.74 13.55
1/22/2021 5:00:00 PM 2.62 36.716 0.099 7.58 10.86 13.48
1/22/2021 5:15:00 PM 2.59 36.662 0.099 7.53 10.82 13.39
1/22/2021 5:30:00 PM 2.55 36.59 0.099 7.52 10.74 13.32
1/22/2021 5:45:00 PM 2.51 36.518 0.099 7.49 10.75 13.26
1/22/2021 6:00:00 PM 2.47 36.446 0.101 7.48 10.8 13.23
1/22/2021 6:15:00 PM 2.44 36.392 0.099 7.45 10.8 13.21
1/22/2021 6:30:00 PM 2.41 36.338 0.106 7.45 10.78 13.18
1/22/2021 6:45:00 PM 2.38 36.284 0.101 7.44 10.74 13.18
1/22/2021 7:00:00 PM 2.34 36.212 0.099 7.43 10.72 13.18
1/22/2021 7:15:00 PM 2.31 36.158 0.1 7.43 11.06 13.17
1/22/2021 7:30:00 PM 2.26 36.068 0.088 7.4 11.46 13.16
1/22/2021 7:45:00 PM 2.2 35.96 0.108 7.42 10.94 13.17
1/22/2021 8:00:00 PM 2.15 35.87 0.107 7.41 11.31 13.18
1/22/2021 8:15:00 PM 2.11 35.798 0.104 7.4 10.56 13.21
1/22/2021 8:30:00 PM 2.06 35.708 0.101 7.4 10.44 13.23
1/22/2021 8:45:00 PM 2.01 35.618 0.102 7.37 10.58 13.23
1/22/2021 9:00:00 PM 1.97 35.546 0.106 7.36 11.69 13.24
1/22/2021 9:15:00 PM 1.93 35.474 0.106 7.39 10.69 13.26
1/22/2021 9:30:00 PM 1.87 35.366 0.103 7.39 10.5 13.28
1/22/2021 9:45:00 PM 1.82 35.276 0.103 7.37 10.58 13.31
1/22/2021 10:00:00 PM 1.77 35.186 0.106 7.39 10.54 13.32
1/22/2021 10:15:00 PM 1.71 35.078 0.103 7.38 10.61 13.34
1/22/2021 10:30:00 PM 1.66 34.988 0.1 7.38 10.56 13.36
1/22/2021 10:45:00 PM 1.6 34.88 0.102 7.38 11.04 13.39
1/22/2021 11:00:00 PM 1.56 34.808 0.1 7.37 17.73 13.4
1/22/2021 11:15:00 PM 1.51 34.718 0.099 7.38 13.31 13.43
1/22/2021 11:30:00 PM 1.46 34.628 0.098 7.38 10.84 13.44
1/22/2021 11:45:00 PM 1.41 34.538 0.098 7.28 10.98 13.45
1/23/2021 12:00:00 AM 1.36 34.448 0.106 7.38 11.35 13.47
1/23/2021 12:15:00 AM 1.31 34.358 0.102 7.32 11.73 13.5
1/23/2021 12:30:00 AM 1.25 34.25 0.107 7.37 11.7 13.5
1/23/2021 12:45:00 AM 1.21 34.178 0.102 7.35 14.83 13.54
1/23/2021 1:00:00 AM 1.14 34.052 0.106 7.37 14.19 13.56
1/23/2021 1:15:00 AM 1.07 33.926 0.102 7.37 13.76 13.58
1/23/2021 1:30:00 AM 1.01 33.818 0.099 7.37 13.76 13.6
1/23/2021 1:45:00 AM 0.97 33.746 0.098 7.31 13.78 13.6
1/23/2021 2:00:00 AM 0.93 33.674 0.106 7.37 13.61 13.64
1/23/2021 2:15:00 AM 0.89 33.602 0.103 7.37 13.53 13.66
1/23/2021 2:30:00 AM 0.82 33.476 0.1 7.37 13.51 13.68
1/23/2021 2:45:00 AM 0.78 33.404 0.097 7.37 13.5 13.69
1/23/2021 3:00:00 AM 0.74 33.332 0.096 7.37 13.5 13.72
1/23/2021 3:15:00 AM 0.69 33.242 0.095 7.37 13.44 13.75
1/23/2021 3:30:00 AM 0.66 33.188 0.094 7.37 13.37 13.76
1/23/2021 3:45:00 AM 0.61 33.098 0.093 7.37 13.53 13.75
1/23/2021 4:00:00 AM 0.58 33.044 0.092 7.37 13.42 13.8
1/23/2021 4:15:00 AM 0.55 32.99 0.092 7.36 13.35 13.8
1/23/2021 4:30:00 AM 0.53 32.954 0.092 7.36 13.38 13.81
1/23/2021 4:45:00 AM 0.5 32.9 0.092 7.36 13.34 13.84
1/23/2021 5:00:00 AM 0.45 32.81 0.092 7.37 13.4 13.85
1/23/2021 5:15:00 AM 0.44 32.792 0.092 7.35 13.33 13.86
1/23/2021 5:30:00 AM 0.4 32.72 0.093 7.36 13.41 13.88
1/23/2021 5:45:00 AM 0.37 32.666 0.092 7.36 13.39 13.89
1/23/2021 6:00:00 AM 0.34 32.612 0.091 7.36 13.39 13.91
1/23/2021 6:15:00 AM 0.31 32.558 0.091 7.35 13.36 13.91
1/23/2021 6:30:00 AM 0.28 32.504 0.091 7.36 13.32 13.93
1/23/2021 6:45:00 AM 0.26 32.468 0.091 7.36 13.38 13.93
1/23/2021 7:00:00 AM 0.24 32.432 0.091 7.34 13.45 13.94
1/23/2021 7:15:00 AM 0.21 32.378 0.095 7.36 13.37 13.95
1/23/2021 7:30:00 AM 0.19 32.342 0.089 7.36 13.32 13.98
1/23/2021 7:45:00 AM 0.17 32.306 0.09 7.36 13.36 14.04
1/23/2021 8:00:00 AM 0.16 32.288 0.089 7.38 13.31 14.12
1/23/2021 8:15:00 AM 0.15 32.27 0.089 7.33 13.33 14.22
1/23/2021 8:30:00 AM 0.15 32.27 0.098 7.41 13.54 14.32
1/23/2021 8:45:00 AM 0.15 32.27 0.093 7.41 13.51 14.44
1/23/2021 9:00:00 AM 0.18 32.324 0.098 7.46 13.41 14.56
1/23/2021 9:15:00 AM 0.21 32.378 0.095 7.47 13.39 14.67
1/23/2021 9:30:00 AM 0.24 32.432 0.098 7.52 13.33 14.76
1/23/2021 9:45:00 AM 0.27 32.486 0.095 7.5 13.36 14.86
1/23/2021 10:00:00 AM 0.3 32.54 0.1 7.56 13.34 14.9
1/23/2021 10:15:00 AM 0.31 32.558 0.096 7.55 13.3 14.95
1/23/2021 10:30:00 AM 0.34 32.612 0.1 7.6 13.3 15
1/23/2021 10:45:00 AM 0.38 32.684 0.096 7.6 13.39 15.03
1/23/2021 11:00:00 AM 0.4 32.72 0.101 7.64 13.35 15.05
1/23/2021 11:15:00 AM 0.42 32.756 0.098 7.63 13.37 15.07
1/23/2021 11:30:00 AM 0.47 32.846 0.103 7.67 13.39 15.1
1/23/2021 11:45:00 AM 0.49 32.882 0.098 7.67 13.33 15.12
1/23/2021 12:00:00 PM 0.56 33.008 0.103 7.7 13.48 15.12
1/23/2021 12:15:00 PM 0.59 33.062 0.099 7.72 13.32 15.13
1/23/2021 12:30:00 PM 0.68 33.224 0.098 7.74 13.36 15.16
1/23/2021 12:45:00 PM 0.75 33.35 0.098 7.71 13.35 15.17
1/23/2021 1:00:00 PM 0.82 33.476 0.107 7.75 13.29 15.15
1/23/2021 1:15:00 PM 0.84 33.512 0.11 7.79 13.22 15.15
1/23/2021 1:30:00 PM 0.85 33.53 0.108 7.8 13.32 15.14
1/23/2021 1:45:00 PM 0.84 33.512 0.104 7.81 13.25 15.13
1/23/2021 2:00:00 PM 0.86 33.548 0.102 7.81 13.3 15.14
1/23/2021 2:15:00 PM 0.9 33.62 0.099 7.83 13.29 15.12
1/23/2021 2:30:00 PM 0.95 33.71 0.101 7.84 13.34 15.12
1/23/2021 2:45:00 PM 0.91 33.638 0.098 7.81 13.3 15.03
1/23/2021 3:00:00 PM 0.89 33.602 0.103 7.77 13.33 15
1/23/2021 3:15:00 PM 0.86 33.548 0.107 7.78 13.31 14.97
1/23/2021 3:30:00 PM 0.82 33.476 0.107 7.79 13.37 14.93
1/23/2021 3:45:00 PM 0.8 33.44 0.102 7.72 13.32 14.9
1/23/2021 4:00:00 PM 0.77 33.386 0.107 7.76 13.29 14.85
1/23/2021 4:15:00 PM 0.74 33.332 0.102 7.73 13.36 14.81
1/23/2021 4:30:00 PM 0.68 33.224 0.1 7.7 13.34 14.72
1/23/2021 4:45:00 PM 0.63 33.134 0.097 7.67 13.35 14.64
1/23/2021 5:00:00 PM 0.59 33.062 0.095 7.63 13.43 14.54
1/23/2021 5:15:00 PM 0.55 32.99 0.095 7.59 13.36 14.43
1/23/2021 5:30:00 PM 0.53 32.954 0.095 7.56 13.35 14.33
1/23/2021 5:45:00 PM 0.51 32.918 0.094 7.53 13.36 14.25
1/23/2021 6:00:00 PM 0.5 32.9 0.093 7.51 13.44 14.18
1/23/2021 6:15:00 PM 0.48 32.864 0.092 7.44 13.5 14.15
1/23/2021 6:30:00 PM 0.45 32.81 0.103 7.47 13.37 14.12
1/23/2021 6:45:00 PM 0.43 32.774 0.097 7.45 13.36 14.1
1/23/2021 7:00:00 PM 0.38 32.684 0.1 7.44 13.43 14.08
1/23/2021 7:15:00 PM 0.35 32.63 0.096 7.38 13.41 14.08
1/23/2021 7:30:00 PM 0.34 32.612 0.102 7.42 13.51 14.07
1/23/2021 7:45:00 PM 0.3 32.54 0.097 7.4 13.52 14.07
1/23/2021 8:00:00 PM 0.28 32.504 0.101 7.41 13.38 14.05
1/23/2021 8:15:00 PM 0.25 32.45 0.096 7.38 13.44 14.08
1/23/2021 8:30:00 PM 0.23 32.414 0.101 7.4 13.58 14.08
1/23/2021 8:45:00 PM 0.19 32.342 0.097 7.33 13.44 14.08
1/23/2021 9:00:00 PM 0.16 32.288 0.101 7.4 13.55 14.1
1/23/2021 9:15:00 PM 0.12 32.216 0.098 7.35 13.42 14.11
1/23/2021 9:30:00 PM 0.09 32.162 0.101 7.39 13.45 14.11
1/23/2021 9:45:00 PM 0.06 32.108 0.096 7.36 13.44 14.13
1/23/2021 10:00:00 PM 0.05 32.09 0.101 7.37 13.43 14.14
1/23/2021 10:15:00 PM 0.04 32.072 0.102 7.38 13.49 14.15
1/23/2021 10:30:00 PM 0.02 32.036 0.1 7.38 13.58 14.15
1/23/2021 10:45:00 PM 0.02 32.036 0.096 7.37 13.57 14.16
1/23/2021 11:00:00 PM 0 32 0.097 7.38 13.51 14.16
1/23/2021 11:15:00 PM -0.01 31.982 0.094 7.33 13.52 14.18
1/23/2021 11:30:00 PM -0.01 31.982 0.1 7.38 13.45 14.19
1/23/2021 11:45:00 PM -0.01 31.982 0.097 7.36 13.35 14.2
1/24/2021 12:00:00 AM -0.01 31.982 0.098 7.38 13.27 14.2
1/24/2021 12:15:00 AM 0 32 0.096 7.32 13.32 14.17
1/24/2021 12:30:00 AM 0.01 32.018 0.1 7.35 13.63 14.1
1/24/2021 12:45:00 AM 0.01 32.018 0.101 7.36 13.55 14.12
1/24/2021 1:00:00 AM 0.01 32.018 0.097 7.35 13.48 14.14
1/24/2021 1:15:00 AM 0.02 32.036 0.099 7.36 13.45 14.09
1/24/2021 1:30:00 AM 0.03 32.054 0.096 7.36 13.82 14.11
1/24/2021 1:45:00 AM 0.04 32.072 0.094 7.34 13.54 13.96
1/24/2021 2:00:00 AM 0.04 32.072 0.093 7.27 13.55 13.94
1/24/2021 2:15:00 AM 0.04 32.072 0.104 7.33 13.42 13.96
1/24/2021 2:30:00 AM 0.04 32.072 0.102 7.34 13.49 13.98
1/24/2021 2:45:00 AM 0.04 32.072 0.097 7.34 13.51 13.97
1/24/2021 3:00:00 AM 0.04 32.072 0.097 7.33 13.86 13.91
1/24/2021 3:15:00 AM 0.04 32.072 0.099 7.33 13.46 13.99
1/24/2021 3:30:00 AM 0.04 32.072 0.098 7.33 13.41 14.03
1/24/2021 3:45:00 AM 0.04 32.072 0.094 7.32 13.51 13.86
1/24/2021 4:00:00 AM 0.05 32.09 0.094 7.32 13.74 13.89
1/24/2021 4:15:00 AM 0.05 32.09 0.094 7.28 13.54 13.67
1/24/2021 4:30:00 AM 0.06 32.108 0.1 7.27 13.38 13.51
1/24/2021 4:45:00 AM 0.06 32.108 0.096 7.27 13.47 13.58
1/24/2021 5:00:00 AM 0.06 32.108 0.094 7.24 14.3 13.56
1/24/2021 5:15:00 AM 0.07 32.126 0.103 7.24 13.39 13.4
1/24/2021 5:30:00 AM 0.09 32.162 0.103 7.2 13.39 13.04
1/24/2021 5:45:00 AM 0.09 32.162 0.098 7.16 13.37 13.11
1/24/2021 6:00:00 AM 0.12 32.216 0.102 7.09 13.44 12.84
1/24/2021 6:15:00 AM 0.12 32.216 0.098 7.09 13.4 12.62
1/24/2021 6:30:00 AM 0.1 32.18 0.104 7.12 13.37 13.05
1/24/2021 6:45:00 AM 0.1 32.18 0.098 7.15 13.44 13.11
1/24/2021 7:00:00 AM 0.08 32.144 0.102 7.17 13.44 13.28
1/24/2021 7:15:00 AM 0.09 32.162 0.098 7.16 13.86 13.19
1/24/2021 7:30:00 AM 0.12 32.216 0.102 7.09 13.36 12.66
1/24/2021 7:45:00 AM 0.11 32.198 0.099 7.1 13.37 12.97
1/24/2021 8:00:00 AM 0.12 32.216 0.097 7.11 13.33 12.88
1/24/2021 8:15:00 AM 0.14 32.252 0.095 7.15 13.28 12.23
1/24/2021 8:30:00 AM 0.15 32.27 0.094 7.12 13.31 11.79
1/24/2021 8:45:00 AM 0.15 32.27 0.095 7.08 13.32 11.74
1/24/2021 9:00:00 AM 0.15 32.27 0.102 7.12 13.39 11.87
1/24/2021 9:15:00 AM 0.15 32.27 0.098 7.08 13.44 12.24
1/24/2021 9:30:00 AM 0.15 32.27 0.096 7.12 13.25 12.23
1/24/2021 9:45:00 AM 0.14 32.252 0.093 7.14 13.27 12.44
1/24/2021 10:00:00 AM 0.15 32.27 0.093 7.11 13.35 12.07
1/24/2021 10:15:00 AM 0.15 32.27 0.092 7.15 13.28 12.27
1/24/2021 10:30:00 AM 0.15 32.27 0.093 7.24 13.21 12.75
1/24/2021 10:45:00 AM 0.13 32.234 0.093 7.26 13.34 13.25
1/24/2021 11:00:00 AM 0.13 32.234 0.093 7.21 13.32 13.13
1/24/2021 11:15:00 AM 0.12 32.216 0.093 7.18 13.32 13.66
1/24/2021 11:30:00 AM 0.11 32.198 0.1 7.29 13.34 13.69
1/24/2021 11:45:00 AM 0.12 32.216 0.097 7.28 13.3 13.27
1/24/2021 12:00:00 PM 0.12 32.216 0.097 7.32 13.3 13.25
1/24/2021 12:15:00 PM 0.12 32.216 0.102 7.28 13.26 13.5
1/24/2021 12:30:00 PM 0.12 32.216 0.104 7.27 13.42 13.55
1/24/2021 12:45:00 PM 0.09 32.162 0.103 7.28 13.22 14.15
1/24/2021 1:00:00 PM 0.08 32.144 0.105 7.35 13.29 14.43
1/24/2021 1:15:00 PM 0.08 32.144 0.105 7.37 13.35 14.59
1/24/2021 1:30:00 PM 0.09 32.162 0.108 7.4 13.44 14.23
1/24/2021 1:45:00 PM 0.1 32.18 0.11 7.4 13.34 14.08
1/24/2021 2:00:00 PM 0.11 32.198 0.11 7.36 13.31 13.92
1/24/2021 2:15:00 PM 0.08 32.144 0.107 7.41 13.44 14.87
1/24/2021 2:30:00 PM 0.06 32.108 0.113 7.58 13.57 15.03
1/24/2021 2:45:00 PM 0.05 32.09 0.109 7.6 14.39 15.18
1/24/2021 3:00:00 PM 0.04 32.072 0.113 7.69 13.78 15.22
1/24/2021 3:15:00 PM 0.04 32.072 0.108 7.68 13.47 15.24
1/24/2021 3:30:00 PM 0.04 32.072 0.112 7.69 13.42 15.2
1/24/2021 3:45:00 PM 0.05 32.09 0.114 7.72 13.45 15.18
1/24/2021 4:00:00 PM 0.05 32.09 0.11 7.73 13.52 15.19
1/24/2021 4:15:00 PM 0.05 32.09 0.109 7.73 13.44 15.17
1/24/2021 4:30:00 PM 0.06 32.108 0.109 7.73 13.56 15.14
1/24/2021 4:45:00 PM 0.07 32.126 0.105 7.7 13.47 15.02
1/24/2021 5:00:00 PM 0.07 32.126 0.102 7.62 13.44 14.88
1/24/2021 5:15:00 PM 0.08 32.144 0.109 7.63 13.45 14.71
1/24/2021 5:30:00 PM 0.09 32.162 0.104 7.58 13.52 14.61
1/24/2021 5:45:00 PM 0.1 32.18 0.109 7.56 13.64 14.5
1/24/2021 6:00:00 PM 0.11 32.198 0.107 7.5 13.56 14.37
1/24/2021 6:15:00 PM 0.12 32.216 0.11 7.51 13.45 14.3
1/24/2021 6:30:00 PM 0.13 32.234 0.105 7.49 13.58 14.23
1/24/2021 6:45:00 PM 0.14 32.252 0.107 7.47 13.46 14.17
1/24/2021 7:00:00 PM 0.16 32.288 0.109 7.46 13.4 14.15
1/24/2021 7:15:00 PM 0.17 32.306 0.107 7.45 13.22 14.12
1/24/2021 7:30:00 PM 0.17 32.306 0.103 7.41 13.29 14.09
1/24/2021 7:45:00 PM 0.16 32.288 0.109 7.4 13.38 14.08
1/24/2021 8:00:00 PM 0.15 32.27 0.11 7.42 13.3 14.05
1/24/2021 8:15:00 PM 0.13 32.234 0.108 7.4 13.39 14.01
1/24/2021 8:30:00 PM 0.11 32.198 0.104 7.35 13.31 14.01
1/24/2021 8:45:00 PM 0.09 32.162 0.109 7.39 13.49 14.02
1/24/2021 9:00:00 PM 0.07 32.126 0.104 7.33 14.35 14
1/24/2021 9:15:00 PM 0.06 32.108 0.108 7.38 13.51 14.01
1/24/2021 9:30:00 PM 0.04 32.072 0.107 7.36 13.43 14.02
1/24/2021 9:45:00 PM 0.03 32.054 0.109 7.34 13.42 14
1/24/2021 10:00:00 PM 0.01 32.018 0.11 7.36 13.38 14.03
1/24/2021 10:15:00 PM 0 32 0.11 7.37 13.47 14.03
1/24/2021 10:30:00 PM -0.01 31.982 0.107 7.36 13.46 14.04
1/24/2021 10:45:00 PM 0 32 0.103 7.36 13.59 14.01
1/24/2021 11:00:00 PM 0.01 32.018 0.101 7.31 13.29 14.04
1/24/2021 11:15:00 PM 0.01 32.018 0.107 7.35 13.49 14.06
1/24/2021 11:30:00 PM 0.01 32.018 0.105 7.35 13.32 14.08
1/24/2021 11:45:00 PM 0.01 32.018 0.102 7.35 13.39 13.99
1/25/2021 12:00:00 AM 0.01 32.018 0.1 7.35 13.32 14.08
1/25/2021 12:15:00 AM 0.01 32.018 0.099 7.28 13.37 14.09
1/25/2021 12:30:00 AM 0.01 32.018 0.109 7.34 13.43 14.1
1/25/2021 12:45:00 AM 0.01 32.018 0.109 7.35 13.3 14.1
1/25/2021 1:00:00 AM 0.01 32.018 0.104 7.35 13.31 14.13
1/25/2021 1:15:00 AM 0.01 32.018 0.103 7.35 13.28 14.12
1/25/2021 1:30:00 AM 0.01 32.018 0.098 7.34 13.29 14.11
1/25/2021 1:45:00 AM 0.01 32.018 0.104 7.35 13.38 14.13
1/25/2021 2:00:00 AM 0.01 32.018 0.101 7.31 13.3 14.12
1/25/2021 2:15:00 AM 0.01 32.018 0.107 7.34 13.02 14.11
1/25/2021 2:30:00 AM 0.01 32.018 0.106 7.35 13.12 14.13
1/25/2021 2:45:00 AM 0.01 32.018 0.103 7.34 13.19 14.12
1/25/2021 3:00:00 AM 0.01 32.018 0.102 7.34 13.03 14.12
1/25/2021 3:15:00 AM 0.01 32.018 0.099 7.34 13.09 14.12
1/25/2021 3:30:00 AM 0.01 32.018 0.098 7.34 13.28 14.13
1/25/2021 3:45:00 AM 0.01 32.018 0.101 7.34 13.52 14.13
1/25/2021 4:00:00 AM 0.01 32.018 0.106 7.34 13.17 14.12
1/25/2021 4:15:00 AM 0.02 32.036 0.105 7.31 12.95 14.12
1/25/2021 4:30:00 AM 0.02 32.036 0.112 7.34 12.92 14.1
1/25/2021 4:45:00 AM 0.02 32.036 0.111 7.33 13.15 14.11
1/25/2021 5:00:00 AM 0.02 32.036 0.106 7.33 13.09 14.11
1/25/2021 5:15:00 AM 0.02 32.036 0.105 7.33 12.9 14.1
1/25/2021 5:30:00 AM 0.02 32.036 0.105 7.32 12.99 14.1
1/25/2021 5:45:00 AM 0.02 32.036 0.106 7.33 13.83 14.09
1/25/2021 6:00:00 AM 0.02 32.036 0.106 7.32 13.15 14.07
1/25/2021 6:15:00 AM 0.02 32.036 0.103 7.29 13.2 14.07
1/25/2021 6:30:00 AM 0.02 32.036 0.11 7.3 13.11 14.06
1/25/2021 6:45:00 AM 0.03 32.054 0.116 7.31 13.21 14.06
1/25/2021 7:00:00 AM 0.03 32.054 0.117 7.3 13.11 14.06
1/25/2021 7:15:00 AM 0.03 32.054 0.113 7.3 13.3 14.05
1/25/2021 7:30:00 AM 0.03 32.054 0.117 7.31 13.15 14.05
1/25/2021 7:45:00 AM 0.03 32.054 0.109 7.31 13.39 14.09
1/25/2021 8:00:00 AM 0.03 32.054 0.105 7.31 13.19 14.13
1/25/2021 8:15:00 AM 0.03 32.054 0.104 7.31 13.4 14.2
1/25/2021 8:30:00 AM 0.04 32.072 0.109 7.32 13.09 14.24
1/25/2021 8:45:00 AM 0.04 32.072 0.105 7.33 13.18 14.3
1/25/2021 9:00:00 AM 0.04 32.072 0.102 7.26 13.11 14.35
1/25/2021 9:15:00 AM 0.04 32.072 0.111 7.35 13.16 14.45
1/25/2021 9:30:00 AM 0.04 32.072 0.107 7.35 13.16 14.52
1/25/2021 9:45:00 AM 0.04 32.072 0.106 7.37 13.14 14.58
1/25/2021 10:00:00 AM 0.05 32.09 0.103 7.35 13.11 14.64
1/25/2021 10:15:00 AM 0.05 32.09 0.111 7.38 13.14 14.7
1/25/2021 10:30:00 AM 0.05 32.09 0.112 7.4 13.1 14.79
1/25/2021 10:45:00 AM 0.05 32.09 0.113 7.42 13.14 14.85
1/25/2021 11:00:00 AM 0.05 32.09 0.11 7.44 13.18 14.92
1/25/2021 11:15:00 AM 0.06 32.108 0.11 7.46 13.13 15.02
1/25/2021 11:30:00 AM 0.06 32.108 0.11 7.46 13.07 15.07
1/25/2021 11:45:00 AM 0.05 32.09 0.113 7.5 13.24 15.12
1/25/2021 12:00:00 PM 0.05 32.09 0.113 7.51 13.15 15.12
1/25/2021 12:15:00 PM 0.05 32.09 0.112 7.53 13.13 15.17
1/25/2021 12:30:00 PM 0.06 32.108 0.11 7.53 13.16 15.22
1/25/2021 12:45:00 PM 0.05 32.09 0.117 7.57 13.31 15.27
1/25/2021 1:00:00 PM 0.04 32.072 0.115 7.59 13.47 15.28
1/25/2021 1:15:00 PM 0.04 32.072 0.116 7.62 13.43 15.3
1/25/2021 1:30:00 PM 0.05 32.09 0.11 7.62 13.44 15.34
1/25/2021 1:45:00 PM 0.05 32.09 0.116 7.66 13.36 15.36
1/25/2021 2:00:00 PM 0.05 32.09 0.115 7.68 13.26 15.37
1/25/2021 2:15:00 PM 0.05 32.09 0.111 7.67 13.34 15.39
1/25/2021 2:30:00 PM 0.04 32.072 0.118 7.71 13.62 15.41
1/25/2021 2:45:00 PM 0.04 32.072 0.115 7.71 13.34 15.42
1/25/2021 3:00:00 PM 0.05 32.09 0.113 7.69 13.18 15.43
1/25/2021 3:15:00 PM 0.05 32.09 0.119 7.74 13.41 15.42
1/25/2021 3:30:00 PM 0.05 32.09 0.116 7.75 13.21 15.41
1/25/2021 3:45:00 PM 0.04 32.072 0.112 7.75 13.83 15.38
1/25/2021 4:00:00 PM 0.04 32.072 0.11 7.74 13.46 15.34
1/25/2021 4:15:00 PM 0.04 32.072 0.111 7.69 13.15 15.28
1/25/2021 4:30:00 PM 0.04 32.072 0.119 7.69 13.24 15.2
1/25/2021 4:45:00 PM 0.04 32.072 0.118 7.66 13.11 15.08
1/25/2021 5:00:00 PM 0.04 32.072 0.114 7.63 13.22 14.96
1/25/2021 5:15:00 PM 0.04 32.072 0.115 7.59 13.73 14.81
1/25/2021 5:30:00 PM 0.04 32.072 0.123 7.56 13.27 14.66
1/25/2021 5:45:00 PM 0.04 32.072 0.12 7.54 13.36 14.53
1/25/2021 6:00:00 PM 0.04 32.072 0.125 7.48 13.32 14.41
1/25/2021 6:15:00 PM 0.04 32.072 0.13 7.48 13.2 14.31
1/25/2021 6:30:00 PM 0.04 32.072 0.128 7.46 13.53 14.22
1/25/2021 6:45:00 PM 0.04 32.072 0.13 7.44 13.93 14.13
1/25/2021 7:00:00 PM 0.04 32.072 0.127 7.41 77.11 14.05
1/25/2021 7:15:00 PM 0.04 32.072 0.133 7.4 13.47 13.99
1/25/2021 7:30:00 PM 0.04 32.072 0.136 7.38 13.49 13.93
1/25/2021 7:45:00 PM 0.04 32.072 0.139 7.39 13.28 13.87
1/25/2021 8:00:00 PM 0.04 32.072 0.137 7.37 13.17 13.81
1/25/2021 8:15:00 PM 0.04 32.072 0.141 7.36 13.27 13.75
1/25/2021 8:30:00 PM 0.04 32.072 0.134 7.28 13.38 13.71
1/25/2021 8:45:00 PM 0.04 32.072 0.143 7.35 13.41 13.66
1/25/2021 9:00:00 PM 0.04 32.072 0.144 7.31 11.04 13.67
1/25/2021 9:15:00 PM 0.04 32.072 0.15 7.35 13.74 13.65
1/25/2021 9:30:00 PM 0.04 32.072 0.15 7.34 13.5 13.62
1/25/2021 9:45:00 PM 0.04 32.072 0.149 7.33 14.64 13.57
1/25/2021 10:00:00 PM 0.04 32.072 0.144 7.25 14.15 13.55
1/25/2021 10:15:00 PM 0.07 32.126 0.149 7.33 16.02 13.58
1/25/2021 10:30:00 PM 0.12 32.216 0.148 7.33 14.87 13.48
1/25/2021 10:45:00 PM 0.2 32.36 0.146 7.33 17.21 13.6
1/25/2021 11:00:00 PM 0.25 32.45 0.145 7.32 14.21 13.63
1/25/2021 11:15:00 PM 0.27 32.486 0.151 7.34 14.01 13.65
1/25/2021 11:30:00 PM 0.32 32.576 0.149 7.34 13.7 13.67
1/25/2021 11:45:00 PM 0.35 32.63 0.153 7.35 13.71 13.68
1/26/2021 12:00:00 AM 0.4 32.72 0.151 7.33 13.85 13.71
1/26/2021 12:15:00 AM 0.45 32.81 0.155 7.36 13.63 13.73
1/26/2021 12:30:00 AM 0.48 32.864 0.153 7.35 13.6 13.73
1/26/2021 12:45:00 AM 0.48 32.864 0.156 7.36 13.62 13.73
1/26/2021 1:00:00 AM 0.49 32.882 0.155 7.3 13.59 13.74
1/26/2021 1:15:00 AM 0.51 32.918 0.159 7.36 13.59 13.73
1/26/2021 1:30:00 AM 0.52 32.936 0.162 7.32 11.08 13.75
1/26/2021 1:45:00 AM 0.53 32.954 0.163 7.37 11.18 13.74
1/26/2021 2:00:00 AM 0.54 32.972 0.16 7.29 10.78 13.74
1/26/2021 2:15:00 AM 0.54 32.972 0.164 7.37 10.79 13.74
1/26/2021 2:30:00 AM 0.55 32.99 0.164 7.36 11.01 13.74
1/26/2021 2:45:00 AM 0.55 32.99 0.164 7.37 10.86 13.73
1/26/2021 3:00:00 AM 0.56 33.008 0.162 7.34 10.83 13.74
1/26/2021 3:15:00 AM 0.56 33.008 0.167 7.37 10.91 13.74
1/26/2021 3:30:00 AM 0.57 33.026 0.164 7.35 10.83 13.74
1/26/2021 3:45:00 AM 0.58 33.044 0.16 7.37 10.83 13.73
1/26/2021 4:00:00 AM 0.59 33.062 0.151 7.36 10.89 13.73
1/26/2021 4:15:00 AM 0.6 33.08 0.149 7.33 10.98 13.73
1/26/2021 4:30:00 AM 0.61 33.098 0.15 7.34 10.89 13.72
1/26/2021 4:45:00 AM 0.62 33.116 0.148 7.36 11.1 13.72
1/26/2021 5:00:00 AM 0.63 33.134 0.147 7.35 10.79 13.72
1/26/2021 5:15:00 AM 0.64 33.152 0.145 7.36 10.92 13.71
1/26/2021 5:30:00 AM 0.65 33.17 0.141 7.36 10.92 13.71
1/26/2021 5:45:00 AM 0.66 33.188 0.139 7.36 11.11 13.71
1/26/2021 6:00:00 AM 0.67 33.206 0.135 7.36 10.87 13.7
1/26/2021 6:15:00 AM 0.67 33.206 0.138 7.3 10.94 13.7
1/26/2021 6:30:00 AM 0.68 33.224 0.148 7.35 10.85 13.69
1/26/2021 6:45:00 AM 0.69 33.242 0.147 7.35 10.92 13.69
1/26/2021 7:00:00 AM 0.7 33.26 0.148 7.36 11.04 13.68
1/26/2021 7:15:00 AM 0.69 33.242 0.149 7.35 10.96 13.68
1/26/2021 7:30:00 AM 0.7 33.26 0.148 7.34 11.01 13.69
1/26/2021 7:45:00 AM 0.71 33.278 0.151 7.37 11 13.71
1/26/2021 8:00:00 AM 0.71 33.278 0.146 7.38 10.91 13.73
1/26/2021 8:15:00 AM 0.72 33.296 0.143 7.39 10.88 13.77
1/26/2021 8:30:00 AM 0.73 33.314 0.141 7.39 10.93 13.8
1/26/2021 8:45:00 AM 0.75 33.35 0.135 7.4 10.89 13.83
1/26/2021 9:00:00 AM 0.74 33.332 0.134 7.42 10.88 13.91
1/26/2021 9:15:00 AM 0.73 33.314 0.135 7.38 10.93 13.95
1/26/2021 9:30:00 AM 0.69 33.242 0.137 7.44 10.86 14.02
1/26/2021 9:45:00 AM 0.71 33.278 0.137 7.42 11.05 14.07
1/26/2021 10:00:00 AM 0.69 33.242 0.143 7.46 10.9 14.12
1/26/2021 10:15:00 AM 0.67 33.206 0.147 7.49 11.33 14.22
1/26/2021 10:30:00 AM 0.49 32.882 0.145 7.47 10.91 14.34
1/26/2021 10:45:00 AM 0.53 32.954 0.149 7.55 10.9 14.48
1/26/2021 11:00:00 AM 0.55 32.99 0.145 7.52 10.85 14.59
1/26/2021 11:15:00 AM 0.58 33.044 0.152 7.6 10.87 14.69
1/26/2021 11:30:00 AM 0.6 33.08 0.145 7.64 10.89 14.79
1/26/2021 11:45:00 AM 0.61 33.098 0.137 7.62 10.92 14.83
1/26/2021 12:00:00 PM 0.6 33.08 0.14 7.67 10.95 14.89
1/26/2021 12:15:00 PM 0.6 33.08 0.146 7.69 10.96 14.88
1/26/2021 12:30:00 PM 0.62 33.116 0.145 7.7 10.87 14.9
1/26/2021 12:45:00 PM 0.64 33.152 0.145 7.72 10.89 14.91
1/26/2021 1:00:00 PM 0.65 33.17 0.144 7.73 10.9 14.91
1/26/2021 1:15:00 PM 0.62 33.116 0.148 7.7 11.09 14.86
1/26/2021 1:30:00 PM 0.64 33.152 0.149 7.73 10.92 14.87
1/26/2021 1:45:00 PM 0.66 33.188 0.145 7.7 10.88 14.87
1/26/2021 2:00:00 PM 0.58 33.044 0.142 7.72 10.87 14.8
1/26/2021 2:15:00 PM 0.57 33.026 0.137 7.67 11.18 14.79
1/26/2021 2:30:00 PM 0.55 32.99 0.139 7.71 10.93 14.76
1/26/2021 2:45:00 PM 0.55 32.99 0.132 7.7 10.86 14.75
1/26/2021 3:00:00 PM 0.54 32.972 0.131 7.69 10.82 14.71
1/26/2021 3:15:00 PM 0.52 32.936 0.127 7.67 10.84 14.65
1/26/2021 3:30:00 PM 0.49 32.882 0.131 7.66 10.89 14.59
1/26/2021 3:45:00 PM 0.5 32.9 0.133 7.64 10.86 14.56
1/26/2021 4:00:00 PM 0.54 32.972 0.134 7.61 10.91 14.56
1/26/2021 4:15:00 PM 0.56 33.008 0.144 7.63 10.88 14.5
1/26/2021 4:30:00 PM 0.58 33.044 0.133 7.58 10.91 14.43
1/26/2021 4:45:00 PM 0.58 33.044 0.14 7.58 11.03 14.32
1/26/2021 5:00:00 PM 0.59 33.062 0.131 7.55 10.95 14.24
1/26/2021 5:15:00 PM 0.6 33.08 0.135 7.53 11.06 14.16
1/26/2021 5:30:00 PM 0.61 33.098 0.126 7.51 11 14.08
1/26/2021 5:45:00 PM 0.62 33.116 0.124 7.49 11.02 14.01
1/26/2021 6:00:00 PM 0.62 33.116 0.122 7.47 11.02 13.96
1/26/2021 6:15:00 PM 0.64 33.152 0.122 7.46 11.11 13.9
1/26/2021 6:30:00 PM 0.66 33.188 0.121 7.44 11.02 13.86
1/26/2021 6:45:00 PM 0.67 33.206 0.12 7.44 11.08 13.83
1/26/2021 7:00:00 PM 0.69 33.242 0.122 7.43 12.12 13.81
1/26/2021 7:15:00 PM 0.69 33.242 0.123 7.42 10.91 13.77
1/26/2021 7:30:00 PM 0.7 33.26 0.123 7.41 10.92 13.75
1/26/2021 7:45:00 PM 0.72 33.296 0.122 7.41 10.92 13.73
1/26/2021 8:00:00 PM 0.74 33.332 0.127 7.41 11.02 13.72
1/26/2021 8:15:00 PM 0.69 33.242 0.121 7.41 11.03 13.71
1/26/2021 8:30:00 PM 0.71 33.278 0.125 7.35 11.02 13.7
1/26/2021 8:45:00 PM 0.72 33.296 0.136 7.4 10.98 13.69
1/26/2021 9:00:00 PM 0.75 33.35 0.132 7.35 10.97 13.68
1/26/2021 9:15:00 PM 0.76 33.368 0.142 7.39 10.92 13.67
1/26/2021 9:30:00 PM 0.77 33.386 0.14 7.35 10.87 13.66
1/26/2021 9:45:00 PM 0.79 33.422 0.144 7.39 10.94 13.66
1/26/2021 10:00:00 PM 0.8 33.44 0.139 7.39 11.04 13.65
1/26/2021 10:15:00 PM 0.83 33.494 0.141 7.39 10.84 13.64
1/26/2021 10:30:00 PM 0.84 33.512 0.141 7.36 10.87 13.63
1/26/2021 10:45:00 PM 0.87 33.566 0.153 7.38 10.85 13.62
1/26/2021 11:00:00 PM 0.89 33.602 0.139 7.38 10.91 13.62
1/26/2021 11:15:00 PM 0.91 33.638 0.135 7.38 10.89 13.6
1/26/2021 11:30:00 PM 0.93 33.674 0.131 7.38 11.01 13.6
1/26/2021 11:45:00 PM 0.95 33.71 0.129 7.38 10.86 13.59
1/27/2021 12:00:00 AM 0.97 33.746 0.127 7.38 10.82 13.57
1/27/2021 12:15:00 AM 1 33.8 0.125 7.38 10.92 13.58
1/27/2021 12:30:00 AM 1.02 33.836 0.124 7.37 10.79 13.56
1/27/2021 12:45:00 AM 1.04 33.872 0.124 7.38 10.85 13.56
1/27/2021 1:00:00 AM 1.05 33.89 0.123 7.38 10.79 13.54
1/27/2021 1:15:00 AM 1.07 33.926 0.121 7.38 10.9 13.54
1/27/2021 1:30:00 AM 1.09 33.962 0.121 7.36 10.84 13.53
1/27/2021 1:45:00 AM 1.1 33.98 0.123 7.38 10.87 13.52
1/27/2021 2:00:00 AM 1.11 33.998 0.123 7.34 10.81 13.52
1/27/2021 2:15:00 AM 1.13 34.034 0.129 7.38 10.87 13.52
1/27/2021 2:30:00 AM 1.14 34.052 0.124 7.38 10.77 13.51
1/27/2021 2:45:00 AM 1.15 34.07 0.123 7.37 10.93 13.51
1/27/2021 3:00:00 AM 1.16 34.088 0.119 7.38 10.88 13.51
1/27/2021 3:15:00 AM 1.17 34.106 0.118 7.37 10.83 13.51
1/27/2021 3:30:00 AM 1.18 34.124 0.117 7.37 11.08 13.51
1/27/2021 3:45:00 AM 1.19 34.142 0.119 7.34 10.86 13.51
1/27/2021 4:00:00 AM 1.2 34.16 0.126 7.37 10.88 13.51
1/27/2021 4:15:00 AM 1.22 34.196 0.124 7.38 10.84 13.51
1/27/2021 4:30:00 AM 1.2 34.16 0.12 7.38 11.05 13.51
1/27/2021 4:45:00 AM 1.22 34.196 0.118 7.37 10.91 13.5
1/27/2021 5:00:00 AM 1.24 34.232 0.119 7.38 10.84 13.51
1/27/2021 5:15:00 AM 1.24 34.232 0.117 7.38 10.97 13.51
1/27/2021 5:30:00 AM 1.24 34.232 0.115 7.38 10.88 13.51
1/27/2021 5:45:00 AM 1.24 34.232 0.116 7.38 10.84 13.51
1/27/2021 6:00:00 AM 1.25 34.25 0.117 7.38 10.77 13.52
1/27/2021 6:15:00 AM 1.24 34.232 0.114 7.38 10.92 13.52
1/27/2021 6:30:00 AM 1.23 34.214 0.115 7.33 11.07 13.52
1/27/2021 6:45:00 AM 1.23 34.214 0.121 7.38 11 13.53
1/27/2021 7:00:00 AM 1.23 34.214 0.118 7.38 11.06 13.54
1/27/2021 7:15:00 AM 1.23 34.214 0.116 7.38 10.89 13.54
1/27/2021 7:30:00 AM 1.21 34.178 0.115 7.38 10.93 13.56
1/27/2021 7:45:00 AM 1.2 34.16 0.114 7.39 10.88 13.57
1/27/2021 8:00:00 AM 1.19 34.142 0.115 7.36 10.92 13.62
1/27/2021 8:15:00 AM 1.18 34.124 0.117 7.41 10.96 13.72
1/27/2021 8:30:00 AM 1.19 34.142 0.116 7.43 10.98 13.88
1/27/2021 8:45:00 AM 1.2 34.16 0.113 7.46 10.96 14.01
1/27/2021 9:00:00 AM 1.19 34.142 0.113 7.48 11.04 14.08
1/27/2021 9:15:00 AM 1.19 34.142 0.111 7.5 10.85 14.14
1/27/2021 9:30:00 AM 1.19 34.142 0.11 7.51 10.94 14.21
1/27/2021 9:45:00 AM 1.19 34.142 0.11 7.53 10.99 14.3
1/27/2021 10:00:00 AM 1.2 34.16 0.112 7.55 10.87 14.39
1/27/2021 10:15:00 AM 1.23 34.214 0.112 7.59 10.75 14.52
1/27/2021 10:30:00 AM 1.27 34.286 0.112 7.63 10.72 14.63
1/27/2021 10:45:00 AM 1.27 34.286 0.109 7.65 10.81 14.69
1/27/2021 11:00:00 AM 1.28 34.304 0.108 7.68 10.74 14.74
1/27/2021 11:15:00 AM 1.28 34.304 0.107 7.66 10.84 14.79
1/27/2021 11:30:00 AM 1.3 34.34 0.113 7.73 10.74 14.83
1/27/2021 11:45:00 AM 1.29 34.322 0.11 7.74 10.75 14.85
1/27/2021 12:00:00 PM 1.3 34.34 0.111 7.76 10.77 14.88
1/27/2021 12:15:00 PM 1.3 34.34 0.109 7.78 10.75 14.9
1/27/2021 12:30:00 PM 1.29 34.322 0.108 7.78 10.74 14.89
1/27/2021 12:45:00 PM 1.28 34.304 0.107 7.79 10.72 14.91
1/27/2021 1:00:00 PM 1.28 34.304 0.106 7.81 10.83 14.93
1/27/2021 1:15:00 PM 1.28 34.304 0.107 7.82 10.75 14.95
1/27/2021 1:30:00 PM 1.28 34.304 0.107 7.84 10.79 14.98
1/27/2021 1:45:00 PM 1.29 34.322 0.106 7.83 10.72 15
1/27/2021 2:00:00 PM 1.31 34.358 0.11 7.88 10.76 15.02
1/27/2021 2:15:00 PM 1.32 34.376 0.107 7.89 10.74 15.02
1/27/2021 2:30:00 PM 1.32 34.376 0.106 7.89 10.78 15.01
1/27/2021 2:45:00 PM 1.32 34.376 0.105 7.88 10.72 15
1/27/2021 3:00:00 PM 1.32 34.376 0.108 7.88 10.74 14.95
1/27/2021 3:15:00 PM 1.31 34.358 0.106 7.85 10.72 14.9
1/27/2021 3:30:00 PM 1.3 34.34 0.108 7.83 10.74 14.81
1/27/2021 3:45:00 PM 1.29 34.322 0.106 7.8 10.76 14.73
1/27/2021 4:00:00 PM 1.27 34.286 0.105 7.77 10.77 14.64
1/27/2021 4:15:00 PM 1.25 34.25 0.104 7.73 10.7 14.56
1/27/2021 4:30:00 PM 1.24 34.232 0.104 7.67 10.74 14.46
1/27/2021 4:45:00 PM 1.22 34.196 0.108 7.67 10.74 14.36
1/27/2021 5:00:00 PM 1.19 34.142 0.105 7.63 10.81 14.25
1/27/2021 5:15:00 PM 1.17 34.106 0.104 7.59 10.73 14.15
1/27/2021 5:30:00 PM 1.15 34.07 0.104 7.56 10.68 14.06
1/27/2021 5:45:00 PM 1.13 34.034 0.104 7.54 10.73 13.99
1/27/2021 6:00:00 PM 1.12 34.016 0.104 7.45 10.78 13.93
1/27/2021 6:15:00 PM 1.11 33.998 0.11 7.5 10.71 13.88
1/27/2021 6:30:00 PM 1.09 33.962 0.108 7.48 10.73 13.85
1/27/2021 6:45:00 PM 1.08 33.944 0.106 7.46 10.79 13.82
1/27/2021 7:00:00 PM 1.07 33.926 0.111 7.46 10.7 13.8
1/27/2021 7:15:00 PM 1.06 33.908 0.105 7.45 10.76 13.79
1/27/2021 7:30:00 PM 1.05 33.89 0.104 7.44 10.72 13.77
1/27/2021 7:45:00 PM 1.04 33.872 0.104 7.44 10.74 13.77
1/27/2021 8:00:00 PM 1.03 33.854 0.103 7.43 10.8 13.76
1/27/2021 8:15:00 PM 1.02 33.836 0.102 7.43 10.63 13.75
1/27/2021 8:30:00 PM 1 33.8 0.102 7.42 10.68 13.75
1/27/2021 8:45:00 PM 0.97 33.746 0.101 7.42 10.69 13.75
1/27/2021 9:00:00 PM 0.97 33.746 0.1 7.41 10.73 13.75
1/27/2021 9:15:00 PM 0.95 33.71 0.1 7.41 10.77 13.75
1/27/2021 9:30:00 PM 0.94 33.692 0.099 7.41 10.78 13.75
1/27/2021 9:45:00 PM 0.94 33.692 0.1 7.4 10.73 13.75
1/27/2021 10:00:00 PM 0.93 33.674 0.103 7.4 10.74 13.75
1/27/2021 10:15:00 PM 0.92 33.656 0.103 7.4 10.74 13.76
1/27/2021 10:30:00 PM 0.91 33.638 0.103 7.4 10.79 13.76
1/27/2021 10:45:00 PM 0.89 33.602 0.1 7.36 10.82 13.77
1/27/2021 11:00:00 PM 0.88 33.584 0.107 7.4 10.75 13.77
1/27/2021 11:15:00 PM 0.87 33.566 0.106 7.39 10.79 13.78
1/27/2021 11:30:00 PM 0.86 33.548 0.107 7.39 10.75 13.78
1/27/2021 11:45:00 PM 0.85 33.53 0.107 7.39 10.74 13.78
1/28/2021 12:00:00 AM 0.83 33.494 0.105 7.39 10.7 13.78
1/28/2021 12:15:00 AM 0.78 33.404 0.105 7.33 10.78 13.81
1/28/2021 12:30:00 AM 0.73 33.314 0.114 7.39 10.74 13.81
1/28/2021 12:45:00 AM 0.69 33.242 0.113 7.39 10.7 13.81
1/28/2021 1:00:00 AM 0.64 33.152 0.111 7.39 10.79 13.82
1/28/2021 1:15:00 AM 0.61 33.098 0.109 7.39 10.79 13.84
1/28/2021 1:30:00 AM 0.56 33.008 0.107 7.39 10.76 13.85
1/28/2021 1:45:00 AM 0.53 32.954 0.107 7.38 10.77 13.86
1/28/2021 2:00:00 AM 0.5 32.9 0.103 7.38 10.87 13.88
1/28/2021 2:15:00 AM 0.46 32.828 0.102 7.37 10.79 13.88
1/28/2021 2:30:00 AM 0.42 32.756 0.103 7.38 10.73 13.9
1/28/2021 2:45:00 AM 0.39 32.702 0.102 7.38 10.78 13.91
1/28/2021 3:00:00 AM 0.36 32.648 0.101 7.32 10.75 13.93
1/28/2021 3:15:00 AM 0.34 32.612 0.107 7.38 10.68 13.92
1/28/2021 3:30:00 AM 0.34 32.612 0.106 7.38 10.75 13.93
1/28/2021 3:45:00 AM 0.32 32.576 0.105 7.35 10.74 13.95
1/28/2021 4:00:00 AM 0.31 32.558 0.113 7.37 10.8 13.95
1/28/2021 4:15:00 AM 0.3 32.54 0.105 7.35 10.73 13.96
1/28/2021 4:30:00 AM 0.28 32.504 0.109 7.37 10.71 13.97
1/28/2021 4:45:00 AM 0.27 32.486 0.105 7.37 10.72 13.97
1/28/2021 5:00:00 AM 0.25 32.45 0.11 7.37 10.76 13.99
1/28/2021 5:15:00 AM 0.23 32.414 0.105 7.37 10.73 14
1/28/2021 5:30:00 AM 0.22 32.396 0.105 7.32 10.59 14
1/28/2021 5:45:00 AM 0.19 32.342 0.11 7.36 11.03 14.02
1/28/2021 6:00:00 AM 0.16 32.288 0.112 7.37 10.78 14.02
1/28/2021 6:15:00 AM 0.13 32.234 0.109 7.36 10.77 14.04
1/28/2021 6:30:00 AM 0.1 32.18 0.113 7.37 10.66 14.04
1/28/2021 6:45:00 AM 0.07 32.126 0.111 7.36 10.72 14.06
1/28/2021 7:00:00 AM 0.05 32.09 0.118 7.37 10.64 14.07
1/28/2021 7:15:00 AM 0.02 32.036 0.111 7.35 10.9 14.08
1/28/2021 7:30:00 AM -0.01 31.982 0.119 7.37 10.8 14.13
1/28/2021 7:45:00 AM -0.02 31.964 0.111 7.38 10.78 14.18
1/28/2021 8:00:00 AM -0.01 31.982 0.11 7.37 10.92 14.29
1/28/2021 8:15:00 AM 0 32 0.115 7.41 10.8 14.41
1/28/2021 8:30:00 AM 0 32 0.118 7.43 10.84 14.6
1/28/2021 8:45:00 AM -99999.99 -179968 -99999.99 -99999.99 -99999.99 -99999.99
1/28/2021 9:00:00 AM -0.07 31.874 0.161 7.87 2.62 14.61
1/28/2021 9:15:00 AM -0.07 31.874 0.181 7.81 2.46 14.59
1/28/2021 9:30:00 AM -0.07 31.874 0.196 7.8 2.46 14.65
1/28/2021 9:45:00 AM -0.07 31.874 0.199 7.81 2.43 14.77
1/28/2021 10:00:00 AM -0.06 31.892 0.199 7.84 2.45 14.9
1/28/2021 10:15:00 AM -0.06 31.892 0.189 7.89 2.38 14.91
1/28/2021 10:30:00 AM -0.06 31.892 0.192 7.91 2.42 15.12
1/28/2021 10:45:00 AM 0 32 0.187 7.95 2.37 15.19
1/28/2021 11:00:00 AM 0.15 32.27 0.32 7.99 3.03 15.12
1/28/2021 11:15:00 AM 0.29 32.522 0.322 8.03 2.49 15.16
1/28/2021 11:30:00 AM 0.31 32.558 0.325 8.06 2.63 15.16
1/28/2021 11:45:00 AM 0.38 32.684 0.328 8.09 2.37 15.19
1/28/2021 12:00:00 PM 0.46 32.828 0.333 8.12 2.23 15.21
1/28/2021 12:15:00 PM 0.49 32.882 0.337 8.15 2.16 15.22
1/28/2021 12:30:00 PM 0.57 33.026 0.342 8.17 2.21 15.23
1/28/2021 12:45:00 PM 0.62 33.116 0.346 8.2 2.36 15.21
1/28/2021 1:00:00 PM 0.66 33.188 0.348 8.22 2.17 15.18
1/28/2021 1:15:00 PM 0.64 33.152 0.349 8.22 2.36 15.19
1/28/2021 1:30:00 PM 0.65 33.17 0.347 8.23 2.2 15.18
1/28/2021 1:45:00 PM 0.63 33.134 0.347 8.24 2.23 15.14
1/28/2021 2:00:00 PM 0.68 33.224 0.347 8.26 2.57 15.14
1/28/2021 2:15:00 PM 0.69 33.242 0.345 8.25 2.37 15.09
1/28/2021 2:30:00 PM 0.65 33.17 0.341 8.14 2.5 15
1/28/2021 2:45:00 PM 0.59 33.062 0.339 8.17 2.55 14.93
1/28/2021 3:00:00 PM 0.54 32.972 0.335 8.15 2.16 14.88
1/28/2021 3:15:00 PM 0.48 32.864 0.334 8.12 2.26 14.81
1/28/2021 3:30:00 PM 0.43 32.774 0.333 8.1 2.52 14.77
1/28/2021 3:45:00 PM 0.36 32.648 0.331 8.07 2.27 14.73
1/28/2021 4:00:00 PM 0.3 32.54 0.33 8.04 2.12 14.69
1/28/2021 4:15:00 PM 0.22 32.396 0.328 7.97 2.24 14.65
1/28/2021 4:30:00 PM 0.16 32.288 0.327 7.98 2.17 14.59
1/28/2021 4:45:00 PM 0.1 32.18 0.327 7.94 2.18 14.53
1/28/2021 5:00:00 PM 0.05 32.09 0.326 7.89 2.14 14.44
1/28/2021 5:15:00 PM 0.01 32.018 0.325 7.85 2.38 14.34
1/28/2021 5:30:00 PM -0.03 31.946 0.324 7.8 2.17 14.23
1/28/2021 5:45:00 PM -0.08 31.856 0.323 7.76 2.29 14.13
1/28/2021 6:00:00 PM -0.1 31.82 0.318 7.73 2.16 14.05
1/28/2021 6:15:00 PM -0.09 31.838 0.314 7.7 2.22 13.98
1/28/2021 6:30:00 PM -0.09 31.838 0.312 7.68 2.36 13.95
1/28/2021 6:45:00 PM -0.08 31.856 0.308 7.66 2.24 13.89
1/28/2021 7:00:00 PM -0.08 31.856 0.305 7.65 2.29 13.88
1/28/2021 7:15:00 PM -0.07 31.874 0.303 7.63 2.16 13.83
1/28/2021 7:30:00 PM -0.07 31.874 0.3 7.63 2.19 13.85
1/28/2021 7:45:00 PM -0.07 31.874 0.297 7.62 2.15 13.83
1/28/2021 8:00:00 PM -0.07 31.874 0.296 7.61 2.17 13.82
1/28/2021 8:15:00 PM -0.07 31.874 0.294 7.61 2.34 13.83
1/28/2021 8:30:00 PM -0.07 31.874 0.294 7.6 2.05 13.82
1/28/2021 8:45:00 PM -0.07 31.874 0.294 7.6 2.17 13.82
1/28/2021 9:00:00 PM -0.06 31.892 0.293 7.59 2.11 13.8
1/28/2021 9:15:00 PM -0.06 31.892 0.294 7.58 2.27 13.8
1/28/2021 9:30:00 PM -0.06 31.892 0.296 7.52 2.25 13.83
1/28/2021 9:45:00 PM -0.06 31.892 0.297 7.58 2.26 13.74
1/28/2021 10:00:00 PM -0.07 31.874 0.298 7.59 2.3 13.86
1/28/2021 10:15:00 PM -0.07 31.874 0.298 7.59 2.06 13.82
1/28/2021 10:30:00 PM -0.07 31.874 0.299 7.58 2.1 13.81
1/28/2021 10:45:00 PM -0.07 31.874 0.299 7.58 2.39 13.86
1/28/2021 11:00:00 PM -0.06 31.892 0.297 7.58 2.05 13.77
1/28/2021 11:15:00 PM -0.06 31.892 0.296 7.57 2.2 13.82
1/28/2021 11:30:00 PM -0.06 31.892 0.295 7.58 2.18 13.85
1/28/2021 11:45:00 PM -0.06 31.892 0.294 7.57 2.14 13.81
1/29/2021 12:00:00 AM -0.06 31.892 0.294 7.57 2.27 13.73
1/29/2021 12:15:00 AM -0.06 31.892 0.294 7.57 2.13 13.71
1/29/2021 12:30:00 AM -0.06 31.892 0.292 7.57 2.11 13.8
1/29/2021 12:45:00 AM -0.06 31.892 0.294 7.57 2.23 13.84
1/29/2021 1:00:00 AM -0.06 31.892 0.294 7.57 2.05 13.77
1/29/2021 1:15:00 AM -0.06 31.892 0.294 7.57 2.17 13.8
1/29/2021 1:30:00 AM -0.06 31.892 0.294 7.57 2.1 13.75
1/29/2021 1:45:00 AM -0.06 31.892 0.294 7.57 2.25 13.7
1/29/2021 2:00:00 AM -0.06 31.892 0.296 7.57 2.18 13.64
1/29/2021 2:15:00 AM -0.06 31.892 0.297 7.56 2.15 13.71
1/29/2021 2:30:00 AM -0.06 31.892 0.297 7.55 2.17 13.72
1/29/2021 2:45:00 AM -0.06 31.892 0.299 7.56 2.13 13.66
1/29/2021 3:00:00 AM -0.06 31.892 0.301 7.55 2.13 13.65
1/29/2021 3:15:00 AM -0.06 31.892 0.301 7.56 2.14 13.64
1/29/2021 3:30:00 AM -0.06 31.892 0.303 7.56 2.17 13.64
1/29/2021 3:45:00 AM -0.05 31.91 0.304 7.55 2.19 13.72
1/29/2021 4:00:00 AM -0.05 31.91 0.303 7.55 2.11 13.74
1/29/2021 4:15:00 AM -0.06 31.892 0.305 7.55 2.13 13.59
1/29/2021 4:30:00 AM -0.06 31.892 0.305 7.55 2.24 13.7
1/29/2021 4:45:00 AM -0.06 31.892 0.306 7.55 2.18 13.72
1/29/2021 5:00:00 AM -0.05 31.91 0.306 7.54 2.14 13.74
1/29/2021 5:15:00 AM -0.05 31.91 0.307 7.54 2.15 13.75
1/29/2021 5:30:00 AM -0.04 31.928 0.307 7.53 2.24 13.7
1/29/2021 5:45:00 AM -0.05 31.91 0.308 7.53 2.15 13.73
1/29/2021 6:00:00 AM -0.05 31.91 0.307 7.54 2.31 13.74
1/29/2021 6:15:00 AM -0.04 31.928 0.308 7.53 2.25 13.7
1/29/2021 6:30:00 AM -0.05 31.91 0.309 7.53 2.19 13.7
1/29/2021 6:45:00 AM -0.05 31.91 0.31 7.53 2.2 13.73
1/29/2021 7:00:00 AM -0.05 31.91 0.311 7.53 2.13 13.7
1/29/2021 7:15:00 AM -0.05 31.91 0.312 7.52 2.14 13.72
1/29/2021 7:30:00 AM -0.05 31.91 0.312 7.53 2.19 13.73
1/29/2021 7:45:00 AM -0.05 31.91 0.313 7.53 2.18 13.78
1/29/2021 8:00:00 AM -0.05 31.91 0.314 7.54 2.13 13.85
1/29/2021 8:15:00 AM -0.05 31.91 0.315 7.55 2.16 13.96
1/29/2021 8:30:00 AM -0.05 31.91 0.315 7.58 2.1 14.06
1/29/2021 8:45:00 AM -0.05 31.91 0.315 7.59 2.11 14.17
1/29/2021 9:00:00 AM -0.05 31.91 0.317 7.6 2.18 14.24
1/29/2021 9:15:00 AM -0.05 31.91 0.319 7.62 2.09 14.34
1/29/2021 9:30:00 AM -0.05 31.91 0.32 7.64 2.11 14.41
1/29/2021 9:45:00 AM -0.04 31.928 0.321 7.67 2.09 14.51
1/29/2021 10:00:00 AM -0.03 31.946 0.321 7.68 2.18 14.64
1/29/2021 10:15:00 AM -0.03 31.946 0.322 7.72 2.17 14.78
1/29/2021 10:30:00 AM -0.03 31.946 0.32 7.7 2.27 14.8
1/29/2021 10:45:00 AM -0.03 31.946 0.321 7.72 2.05 14.98
1/29/2021 11:00:00 AM -0.03 31.946 0.324 7.76 2.07 14.93
1/29/2021 11:15:00 AM -0.04 31.928 0.327 7.81 2.08 15.1
1/29/2021 11:30:00 AM -0.03 31.946 0.329 7.85 2.19 15.19
1/29/2021 11:45:00 AM -0.03 31.946 0.332 7.88 2.1 15.03
1/29/2021 12:00:00 PM -0.04 31.928 0.337 7.92 2.09 15.37
1/29/2021 12:15:00 PM -0.04 31.928 0.341 7.96 1.99 15.42
1/29/2021 12:30:00 PM -0.04 31.928 0.344 7.99 2.1 15.39
1/29/2021 12:45:00 PM -0.04 31.928 0.345 8.02 2.49 15.5
1/29/2021 1:00:00 PM -0.04 31.928 0.346 8.04 2.09 15.53
1/29/2021 1:15:00 PM -0.04 31.928 0.345 8.06 2.14 15.56
1/29/2021 1:30:00 PM -0.03 31.946 0.343 8.09 2.15 15.58
1/29/2021 1:45:00 PM -0.04 31.928 0.343 8.11 2.13 15.62
1/29/2021 2:00:00 PM -0.04 31.928 0.344 8.13 1.98 15.64
1/29/2021 2:15:00 PM -0.04 31.928 0.345 8.16 2.13 15.68
1/29/2021 2:30:00 PM -0.04 31.928 0.344 8.18 2.09 15.69
1/29/2021 2:45:00 PM -0.04 31.928 0.345 8.18 2.1 15.69
1/29/2021 3:00:00 PM -0.05 31.91 0.347 8.18 2.17 15.66
1/29/2021 3:15:00 PM -0.04 31.928 0.349 8.18 2.07 15.66
1/29/2021 3:30:00 PM -0.05 31.91 0.35 8.17 2.3 15.57
1/29/2021 3:45:00 PM -0.05 31.91 0.352 8.15 2.32 15.59
1/29/2021 4:00:00 PM -0.05 31.91 0.353 8.15 2.08 15.58
1/29/2021 4:15:00 PM -0.05 31.91 0.354 8.09 2.12 15.54
1/29/2021 4:30:00 PM -0.05 31.91 0.355 8.13 2.23 15.5
1/29/2021 4:45:00 PM -0.05 31.91 0.356 8.09 2.13 15.47
1/29/2021 5:00:00 PM -0.05 31.91 0.356 8.06 2.14 15.37
1/29/2021 5:15:00 PM -0.05 31.91 0.354 8.02 2.09 15.26
1/29/2021 5:30:00 PM -0.06 31.892 0.354 7.97 2.05 15.11
1/29/2021 5:45:00 PM -0.06 31.892 0.354 7.91 2.16 14.89
1/29/2021 6:00:00 PM -0.05 31.91 0.354 7.87 2.15 14.79
1/29/2021 6:15:00 PM -0.06 31.892 0.354 7.82 2.06 14.69
1/29/2021 6:30:00 PM -0.05 31.91 0.353 7.78 2 14.56
1/29/2021 6:45:00 PM -0.05 31.91 0.352 7.75 2.03 14.45
1/29/2021 7:00:00 PM -0.05 31.91 0.351 7.72 2 14.35
1/29/2021 7:15:00 PM -0.05 31.91 0.351 7.69 2.15 14.24
1/29/2021 7:30:00 PM -0.05 31.91 0.35 7.67 2.19 14.18
1/29/2021 7:45:00 PM -0.05 31.91 0.349 7.65 2.2 14.11
1/29/2021 8:00:00 PM -0.05 31.91 0.349 7.63 2.06 14.04
1/29/2021 8:15:00 PM -0.05 31.91 0.348 7.62 2.07 13.98
1/29/2021 8:30:00 PM -0.05 31.91 0.347 7.6 2.05 13.95
1/29/2021 8:45:00 PM -0.05 31.91 0.346 7.59 2.08 13.9
1/29/2021 9:00:00 PM -0.05 31.91 0.344 7.58 2.06 13.86
1/29/2021 9:15:00 PM -0.05 31.91 0.344 7.57 2.13 13.82
1/29/2021 9:30:00 PM -0.05 31.91 0.344 7.56 2.09 13.78
1/29/2021 9:45:00 PM -0.05 31.91 0.344 7.54 2.04 13.74
1/29/2021 10:00:00 PM -0.05 31.91 0.343 7.54 2.06 13.72
1/29/2021 10:15:00 PM -0.05 31.91 0.342 7.53 2.05 13.68
1/29/2021 10:30:00 PM -0.05 31.91 0.342 7.53 2 13.65
1/29/2021 10:45:00 PM -0.05 31.91 0.341 7.52 2.1 13.63
1/29/2021 11:00:00 PM -0.05 31.91 0.34 7.51 2.06 13.61
1/29/2021 11:15:00 PM -0.05 31.91 0.34 7.51 1.93 13.59
1/29/2021 11:30:00 PM -0.05 31.91 0.341 7.5 2.09 13.57
1/29/2021 11:45:00 PM -0.05 31.91 0.34 7.5 2.02 13.55
1/30/2021 12:00:00 AM -0.05 31.91 0.34 7.5 2.22 13.55
1/30/2021 12:15:00 AM -0.05 31.91 0.339 7.49 2.07 13.53
1/30/2021 12:30:00 AM -0.05 31.91 0.339 7.49 2.03 13.52
1/30/2021 12:45:00 AM -0.05 31.91 0.339 7.48 2.11 13.42
1/30/2021 1:00:00 AM -0.05 31.91 0.338 7.48 2.12 13.51
1/30/2021 1:15:00 AM -0.05 31.91 0.337 7.48 2.28 13.49
1/30/2021 1:30:00 AM -0.05 31.91 0.337 7.48 2.36 13.44
1/30/2021 1:45:00 AM -0.05 31.91 0.336 7.47 2 13.48
1/30/2021 2:00:00 AM -0.05 31.91 0.335 7.47 2.1 13.39
1/30/2021 2:15:00 AM -0.05 31.91 0.335 7.47 2.06 13.44
1/30/2021 2:30:00 AM -0.05 31.91 0.335 7.47 2.07 13.46
1/30/2021 2:45:00 AM -0.05 31.91 0.335 7.47 2.04 13.45
1/30/2021 3:00:00 AM -0.05 31.91 0.334 7.47 2.15 13.45
1/30/2021 3:15:00 AM -0.05 31.91 0.332 7.47 2.02 13.44
1/30/2021 3:30:00 AM -0.05 31.91 0.333 7.47 2.11 13.45
1/30/2021 3:45:00 AM -0.05 31.91 0.333 7.46 2.1 13.45
1/30/2021 4:00:00 AM -0.05 31.91 0.331 7.46 2.15 13.44
1/30/2021 4:15:00 AM -0.05 31.91 0.331 7.46 1.95 13.45
1/30/2021 4:30:00 AM -0.05 31.91 0.331 7.46 2.04 13.41
1/30/2021 4:45:00 AM -0.05 31.91 0.33 7.46 2.1 13.45
1/30/2021 5:00:00 AM -0.05 31.91 0.33 7.46 2.02 13.46
1/30/2021 5:15:00 AM -0.05 31.91 0.33 7.46 2.06 13.45
1/30/2021 5:30:00 AM -0.05 31.91 0.329 7.46 2.08 13.45
1/30/2021 5:45:00 AM -0.05 31.91 0.329 7.46 2.04 13.42
1/30/2021 6:00:00 AM -0.05 31.91 0.328 7.46 2.03 13.44
1/30/2021 6:15:00 AM -0.05 31.91 0.328 7.46 2 13.43
1/30/2021 6:30:00 AM -0.05 31.91 0.328 7.45 2.03 13.43
1/30/2021 6:45:00 AM -0.05 31.91 0.328 7.45 2.09 13.43
1/30/2021 7:00:00 AM -0.05 31.91 0.328 7.45 1.98 13.41
1/30/2021 7:15:00 AM -0.05 31.91 0.328 7.45 2.03 13.43
1/30/2021 7:30:00 AM -0.05 31.91 0.328 7.45 1.98 13.44
1/30/2021 7:45:00 AM -0.05 31.91 0.327 7.45 2.07 13.47
1/30/2021 8:00:00 AM -0.05 31.91 0.327 7.46 1.99 13.52
1/30/2021 8:15:00 AM -0.05 31.91 0.328 7.48 2 13.65
1/30/2021 8:30:00 AM -0.04 31.928 0.327 7.49 1.99 13.79
1/30/2021 8:45:00 AM -0.04 31.928 0.327 7.51 1.96 13.94
1/30/2021 9:00:00 AM -0.04 31.928 0.327 7.54 2.01 13.99
1/30/2021 9:15:00 AM -0.04 31.928 0.326 7.56 2.03 14.22
1/30/2021 9:30:00 AM -0.05 31.91 0.326 7.58 2.07 14.31
1/30/2021 9:45:00 AM -0.04 31.928 0.325 7.6 2 14.35
1/30/2021 10:00:00 AM -0.05 31.91 0.326 7.62 1.99 14.5
1/30/2021 10:15:00 AM -0.04 31.928 0.326 7.65 1.97 14.65
1/30/2021 10:30:00 AM -0.04 31.928 0.326 7.67 2.05 14.76
1/30/2021 10:45:00 AM -0.04 31.928 0.325 7.71 2.1 14.91
1/30/2021 11:00:00 AM -0.04 31.928 0.325 7.74 2.02 15.03
1/30/2021 11:15:00 AM -0.04 31.928 0.325 7.77 2.08 15.13
1/30/2021 11:30:00 AM -0.04 31.928 0.326 7.78 2.02 15.22
1/30/2021 11:45:00 AM -0.04 31.928 0.326 7.84 2.09 15.31
1/30/2021 12:00:00 PM -0.04 31.928 0.326 7.87 2.05 15.36
1/30/2021 12:15:00 PM -0.04 31.928 0.326 7.9 2.19 15.44
1/30/2021 12:30:00 PM -0.04 31.928 0.325 7.94 2.35 15.51
1/30/2021 12:45:00 PM -0.04 31.928 0.325 7.97 2.19 15.56
1/30/2021 1:00:00 PM -0.04 31.928 0.325 7.97 2.21 15.59
1/30/2021 1:15:00 PM -0.04 31.928 0.326 8.02 2.71 15.63
1/30/2021 1:30:00 PM -0.04 31.928 0.327 8.07 2.23 15.67
1/30/2021 1:45:00 PM -0.04 31.928 0.326 8.1 2.15 15.67
1/30/2021 2:00:00 PM -0.04 31.928 0.327 8.12 2.15 15.63
1/30/2021 2:15:00 PM -0.04 31.928 0.329 8.14 2.34 15.68
1/30/2021 2:30:00 PM -0.04 31.928 0.328 8.13 2.15 15.65
1/30/2021 2:45:00 PM -0.04 31.928 0.328 8.14 2.18 15.58
1/30/2021 3:00:00 PM -0.04 31.928 0.329 8.13 2.07 15.59
1/30/2021 3:15:00 PM -0.04 31.928 0.328 8.13 2.12 15.55
1/30/2021 3:30:00 PM -0.05 31.91 0.327 8.12 2.11 15.52
1/30/2021 3:45:00 PM -0.05 31.91 0.326 8.11 2.1 15.46
1/30/2021 4:00:00 PM -0.05 31.91 0.324 8.1 2.25 15.41
1/30/2021 4:15:00 PM -0.05 31.91 0.326 8.08 2.09 15.35
1/30/2021 4:30:00 PM -0.05 31.91 0.326 8.05 2.12 15.28
1/30/2021 4:45:00 PM -0.05 31.91 0.327 8.02 2.17 15.19
1/30/2021 5:00:00 PM -0.05 31.91 0.325 7.97 2.11 15.07
1/30/2021 5:15:00 PM -0.05 31.91 0.325 7.93 2.08 14.93
1/30/2021 5:30:00 PM -0.05 31.91 0.324 7.87 2.22 14.77
1/30/2021 5:45:00 PM -0.05 31.91 0.323 7.82 2.21 14.61
1/30/2021 6:00:00 PM -0.05 31.91 0.323 7.78 2.2 14.46
1/30/2021 6:15:00 PM -0.05 31.91 0.324 7.74 2.19 14.34
1/30/2021 6:30:00 PM -0.05 31.91 0.324 7.7 2.25 14.22
1/30/2021 6:45:00 PM -0.05 31.91 0.324 7.68 2.32 14.12
1/30/2021 7:00:00 PM -0.05 31.91 0.323 7.65 2.24 14.04
1/30/2021 7:15:00 PM -0.05 31.91 0.323 7.63 2.24 13.97
1/30/2021 7:30:00 PM -0.05 31.91 0.324 7.61 2.24 13.91
1/30/2021 7:45:00 PM -0.05 31.91 0.324 7.6 2.18 13.86
1/30/2021 8:00:00 PM -0.05 31.91 0.324 7.59 2.2 13.8
1/30/2021 8:15:00 PM -0.05 31.91 0.323 7.57 2.3 13.77
1/30/2021 8:30:00 PM -0.05 31.91 0.322 7.56 2.24 13.73
1/30/2021 8:45:00 PM -0.05 31.91 0.322 7.55 2.25 13.69
1/30/2021 9:00:00 PM -0.05 31.91 0.322 7.54 2.35 13.66
1/30/2021 9:15:00 PM -0.05 31.91 0.322 7.54 2.33 13.63
1/30/2021 9:30:00 PM -0.05 31.91 0.322 7.53 2.25 13.61
1/30/2021 9:45:00 PM -0.05 31.91 0.321 7.52 2.25 13.59
1/30/2021 10:00:00 PM -0.05 31.91 0.321 7.51 2.41 13.56
1/30/2021 10:15:00 PM -0.05 31.91 0.322 7.51 2.22 13.55
1/30/2021 10:30:00 PM -0.05 31.91 0.322 7.49 2.25 13.53
1/30/2021 10:45:00 PM -0.05 31.91 0.321 7.49 2.26 13.51
1/30/2021 11:00:00 PM -0.05 31.91 0.322 7.49 2.24 13.5
1/30/2021 11:15:00 PM -0.05 31.91 0.322 7.48 2.26 13.49
1/30/2021 11:30:00 PM -0.05 31.91 0.322 7.48 2.48 13.48
1/30/2021 11:45:00 PM -0.05 31.91 0.322 7.47 2.31 13.46
1/31/2021 12:00:00 AM -0.05 31.91 0.322 7.47 2.33 13.46
1/31/2021 12:15:00 AM -0.05 31.91 0.322 7.47 2.21 13.45
1/31/2021 12:30:00 AM -0.05 31.91 0.323 7.46 2.27 13.44
1/31/2021 12:45:00 AM -0.05 31.91 0.324 7.46 2.22 13.43
1/31/2021 1:00:00 AM -0.05 31.91 0.323 7.45 2.2 13.42
1/31/2021 1:15:00 AM -0.05 31.91 0.324 7.45 2.25 13.42
1/31/2021 1:30:00 AM -0.05 31.91 0.324 7.45 2.27 13.41
1/31/2021 1:45:00 AM -0.05 31.91 0.324 7.45 2.28 13.4
1/31/2021 2:00:00 AM -0.05 31.91 0.324 7.44 2.2 13.39
1/31/2021 2:15:00 AM -0.05 31.91 0.325 7.44 2.11 13.39
1/31/2021 2:30:00 AM -0.05 31.91 0.326 7.44 2.12 13.39
1/31/2021 2:45:00 AM -0.05 31.91 0.326 7.43 2.13 13.37
1/31/2021 3:00:00 AM -0.05 31.91 0.326 7.43 2.12 13.37
1/31/2021 3:15:00 AM -0.05 31.91 0.325 7.42 2.13 13.36
1/31/2021 3:30:00 AM -0.05 31.91 0.327 7.43 2.18 13.35
1/31/2021 3:45:00 AM -0.05 31.91 0.327 7.43 2.11 13.34
1/31/2021 4:00:00 AM -0.05 31.91 0.327 7.42 2.16 13.34
1/31/2021 4:15:00 AM -0.05 31.91 0.326 7.42 2.13 13.33
1/31/2021 4:30:00 AM -0.05 31.91 0.327 7.42 2.13 13.32
1/31/2021 4:45:00 AM -0.05 31.91 0.327 7.42 2.18 13.32
1/31/2021 5:00:00 AM -0.05 31.91 0.328 7.42 2.1 13.3
1/31/2021 5:15:00 AM -0.05 31.91 0.327 7.42 2.22 13.3
1/31/2021 5:30:00 AM -0.05 31.91 0.328 7.42 2.15 13.29
1/31/2021 5:45:00 AM -0.05 31.91 0.328 7.41 2.14 13.29
1/31/2021 6:00:00 AM -0.05 31.91 0.329 7.41 2.2 13.28
1/31/2021 6:15:00 AM -0.05 31.91 0.329 7.41 2.31 13.28
1/31/2021 6:30:00 AM -0.05 31.91 0.328 7.41 2.11 13.27
1/31/2021 6:45:00 AM -0.05 31.91 0.328 7.41 2.16 13.27
1/31/2021 7:00:00 AM -0.05 31.91 0.327 7.4 2.17 13.26
1/31/2021 7:15:00 AM -0.05 31.91 0.328 7.41 2.2 13.26
1/31/2021 7:30:00 AM -0.05 31.91 0.328 7.41 2.15 13.26
1/31/2021 7:45:00 AM -0.05 31.91 0.328 7.41 2.13 13.28
1/31/2021 8:00:00 AM -0.05 31.91 0.328 7.42 2.24 13.35
1/31/2021 8:15:00 AM -0.04 31.928 0.327 7.43 2.3 13.44
1/31/2021 8:30:00 AM -0.04 31.928 0.326 7.45 2.16 13.59
1/31/2021 8:45:00 AM -0.04 31.928 0.325 7.47 2.11 13.75
1/31/2021 9:00:00 AM -0.04 31.928 0.325 7.5 2.17 13.9
1/31/2021 9:15:00 AM -0.03 31.946 0.325 7.53 2.14 14.09
1/31/2021 9:30:00 AM -0.03 31.946 0.324 7.55 2.16 14.28
1/31/2021 9:45:00 AM -0.03 31.946 0.324 7.59 2.1 14.46
1/31/2021 10:00:00 AM -0.03 31.946 0.324 7.63 2.2 14.64
1/31/2021 10:15:00 AM -0.03 31.946 0.324 7.66 2.05 14.79
1/31/2021 10:30:00 AM -0.03 31.946 0.324 7.7 2.13 14.91
1/31/2021 10:45:00 AM -0.03 31.946 0.324 7.73 2.18 15.02
1/31/2021 11:00:00 AM -0.03 31.946 0.324 7.76 2.21 15.15
1/31/2021 11:15:00 AM -0.03 31.946 0.322 7.8 2.23 15.26
1/31/2021 11:30:00 AM -0.03 31.946 0.323 7.84 2.2 15.37
1/31/2021 11:45:00 AM -0.03 31.946 0.322 7.88 2.12 15.46
1/31/2021 12:00:00 PM -0.03 31.946 0.321 7.91 2.7 15.53
1/31/2021 12:15:00 PM -0.03 31.946 0.321 7.95 2.15 15.61
1/31/2021 12:30:00 PM -0.03 31.946 0.321 7.98 2.1 15.67
1/31/2021 12:45:00 PM -0.03 31.946 0.321 8.02 2.17 15.72
1/31/2021 1:00:00 PM -0.02 31.964 0.321 8.05 2.13 15.75
1/31/2021 1:15:00 PM -0.02 31.964 0.321 8.08 2.28 15.78
1/31/2021 1:30:00 PM -0.02 31.964 0.32 8.11 2.22 15.81
1/31/2021 1:45:00 PM -0.02 31.964 0.319 8.15 2.28 15.84
1/31/2021 2:00:00 PM -0.03 31.946 0.318 8.17 2.25 15.84
1/31/2021 2:15:00 PM -0.03 31.946 0.317 8.17 2.33 15.8
1/31/2021 2:30:00 PM -0.03 31.946 0.317 8.19 2.24 15.78
1/31/2021 2:45:00 PM -0.03 31.946 0.316 8.19 2.32 15.73
1/31/2021 3:00:00 PM -0.04 31.928 0.316 8.17 2.66 15.67
1/31/2021 3:15:00 PM -0.04 31.928 0.315 8.14 2.6 15.59
1/31/2021 3:30:00 PM -0.04 31.928 0.316 8.13 2.53 15.53
1/31/2021 3:45:00 PM -0.04 31.928 0.316 8.11 2.2 15.46
1/31/2021 4:00:00 PM -0.04 31.928 0.316 8.07 2.36 15.34
1/31/2021 4:15:00 PM -0.04 31.928 0.316 8.02 2.41 15.21
1/31/2021 4:30:00 PM -0.05 31.91 0.314 7.97 2.17 15.07
1/31/2021 4:45:00 PM -0.05 31.91 0.313 7.92 2.23 14.93
1/31/2021 5:00:00 PM -0.05 31.91 0.314 7.86 2.26 14.8
1/31/2021 5:15:00 PM -0.05 31.91 0.314 7.83 2.3 14.65
1/31/2021 5:30:00 PM -0.05 31.91 0.315 7.79 2.25 14.51
1/31/2021 5:45:00 PM -0.05 31.91 0.315 7.75 2.22 14.37
1/31/2021 6:00:00 PM -0.05 31.91 0.315 7.71 2.23 14.25
1/31/2021 6:15:00 PM -0.05 31.91 0.315 7.68 2.31 14.13
1/31/2021 6:30:00 PM -0.05 31.91 0.311 7.66 2.26 14.03
1/31/2021 6:45:00 PM -0.05 31.91 0.316 7.64 2.36 13.93
1/31/2021 7:00:00 PM -0.05 31.91 0.316 7.62 2.21 13.85
1/31/2021 7:15:00 PM -0.05 31.91 0.316 7.6 2.16 13.77
1/31/2021 7:30:00 PM -0.05 31.91 0.317 7.58 2.2 13.72
1/31/2021 7:45:00 PM -0.05 31.91 0.318 7.57 2.3 13.66
1/31/2021 8:00:00 PM -0.05 31.91 0.317 7.56 2.14 13.61
1/31/2021 8:15:00 PM -0.05 31.91 0.318 7.54 2.18 13.56
1/31/2021 8:30:00 PM -0.05 31.91 0.319 7.54 2.21 13.51
1/31/2021 8:45:00 PM -0.05 31.91 0.318 7.53 2.19 13.48
1/31/2021 9:00:00 PM -0.05 31.91 0.318 7.52 2.25 13.42
1/31/2021 9:15:00 PM -0.05 31.91 0.318 7.5 2.14 13.4
1/31/2021 9:30:00 PM -0.05 31.91 0.318 7.51 2.19 13.37
1/31/2021 9:45:00 PM -0.05 31.91 0.318 7.5 2.17 13.34
1/31/2021 10:00:00 PM -0.05 31.91 0.318 7.5 2.24 13.31
1/31/2021 10:15:00 PM -0.05 31.91 0.317 7.49 2.15 13.29
1/31/2021 10:30:00 PM -0.05 31.91 0.317 7.48 2.25 13.27
1/31/2021 10:45:00 PM -0.05 31.91 0.317 7.48 2.14 13.25
1/31/2021 11:00:00 PM -0.05 31.91 0.317 7.47 2.18 13.22
1/31/2021 11:15:00 PM -0.05 31.91 0.317 7.46 2.18 13.2
1/31/2021 11:30:00 PM -0.05 31.91 0.317 7.46 2.14 13.19
1/31/2021 11:45:00 PM -0.05 31.91 0.316 7.46 2.18 13.17
2/1/2021 12:00:00 AM -0.05 31.91 0.316 7.46 2.19 13.16
2/1/2021 12:15:00 AM -0.05 31.91 0.317 7.45 2.22 13.14
2/1/2021 12:30:00 AM -0.05 31.91 0.316 7.45 2.19 13.13
2/1/2021 12:45:00 AM -0.05 31.91 0.317 7.45 2.17 13.14
2/1/2021 1:00:00 AM -0.04 31.928 0.316 7.45 2.2 13.13
2/1/2021 1:15:00 AM -0.05 31.91 0.316 7.44 2.19 13.12
2/1/2021 1:30:00 AM -0.05 31.91 0.316 7.45 2.18 13.12
2/1/2021 1:45:00 AM -0.05 31.91 0.316 7.43 2.11 13.12
2/1/2021 2:00:00 AM -0.05 31.91 0.316 7.44 2.15 13.11
2/1/2021 2:15:00 AM -0.05 31.91 0.316 7.44 2.2 13.11
2/1/2021 2:30:00 AM -0.05 31.91 0.316 7.44 2.23 13.1
2/1/2021 2:45:00 AM -0.05 31.91 0.316 7.43 2.18 13.09
2/1/2021 3:00:00 AM -0.05 31.91 0.316 7.43 2.16 13.1
2/1/2021 3:15:00 AM -0.05 31.91 0.316 7.43 2.19 13.1
2/1/2021 3:30:00 AM -0.05 31.91 0.316 7.43 2.13 13.09
2/1/2021 3:45:00 AM -0.05 31.91 0.316 7.43 2.22 13.09
2/1/2021 4:00:00 AM -0.04 31.928 0.315 7.43 2.16 13.09
2/1/2021 4:15:00 AM -0.05 31.91 0.316 7.43 2.2 13.08
2/1/2021 4:30:00 AM -0.05 31.91 0.316 7.43 2.17 13.08
2/1/2021 4:45:00 AM -0.05 31.91 0.317 7.42 2.15 13.07
2/1/2021 5:00:00 AM -0.05 31.91 0.317 7.43 2.2 13.08
2/1/2021 5:15:00 AM -0.05 31.91 0.317 7.43 2.18 13.08
2/1/2021 5:30:00 AM -0.05 31.91 0.316 7.43 2.2 13.07
2/1/2021 5:45:00 AM -0.05 31.91 0.316 7.42 2.15 13.06
2/1/2021 6:00:00 AM -0.05 31.91 0.317 7.43 2.14 13.06
2/1/2021 6:15:00 AM -0.05 31.91 0.317 7.42 2.2 13.05
2/1/2021 6:30:00 AM -0.05 31.91 0.316 7.42 2.16 13.06
2/1/2021 6:45:00 AM -0.05 31.91 0.316 7.42 2.15 13.06
2/1/2021 7:00:00 AM -0.05 31.91 0.316 7.42 2.24 13.05
2/1/2021 7:15:00 AM -0.05 31.91 0.315 7.42 2.18 13.06
2/1/2021 7:30:00 AM -0.05 31.91 0.315 7.43 2.19 13.06
2/1/2021 7:45:00 AM -0.05 31.91 0.316 7.43 2.22 13.07
2/1/2021 8:00:00 AM -0.05 31.91 0.316 7.43 2.17 13.08
2/1/2021 8:15:00 AM -0.05 31.91 0.316 7.43 2.12 13.12
2/1/2021 8:30:00 AM -0.05 31.91 0.317 7.44 2.17 13.17
2/1/2021 8:45:00 AM -0.05 31.91 0.316 7.45 2.18 13.24
2/1/2021 9:00:00 AM -0.05 31.91 0.315 7.45 2.19 13.28
2/1/2021 9:15:00 AM -0.05 31.91 0.315 7.47 2.22 13.36
2/1/2021 9:30:00 AM -0.05 31.91 0.314 7.48 2.21 13.44
2/1/2021 9:45:00 AM -0.05 31.91 0.315 7.5 2.19 13.54
2/1/2021 10:00:00 AM -0.04 31.928 0.314 7.51 2.23 13.62
2/1/2021 10:15:00 AM -0.04 31.928 0.314 7.53 2.2 13.75
2/1/2021 10:30:00 AM -0.05 31.91 0.314 7.55 2.22 13.83
2/1/2021 10:45:00 AM -0.05 31.91 0.313 7.56 2.26 13.87
2/1/2021 11:00:00 AM -0.04 31.928 0.313 7.58 2.24 13.94
2/1/2021 11:15:00 AM -0.04 31.928 0.313 7.59 2.27 14.02
2/1/2021 11:30:00 AM -0.04 31.928 0.313 7.6 2.24 14.09
2/1/2021 11:45:00 AM -0.04 31.928 0.312 7.63 2.22 14.15
2/1/2021 12:00:00 PM -0.04 31.928 0.312 7.63 2.22 14.13
2/1/2021 12:15:00 PM -0.04 31.928 0.311 7.65 2.32 14.21
2/1/2021 12:30:00 PM -0.04 31.928 0.311 7.66 2.33 14.26
2/1/2021 12:45:00 PM -0.04 31.928 0.311 7.67 2.27 14.28
2/1/2021 1:00:00 PM -0.04 31.928 0.311 7.68 2.34 14.3
2/1/2021 1:15:00 PM -0.04 31.928 0.312 7.68 2.4 14.33
2/1/2021 1:30:00 PM -0.04 31.928 0.311 7.7 2.29 14.36
2/1/2021 1:45:00 PM -0.04 31.928 0.31 7.71 2.27 14.38
2/1/2021 2:00:00 PM -0.04 31.928 0.31 7.71 2.3 14.4
2/1/2021 2:15:00 PM -0.04 31.928 0.311 7.72 2.26 14.41
2/1/2021 2:30:00 PM -0.04 31.928 0.31 7.73 2.33 14.42
2/1/2021 2:45:00 PM -0.04 31.928 0.308 7.74 2.3 14.43
2/1/2021 3:00:00 PM -0.04 31.928 0.309 7.74 2.33 14.44
2/1/2021 3:15:00 PM -0.04 31.928 0.309 7.75 2.3 14.45
2/1/2021 3:30:00 PM -0.04 31.928 0.31 7.75 2.26 14.42
2/1/2021 3:45:00 PM -0.05 31.91 0.31 7.73 2.34 14.37
2/1/2021 4:00:00 PM -0.05 31.91 0.309 7.73 2.3 14.31
2/1/2021 4:15:00 PM -0.05 31.91 0.308 7.71 2.3 14.24
2/1/2021 4:30:00 PM -0.05 31.91 0.309 7.7 2.4 14.17
2/1/2021 4:45:00 PM -0.05 31.91 0.309 7.68 2.3 14.1
2/1/2021 5:00:00 PM -0.05 31.91 0.309 7.66 2.34 14.01
2/1/2021 5:15:00 PM -0.05 31.91 0.309 7.64 2.3 13.91
2/1/2021 5:30:00 PM -0.05 31.91 0.308 7.62 2.42 13.82
2/1/2021 5:45:00 PM -0.05 31.91 0.307 7.6 2.33 13.74
2/1/2021 6:00:00 PM -0.05 31.91 0.308 7.59 2.46 13.67
2/1/2021 6:15:00 PM -0.05 31.91 0.308 7.58 2.34 13.6
2/1/2021 6:30:00 PM -0.05 31.91 0.308 7.57 2.34 13.55
2/1/2021 6:45:00 PM -0.05 31.91 0.308 7.56 2.34 13.51
2/1/2021 7:00:00 PM -0.05 31.91 0.308 7.55 2.32 13.47
2/1/2021 7:15:00 PM -0.05 31.91 0.307 7.54 2.34 13.42
2/1/2021 7:30:00 PM -0.05 31.91 0.307 7.53 2.31 13.38
2/1/2021 7:45:00 PM -0.05 31.91 0.306 7.52 2.36 13.35
2/1/2021 8:00:00 PM -0.05 31.91 0.306 7.52 2.27 13.32
2/1/2021 8:15:00 PM -0.05 31.91 0.306 7.51 2.31 13.29
2/1/2021 8:30:00 PM -0.05 31.91 0.306 7.51 2.31 13.27
2/1/2021 8:45:00 PM -0.05 31.91 0.306 7.5 2.3 13.24
2/1/2021 9:00:00 PM -0.05 31.91 0.306 7.5 2.25 13.22
2/1/2021 9:15:00 PM -0.05 31.91 0.306 7.49 2.32 13.19
2/1/2021 9:30:00 PM -0.05 31.91 0.305 7.49 2.3 13.17
2/1/2021 9:45:00 PM -0.05 31.91 0.304 7.48 2.33 13.15
2/1/2021 10:00:00 PM -0.06 31.892 0.303 7.47 2.33 13.13
2/1/2021 10:15:00 PM -0.06 31.892 0.303 7.48 2.29 13.11
2/1/2021 10:30:00 PM -0.06 31.892 0.303 7.47 2.31 13.1
2/1/2021 10:45:00 PM -0.06 31.892 0.303 7.47 2.37 13.09
2/1/2021 11:00:00 PM -0.06 31.892 0.303 7.47 2.31 13.08
2/1/2021 11:15:00 PM -0.05 31.91 0.302 7.46 2.29 13.06
2/1/2021 11:30:00 PM -0.06 31.892 0.302 7.46 2.32 13.05
2/1/2021 11:45:00 PM -0.06 31.892 0.301 7.46 2.3 13.04
2/2/2021 12:00:00 AM -0.05 31.91 0.3 7.46 2.29 13.03
2/2/2021 12:15:00 AM -0.05 31.91 0.299 7.45 2.26 13.03
2/2/2021 12:30:00 AM -0.05 31.91 0.299 7.46 2.3 13.03
2/2/2021 12:45:00 AM -0.05 31.91 0.299 7.45 2.24 13.03
2/2/2021 1:00:00 AM -0.05 31.91 0.299 7.45 2.3 13.03
2/2/2021 1:15:00 AM -0.05 31.91 0.299 7.45 2.28 13.02
2/2/2021 1:30:00 AM -0.05 31.91 0.3 7.45 2.28 13.02
2/2/2021 1:45:00 AM -0.05 31.91 0.3 7.45 2.34 13.02
2/2/2021 2:00:00 AM -0.05 31.91 0.299 7.45 2.26 13.02
2/2/2021 2:15:00 AM -0.05 31.91 0.3 7.45 2.26 13.02
2/2/2021 2:30:00 AM -0.05 31.91 0.3 7.45 2.32 13.02
2/2/2021 2:45:00 AM -0.05 31.91 0.3 7.45 2.32 13.02
2/2/2021 3:00:00 AM -0.05 31.91 0.299 7.45 2.38 13.02
2/2/2021 3:15:00 AM -0.05 31.91 0.299 7.44 2.31 13.03
2/2/2021 3:30:00 AM -0.05 31.91 0.299 7.45 2.34 13.04
2/2/2021 3:45:00 AM -0.05 31.91 0.298 7.45 2.51 13.04
2/2/2021 4:00:00 AM -0.05 31.91 0.296 7.45 2.34 13.04
2/2/2021 4:15:00 AM -0.05 31.91 0.297 7.44 2.31 13.04
2/2/2021 4:30:00 AM -0.05 31.91 0.298 7.44 2.41 13.03
2/2/2021 4:45:00 AM -0.05 31.91 0.298 7.44 2.42 13.02
2/2/2021 5:00:00 AM -0.05 31.91 0.298 7.44 2.45 13.02
2/2/2021 5:15:00 AM -0.05 31.91 0.298 7.44 2.45 13.02
2/2/2021 5:30:00 AM -0.05 31.91 0.298 7.44 2.42 13.01
2/2/2021 5:45:00 AM -0.06 31.892 0.298 7.44 2.5 13.01
2/2/2021 6:00:00 AM -0.06 31.892 0.298 7.44 2.38 13.01
2/2/2021 6:15:00 AM -0.06 31.892 0.298 7.43 2.48 13
2/2/2021 6:30:00 AM -0.06 31.892 0.299 7.43 2.43 12.98
2/2/2021 6:45:00 AM -0.06 31.892 0.299 7.43 2.43 12.99
2/2/2021 7:00:00 AM -0.06 31.892 0.3 7.43 2.49 12.99
2/2/2021 7:15:00 AM -0.05 31.91 0.299 7.43 2.42 12.98
2/2/2021 7:30:00 AM -0.05 31.91 0.299 7.43 2.39 12.99
2/2/2021 7:45:00 AM -0.05 31.91 0.299 7.43 2.34 13.02
2/2/2021 8:00:00 AM -0.05 31.91 0.299 7.44 2.36 13.06
2/2/2021 8:15:00 AM -0.05 31.91 0.298 7.45 2.44 13.11
2/2/2021 8:30:00 AM -0.05 31.91 0.298 7.46 2.34 13.18
2/2/2021 8:45:00 AM -0.05 31.91 0.298 7.47 2.39 13.25
2/2/2021 9:00:00 AM -0.05 31.91 0.299 7.49 2.35 13.32
2/2/2021 9:15:00 AM -0.05 31.91 0.299 7.5 2.41 13.41
2/2/2021 9:30:00 AM -0.05 31.91 0.299 7.52 2.42 13.48
2/2/2021 9:45:00 AM -0.05 31.91 0.299 7.53 2.46 13.56
2/2/2021 10:00:00 AM -0.05 31.91 0.299 7.55 2.4 13.63
2/2/2021 10:15:00 AM -0.05 31.91 0.299 7.57 2.42 13.7
2/2/2021 10:30:00 AM -0.05 31.91 0.298 7.59 2.49 13.81
2/2/2021 10:45:00 AM -0.05 31.91 0.298 7.61 2.51 13.9
2/2/2021 11:00:00 AM -0.05 31.91 0.298 7.63 2.47 13.99
2/2/2021 11:15:00 AM -0.05 31.91 0.299 7.66 2.51 14.07
2/2/2021 11:30:00 AM -0.04 31.928 0.298 7.68 2.57 14.16
2/2/2021 11:45:00 AM -0.04 31.928 0.297 7.71 2.56 14.24
2/2/2021 12:00:00 PM -0.04 31.928 0.298 7.74 2.51 14.33
2/2/2021 12:15:00 PM -0.04 31.928 0.298 7.76 2.56 14.41
2/2/2021 12:30:00 PM -0.04 31.928 0.297 7.78 2.59 14.45
2/2/2021 12:45:00 PM -0.04 31.928 0.297 7.8 2.57 14.52
2/2/2021 1:00:00 PM -0.04 31.928 0.298 7.83 2.56 14.59
2/2/2021 1:15:00 PM -0.04 31.928 0.298 7.85 2.51 14.63
2/2/2021 1:30:00 PM -0.04 31.928 0.297 7.87 2.51 14.67
2/2/2021 1:45:00 PM -0.04 31.928 0.298 7.89 2.6 14.7
2/2/2021 2:00:00 PM -0.04 31.928 0.298 7.91 2.55 14.73
2/2/2021 2:15:00 PM -0.05 31.91 0.298 7.93 2.56 14.74
2/2/2021 2:30:00 PM -0.05 31.91 0.298 7.93 2.59 14.73
2/2/2021 2:45:00 PM -0.05 31.91 0.298 7.94 2.48 14.73
2/2/2021 3:00:00 PM -0.05 31.91 0.298 7.93 2.66 14.71
2/2/2021 3:15:00 PM -0.05 31.91 0.298 7.93 2.52 14.65
2/2/2021 3:30:00 PM -0.05 31.91 0.298 7.91 2.48 14.6
2/2/2021 3:45:00 PM -0.05 31.91 0.298 7.9 2.55 14.56
2/2/2021 4:00:00 PM -0.05 31.91 0.299 7.88 2.52 14.48
2/2/2021 4:15:00 PM -0.05 31.91 0.299 7.85 2.5 14.39
2/2/2021 4:30:00 PM -0.05 31.91 0.3 7.82 2.57 14.27
2/2/2021 4:45:00 PM -0.05 31.91 0.3 7.79 2.46 14.16
2/2/2021 5:00:00 PM -0.05 31.91 0.301 7.76 2.56 14.06
2/2/2021 5:15:00 PM -0.06 31.892 0.301 7.73 2.52 13.94
2/2/2021 5:30:00 PM -0.06 31.892 0.301 7.7 2.57 13.82
2/2/2021 5:45:00 PM -0.06 31.892 0.301 7.67 2.56 13.72
2/2/2021 6:00:00 PM -0.06 31.892 0.302 7.65 2.54 13.62
2/2/2021 6:15:00 PM -0.06 31.892 0.302 7.63 2.51 13.55
2/2/2021 6:30:00 PM -0.06 31.892 0.303 7.62 2.7 13.48
2/2/2021 6:45:00 PM -0.06 31.892 0.304 7.6 2.5 13.42
2/2/2021 7:00:00 PM -0.06 31.892 0.304 7.59 2.54 13.36
2/2/2021 7:15:00 PM -0.06 31.892 0.305 7.57 2.46 13.31
2/2/2021 7:30:00 PM -0.06 31.892 0.305 7.57 2.43 13.26
2/2/2021 7:45:00 PM -0.06 31.892 0.306 7.56 2.47 13.22
2/2/2021 8:00:00 PM -0.06 31.892 0.306 7.55 2.53 13.17
2/2/2021 8:15:00 PM -0.06 31.892 0.306 7.54 2.47 13.14
2/2/2021 8:30:00 PM -0.06 31.892 0.307 7.54 2.5 13.1
2/2/2021 8:45:00 PM -0.06 31.892 0.307 7.53 2.45 13.07
2/2/2021 9:00:00 PM -0.06 31.892 0.308 7.52 2.46 13.03
2/2/2021 9:15:00 PM -0.06 31.892 0.308 7.52 2.43 13.01
2/2/2021 9:30:00 PM -0.05 31.91 0.308 7.51 2.43 12.98
2/2/2021 9:45:00 PM -0.06 31.892 0.308 7.5 2.45 12.97
2/2/2021 10:00:00 PM -0.06 31.892 0.309 7.5 2.43 12.96
2/2/2021 10:15:00 PM -0.05 31.91 0.308 7.49 2.48 12.94
2/2/2021 10:30:00 PM -0.06 31.892 0.309 7.49 2.5 12.93
2/2/2021 10:45:00 PM -0.06 31.892 0.31 7.49 2.46 12.93
2/2/2021 11:00:00 PM -0.06 31.892 0.31 7.49 2.44 12.93
2/2/2021 11:15:00 PM -0.06 31.892 0.31 7.49 2.44 12.92
2/2/2021 11:30:00 PM -0.06 31.892 0.31 7.48 2.39 12.91
2/2/2021 11:45:00 PM -0.06 31.892 0.311 7.48 2.44 12.91
2/3/2021 12:00:00 AM -0.06 31.892 0.31 7.48 2.54 12.9
2/3/2021 12:15:00 AM -0.06 31.892 0.311 7.48 2.4 12.9
2/3/2021 12:30:00 AM -0.06 31.892 0.312 7.48 2.35 12.91
2/3/2021 12:45:00 AM -0.06 31.892 0.312 7.48 2.41 12.92
2/3/2021 1:00:00 AM -0.06 31.892 0.312 7.48 2.59 12.91
2/3/2021 1:15:00 AM -0.06 31.892 0.312 7.47 2.29 12.91
2/3/2021 1:30:00 AM -0.06 31.892 0.312 7.47 2.45 12.9
2/3/2021 1:45:00 AM -0.06 31.892 0.313 7.47 2.28 12.9
2/3/2021 2:00:00 AM -0.06 31.892 0.313 7.47 2.36 12.91
2/3/2021 2:15:00 AM -0.06 31.892 0.313 7.47 2.24 12.9
2/3/2021 2:30:00 AM -0.06 31.892 0.314 7.47 2.27 12.9
2/3/2021 2:45:00 AM -0.06 31.892 0.315 7.46 2.25 12.91
2/3/2021 3:00:00 AM -0.05 31.91 0.315 7.47 2.18 12.9
2/3/2021 3:15:00 AM -0.05 31.91 0.315 7.46 2.21 12.9
2/3/2021 3:30:00 AM -0.06 31.892 0.316 7.46 2.27 12.9
2/3/2021 3:45:00 AM -0.05 31.91 0.316 7.46 2.24 12.9
2/3/2021 4:00:00 AM -0.06 31.892 0.316 7.46 2.24 12.91
2/3/2021 4:15:00 AM -0.05 31.91 0.317 7.46 2.26 12.9
2/3/2021 4:30:00 AM -0.06 31.892 0.317 7.46 2.35 12.89
2/3/2021 4:45:00 AM -0.06 31.892 0.317 7.46 2.26 12.9
2/3/2021 5:00:00 AM -0.05 31.91 0.317 7.46 2.26 12.9
2/3/2021 5:15:00 AM -0.05 31.91 0.317 7.46 2.22 12.89
2/3/2021 5:30:00 AM -0.06 31.892 0.316 7.46 2.26 12.9
2/3/2021 5:45:00 AM -0.06 31.892 0.316 7.46 2.27 12.89
2/3/2021 6:00:00 AM -0.06 31.892 0.316 7.46 2.24 12.9
2/3/2021 6:15:00 AM -0.06 31.892 0.316 7.46 2.26 12.9
2/3/2021 6:30:00 AM -0.06 31.892 0.317 7.46 2.3 12.9
2/3/2021 6:45:00 AM -0.06 31.892 0.316 7.46 2.3 12.91
2/3/2021 7:00:00 AM -0.06 31.892 0.315 7.46 2.31 12.91
2/3/2021 7:15:00 AM -0.06 31.892 0.316 7.46 2.28 12.91
2/3/2021 7:30:00 AM -0.06 31.892 0.316 7.46 2.21 12.93
2/3/2021 7:45:00 AM -0.06 31.892 0.315 7.47 2.29 12.96
2/3/2021 8:00:00 AM -0.05 31.91 0.315 7.48 2.26 13.02
2/3/2021 8:15:00 AM -0.05 31.91 0.315 7.49 2.27 13.1
2/3/2021 8:30:00 AM -0.05 31.91 0.314 7.51 2.26 13.21
2/3/2021 8:45:00 AM -0.05 31.91 0.315 7.53 2.3 13.34
2/3/2021 9:00:00 AM -0.05 31.91 0.314 7.56 2.3 13.48
2/3/2021 9:15:00 AM -0.05 31.91 0.314 7.58 2.28 13.57
2/3/2021 9:30:00 AM -0.05 31.91 0.313 7.59 2.34 13.65
2/3/2021 9:45:00 AM -0.04 31.928 0.313 7.63 2.31 13.77
2/3/2021 10:00:00 AM -0.04 31.928 0.312 7.65 2.34 13.87
2/3/2021 10:15:00 AM -0.04 31.928 0.312 7.67 2.37 13.93
2/3/2021 10:30:00 AM -0.04 31.928 0.311 7.7 2.32 14.04
2/3/2021 10:45:00 AM -0.04 31.928 0.311 7.72 2.29 14.11
2/3/2021 11:00:00 AM -0.04 31.928 0.31 7.74 2.41 14.19
2/3/2021 11:15:00 AM -0.04 31.928 0.311 7.77 2.32 14.25
2/3/2021 11:30:00 AM -0.04 31.928 0.31 7.8 2.41 14.34
2/3/2021 11:45:00 AM -0.04 31.928 0.309 7.83 2.38 14.42
2/3/2021 12:00:00 PM -0.03 31.946 0.308 7.86 2.43 14.49
2/3/2021 12:15:00 PM -0.03 31.946 0.307 7.89 2.39 14.56
2/3/2021 12:30:00 PM -0.04 31.928 0.307 7.91 2.43 14.58
2/3/2021 12:45:00 PM -0.04 31.928 0.307 7.92 2.42 14.59
2/3/2021 1:00:00 PM -0.04 31.928 0.307 7.94 2.45 14.64
2/3/2021 1:15:00 PM -0.03 31.946 0.306 7.97 2.45 14.67
2/3/2021 1:30:00 PM -0.03 31.946 0.306 7.99 2.39 14.71
2/3/2021 1:45:00 PM -0.03 31.946 0.306 8.01 2.37 14.7
2/3/2021 2:00:00 PM -0.03 31.946 0.306 8.02 2.47 14.7
2/3/2021 2:15:00 PM -0.03 31.946 0.306 8.02 2.39 14.67
2/3/2021 2:30:00 PM -0.03 31.946 0.306 8.03 2.42 14.67
2/3/2021 2:45:00 PM -0.04 31.928 0.307 8.02 2.42 14.64
2/3/2021 3:00:00 PM -0.04 31.928 0.307 8.01 2.5 14.58
2/3/2021 3:15:00 PM -0.04 31.928 0.305 7.96 2.48 14.45
2/3/2021 3:30:00 PM -0.05 31.91 0.306 7.92 2.57 14.33
2/3/2021 3:45:00 PM -0.05 31.91 0.306 7.87 2.42 14.21
2/3/2021 4:00:00 PM -0.05 31.91 0.306 7.84 2.31 14.1
2/3/2021 4:15:00 PM -0.05 31.91 0.306 7.81 2.29 14.02
2/3/2021 4:30:00 PM -0.05 31.91 0.306 7.79 2.3 13.95
2/3/2021 4:45:00 PM -0.05 31.91 0.306 7.77 2.32 13.87
2/3/2021 5:00:00 PM -0.05 31.91 0.306 7.74 2.34 13.77
2/3/2021 5:15:00 PM -0.05 31.91 0.306 7.71 2.29 13.66
2/3/2021 5:30:00 PM -0.05 31.91 0.306 7.69 2.38 13.58
2/3/2021 5:45:00 PM -0.05 31.91 0.306 7.66 2.32 13.49
2/3/2021 6:00:00 PM -0.05 31.91 0.305 7.64 2.33 13.43
2/3/2021 6:15:00 PM -0.05 31.91 0.306 7.63 2.33 13.37
2/3/2021 6:30:00 PM -0.05 31.91 0.306 7.61 2.36 13.31
2/3/2021 6:45:00 PM -0.05 31.91 0.306 7.6 2.27 13.27
2/3/2021 7:00:00 PM -0.05 31.91 0.306 7.59 2.33 13.22
2/3/2021 7:15:00 PM -0.05 31.91 0.307 7.58 2.29 13.18
2/3/2021 7:30:00 PM -0.05 31.91 0.309 7.57 2.39 13.16
2/3/2021 7:45:00 PM -0.05 31.91 0.311 7.56 2.31 13.13
2/3/2021 8:00:00 PM -0.05 31.91 0.312 7.55 2.34 13.1
2/3/2021 8:15:00 PM -0.05 31.91 0.313 7.55 2.33 13.08
2/3/2021 8:30:00 PM -0.05 31.91 0.316 7.54 2.27 13.07
2/3/2021 8:45:00 PM -0.05 31.91 0.317 7.53 2.35 13.06
2/3/2021 9:00:00 PM -0.05 31.91 0.318 7.53 2.31 13.05
2/3/2021 9:15:00 PM -0.05 31.91 0.318 7.53 2.25 13.04
2/3/2021 9:30:00 PM -0.05 31.91 0.318 7.52 2.26 13.03
2/3/2021 9:45:00 PM -0.05 31.91 0.318 7.52 2.26 13.03
2/3/2021 10:00:00 PM -0.05 31.91 0.319 7.51 2.31 13.04
2/3/2021 10:15:00 PM -0.05 31.91 0.318 7.51 2.24 13.03
2/3/2021 10:30:00 PM -0.05 31.91 0.318 7.51 2.27 13.03
2/3/2021 10:45:00 PM -0.05 31.91 0.318 7.51 2.24 13.04
2/3/2021 11:00:00 PM -0.05 31.91 0.318 7.51 2.26 13.04
2/3/2021 11:15:00 PM -0.05 31.91 0.316 7.51 2.26 13.04
2/3/2021 11:30:00 PM -0.05 31.91 0.316 7.5 2.25 13.04
2/3/2021 11:45:00 PM -0.05 31.91 0.318 7.5 2.22 13.04
2/4/2021 12:00:00 AM -0.05 31.91 0.317 7.5 2.18 13.05
2/4/2021 12:15:00 AM -0.05 31.91 0.317 7.5 2.25 13.05
2/4/2021 12:30:00 AM -0.05 31.91 0.317 7.5 2.28 13.05
2/4/2021 12:45:00 AM -0.05 31.91 0.317 7.5 2.27 13.06
2/4/2021 1:00:00 AM -0.05 31.91 0.317 7.5 2.23 13.06
2/4/2021 1:15:00 AM -0.05 31.91 0.317 7.5 2.25 13.07
2/4/2021 1:30:00 AM -0.05 31.91 0.317 7.5 2.26 13.06
2/4/2021 1:45:00 AM -0.05 31.91 0.317 7.5 2.29 13.07
2/4/2021 2:00:00 AM -0.05 31.91 0.316 7.5 2.26 13.07
2/4/2021 2:15:00 AM -0.05 31.91 0.316 7.5 2.26 13.08
2/4/2021 2:30:00 AM -0.05 31.91 0.316 7.5 2.23 13.08
2/4/2021 2:45:00 AM -0.05 31.91 0.315 7.49 2.22 13.08
2/4/2021 3:00:00 AM -0.05 31.91 0.315 7.49 2.26 13.08
2/4/2021 3:15:00 AM -0.05 31.91 0.315 7.49 2.26 13.09
2/4/2021 3:30:00 AM -0.05 31.91 0.316 7.49 2.24 13.08
2/4/2021 3:45:00 AM -0.05 31.91 0.316 7.49 2.26 13.09
2/4/2021 4:00:00 AM -0.05 31.91 0.316 7.49 2.22 13.09
2/4/2021 4:15:00 AM -0.05 31.91 0.316 7.49 2.3 13.1
2/4/2021 4:30:00 AM -0.05 31.91 0.315 7.49 2.31 13.1
2/4/2021 4:45:00 AM -0.06 31.892 0.315 7.49 2.25 13.1
2/4/2021 5:00:00 AM -0.06 31.892 0.316 7.49 2.21 13.1
2/4/2021 5:15:00 AM -0.06 31.892 0.316 7.49 2.24 13.11
2/4/2021 5:30:00 AM -0.05 31.91 0.316 7.49 2.3 13.11
2/4/2021 5:45:00 AM -0.06 31.892 0.316 7.49 2.27 13.12
2/4/2021 6:00:00 AM -0.06 31.892 0.316 7.49 2.27 13.12
2/4/2021 6:15:00 AM -0.06 31.892 0.316 7.49 2.24 13.13
2/4/2021 6:30:00 AM -0.05 31.91 0.316 7.49 2.29 13.13
2/4/2021 6:45:00 AM -0.05 31.91 0.316 7.49 2.26 13.14
2/4/2021 7:00:00 AM -0.05 31.91 0.316 7.49 2.21 13.15
2/4/2021 7:15:00 AM -0.05 31.91 0.316 7.49 2.25 13.15
2/4/2021 7:30:00 AM -0.05 31.91 0.316 7.49 2.2 13.18
2/4/2021 7:45:00 AM -0.05 31.91 0.314 7.5 2.24 13.23
2/4/2021 8:00:00 AM -0.05 31.91 0.315 7.51 2.23 13.29
2/4/2021 8:15:00 AM -0.05 31.91 0.315 7.53 2.23 13.39
2/4/2021 8:30:00 AM -0.05 31.91 0.314 7.55 2.25 13.52
2/4/2021 8:45:00 AM -0.04 31.928 0.314 7.58 2.24 13.65
2/4/2021 9:00:00 AM -0.04 31.928 0.314 7.61 2.25 13.8
2/4/2021 9:15:00 AM -0.04 31.928 0.313 7.64 2.22 13.95
2/4/2021 9:30:00 AM -0.03 31.946 0.313 7.68 2.25 14.11
2/4/2021 9:45:00 AM -0.03 31.946 0.313 7.72 2.29 14.23
2/4/2021 10:00:00 AM -0.03 31.946 0.312 7.75 2.29 14.33
2/4/2021 10:15:00 AM -0.03 31.946 0.312 7.77 2.29 14.39
2/4/2021 10:30:00 AM -0.03 31.946 0.313 7.8 2.27 14.43
2/4/2021 10:45:00 AM -0.03 31.946 0.313 7.82 2.34 14.49
2/4/2021 11:00:00 AM -0.03 31.946 0.312 7.86 2.3 14.58
2/4/2021 11:15:00 AM -0.02 31.964 0.312 7.88 2.31 14.64
2/4/2021 11:30:00 AM -0.02 31.964 0.311 7.91 2.32 14.68
2/4/2021 11:45:00 AM -0.02 31.964 0.311 7.94 2.39 14.72
2/4/2021 12:00:00 PM -0.01 31.982 0.31 7.97 2.35 14.75
2/4/2021 12:15:00 PM -0.01 31.982 0.309 7.99 2.39 14.78
2/4/2021 12:30:00 PM -0.01 31.982 0.31 8.02 2.45 14.81
2/4/2021 12:45:00 PM -0.01 31.982 0.31 8.04 2.42 14.82
2/4/2021 1:00:00 PM -0.01 31.982 0.31 8.07 2.79 14.84
2/4/2021 1:15:00 PM -0.01 31.982 0.309 8.08 2.5 14.84
2/4/2021 1:30:00 PM -0.01 31.982 0.31 8.09 2.43 14.81
2/4/2021 1:45:00 PM -0.02 31.964 0.31 8.09 2.51 14.79
2/4/2021 2:00:00 PM -0.02 31.964 0.31 8.09 2.49 14.75
2/4/2021 2:15:00 PM -0.02 31.964 0.31 8.08 2.37 14.71
2/4/2021 2:30:00 PM -0.02 31.964 0.31 8.06 2.38 14.65
2/4/2021 2:45:00 PM -0.03 31.946 0.31 8.04 2.41 14.59
2/4/2021 3:00:00 PM -0.03 31.946 0.31 8.02 2.5 14.54
2/4/2021 3:15:00 PM -0.03 31.946 0.309 8 2.42 14.49
2/4/2021 3:30:00 PM -0.03 31.946 0.31 7.98 2.35 14.44
2/4/2021 3:45:00 PM -0.04 31.928 0.31 7.97 2.35 14.38
2/4/2021 4:00:00 PM -0.04 31.928 0.31 7.95 2.44 14.33
2/4/2021 4:15:00 PM -0.04 31.928 0.31 7.93 2.38 14.25
2/4/2021 4:30:00 PM -0.04 31.928 0.311 7.9 2.37 14.16
2/4/2021 4:45:00 PM -0.05 31.91 0.311 7.87 2.34 14.08
2/4/2021 5:00:00 PM -0.05 31.91 0.311 7.83 2.39 13.96
2/4/2021 5:15:00 PM -0.05 31.91 0.313 7.79 2.36 13.85
2/4/2021 5:30:00 PM -0.05 31.91 0.314 7.76 2.53 13.73
2/4/2021 5:45:00 PM -0.05 31.91 0.314 7.72 2.35 13.61
2/4/2021 6:00:00 PM -0.05 31.91 0.315 7.69 2.39 13.51
2/4/2021 6:15:00 PM -0.05 31.91 0.316 7.67 2.37 13.42
2/4/2021 6:30:00 PM -0.05 31.91 0.316 7.64 2.43 13.35
2/4/2021 6:45:00 PM -0.06 31.892 0.316 7.63 2.36 13.29
2/4/2021 7:00:00 PM -0.06 31.892 0.317 7.61 2.38 13.23
2/4/2021 7:15:00 PM -0.06 31.892 0.318 7.6 2.36 13.19
2/4/2021 7:30:00 PM -0.06 31.892 0.318 7.59 2.35 13.17
2/4/2021 7:45:00 PM -0.06 31.892 0.318 7.58 2.37 13.15
2/4/2021 8:00:00 PM -0.06 31.892 0.319 7.57 2.3 13.13
2/4/2021 8:15:00 PM -0.06 31.892 0.32 7.57 2.33 13.14
2/4/2021 8:30:00 PM -0.06 31.892 0.32 7.56 2.27 13.13
2/4/2021 8:45:00 PM -0.06 31.892 0.32 7.56 2.35 13.12
2/4/2021 9:00:00 PM -0.05 31.91 0.32 7.55 2.33 13.12
2/4/2021 9:15:00 PM -0.05 31.91 0.321 7.55 2.3 13.12
2/4/2021 9:30:00 PM -0.05 31.91 0.32 7.54 2.52 13.12
2/4/2021 9:45:00 PM -0.05 31.91 0.322 7.54 2.54 13.14
2/4/2021 10:00:00 PM -0.05 31.91 0.322 7.54 2.37 13.14
2/4/2021 10:15:00 PM -0.05 31.91 0.322 7.53 2.39 13.15
2/4/2021 10:30:00 PM -0.05 31.91 0.323 7.53 2.37 13.15
2/4/2021 10:45:00 PM -0.05 31.91 0.324 7.53 2.44 13.16
2/4/2021 11:00:00 PM -0.05 31.91 0.325 7.53 2.43 13.17
2/4/2021 11:15:00 PM -0.05 31.91 0.325 7.53 2.42 13.18
2/4/2021 11:30:00 PM -0.05 31.91 0.326 7.52 2.41 13.18
2/4/2021 11:45:00 PM -0.05 31.91 0.326 7.52 2.34 13.18
2/5/2021 12:00:00 AM -0.05 31.91 0.327 7.52 2.31 13.2
2/5/2021 12:15:00 AM -0.05 31.91 0.328 7.52 2.38 13.21
2/5/2021 12:30:00 AM -0.05 31.91 0.329 7.52 2.31 13.2
2/5/2021 12:45:00 AM -0.05 31.91 0.33 7.52 2.31 13.21
2/5/2021 1:00:00 AM -0.05 31.91 0.33 7.51 2.38 13.21
2/5/2021 1:15:00 AM -0.05 31.91 0.331 7.51 2.32 13.22
2/5/2021 1:30:00 AM -0.05 31.91 0.333 7.51 2.23 13.22
2/5/2021 1:45:00 AM -0.04 31.928 0.333 7.51 2.24 13.23
2/5/2021 2:00:00 AM -0.04 31.928 0.334 7.51 2.26 13.22
2/5/2021 2:15:00 AM -0.04 31.928 0.335 7.51 2.31 13.22
2/5/2021 2:30:00 AM -0.05 31.91 0.335 7.51 2.28 13.23
2/5/2021 2:45:00 AM -0.04 31.928 0.335 7.51 2.31 13.22
2/5/2021 3:00:00 AM -0.04 31.928 0.335 7.51 2.32 13.22
2/5/2021 3:15:00 AM -0.04 31.928 0.335 7.51 2.43 13.22
2/5/2021 3:30:00 AM -0.04 31.928 0.335 7.51 2.52 13.21
2/5/2021 3:45:00 AM -0.04 31.928 0.336 7.51 2.46 13.21
2/5/2021 4:00:00 AM -0.04 31.928 0.335 7.51 2.35 13.2
2/5/2021 4:15:00 AM -0.05 31.91 0.335 7.51 2.34 13.2
2/5/2021 4:30:00 AM -0.04 31.928 0.335 7.51 2.34 13.2
2/5/2021 4:45:00 AM -0.04 31.928 0.335 7.51 2.17 13.19
2/5/2021 5:00:00 AM -0.04 31.928 0.335 7.51 2.38 13.19
2/5/2021 5:15:00 AM -0.04 31.928 0.334 7.51 2.28 13.18
2/5/2021 5:30:00 AM -0.03 31.946 0.335 7.51 2.47 13.18
2/5/2021 5:45:00 AM -0.03 31.946 0.334 7.51 2.39 13.17
2/5/2021 6:00:00 AM -0.03 31.946 0.334 7.51 2.24 13.16
2/5/2021 6:15:00 AM -0.04 31.928 0.334 7.51 2.61 13.16
2/5/2021 6:30:00 AM -0.04 31.928 0.332 7.51 2.61 13.15
2/5/2021 6:45:00 AM -0.05 31.91 0.332 7.51 2.42 13.14
2/5/2021 7:00:00 AM -0.04 31.928 0.332 7.51 2.33 13.14
2/5/2021 7:15:00 AM -0.03 31.946 0.332 7.52 2.44 13.14
2/5/2021 7:30:00 AM -0.04 31.928 0.332 7.52 2.22 13.14
2/5/2021 7:45:00 AM -0.03 31.946 0.33 7.52 2.29 13.14
2/5/2021 8:00:00 AM -0.03 31.946 0.331 7.53 2.35 13.15
2/5/2021 8:15:00 AM -0.02 31.964 0.331 7.53 2.3 13.2
2/5/2021 8:30:00 AM -0.02 31.964 0.33 7.55 2.34 13.26
2/5/2021 8:45:00 AM -0.01 31.982 0.329 7.58 2.45 13.41
2/5/2021 9:00:00 AM -0.01 31.982 0.329 7.6 2.35 13.5
2/5/2021 9:15:00 AM 0 32 0.329 7.63 2.33 13.67
2/5/2021 9:30:00 AM